Provisional Data: Little Clearfield Creek near Dimeling, PA


Please select a monitoring station.
Please select start date.
Please select start date.

Toggle Unit: C/F Toggle Unit: C/F
Sample Time Temperature (C) Temperature (F) Specific Conductivity (mS/cm) pH   Turbidity (NTU+) DO (mg/L)
5/17/2022 12:00:00 AM 14.69 58.442 0.398 7.76 5.64 9.31
5/17/2022 12:15:00 AM 14.64 58.352 0.398 7.76 5.61 9.31
5/17/2022 12:30:00 AM 14.57 58.226 0.399 7.75 14.2 9.32
5/17/2022 12:45:00 AM 14.49 58.082 0.399 7.75 8.38 9.33
5/17/2022 1:00:00 AM 14.41 57.938 0.4 7.75 12.2 9.34
5/17/2022 1:15:00 AM 14.33 57.794 0.4 7.75 5.49 9.36
5/17/2022 1:30:00 AM 14.25 57.65 0.4 7.75 5.77 9.38
5/17/2022 1:45:00 AM 14.16 57.488 0.4 7.74 12.33 9.39
5/17/2022 2:00:00 AM 14.08 57.344 0.401 7.75 5.65 9.41
5/17/2022 2:15:00 AM 14 57.2 0.401 7.75 5.87 9.42
5/17/2022 2:30:00 AM 13.93 57.074 0.402 7.74 28.19 9.43
5/17/2022 2:45:00 AM 13.85 56.93 0.402 7.74 14.21 9.45
5/17/2022 3:00:00 AM 13.77 56.786 0.402 7.74 6.04 9.47
5/17/2022 3:15:00 AM 13.69 56.642 0.403 7.74 13.79 9.48
5/17/2022 3:30:00 AM 13.62 56.516 0.403 7.74 14.18 9.5
5/17/2022 3:45:00 AM 13.54 56.372 0.403 7.74 5.47 9.52
5/17/2022 4:00:00 AM 13.47 56.246 0.404 7.74 12.24 9.53
5/17/2022 4:15:00 AM 13.4 56.12 0.404 7.74 5.21 9.56
5/17/2022 4:30:00 AM 13.33 55.994 0.405 7.74 14.68 9.58
5/17/2022 4:45:00 AM 13.25 55.85 0.404 7.74 5.59 9.6
5/17/2022 5:00:00 AM 13.18 55.724 0.405 7.74 5.01 9.61
5/17/2022 5:15:00 AM 13.11 55.598 0.405 7.73 10.08 9.62
5/17/2022 5:30:00 AM 13.03 55.454 0.405 7.74 8.79 9.65
5/17/2022 5:45:00 AM 12.96 55.328 0.405 7.74 5.55 9.67
5/17/2022 6:00:00 AM 12.88 55.184 0.405 7.74 4.98 9.68
5/17/2022 6:15:00 AM 12.81 55.058 0.406 7.74 8.1 9.71
5/17/2022 6:30:00 AM 12.74 54.932 0.406 7.74 7.51 9.74
5/17/2022 6:45:00 AM 12.68 54.824 0.406 7.74 12.81 9.77
5/17/2022 7:00:00 AM 12.62 54.716 0.407 7.73 8.6 9.81
5/17/2022 7:15:00 AM 12.59 54.662 0.408 7.74 6.04 9.86
5/17/2022 7:30:00 AM 12.58 54.644 0.407 7.75 5.32 9.91
5/17/2022 7:45:00 AM 12.57 54.626 0.407 7.77 5.36 9.96
5/17/2022 8:00:00 AM 12.58 54.644 0.407 7.77 5.4 9.99
5/17/2022 8:15:00 AM 12.59 54.662 0.407 7.77 8.83 10.03
5/17/2022 8:30:00 AM 12.62 54.716 0.407 7.78 11.86 10.06
5/17/2022 8:45:00 AM 12.65 54.77 0.407 7.79 4.51 10.1
5/17/2022 9:00:00 AM 12.71 54.878 0.408 7.8 6.75 10.13
5/17/2022 9:15:00 AM 12.76 54.968 0.408 7.8 43.3 10.13
5/17/2022 9:30:00 AM 12.81 55.058 0.407 7.81 13.78 10.15
5/17/2022 9:45:00 AM 12.87 55.166 0.407 7.82 4.84 10.17
5/17/2022 10:00:00 AM 12.93 55.274 0.407 7.83 5.06 10.18
5/17/2022 10:15:00 AM 13.06 55.508 0.407 7.83 4.65 10.18
5/17/2022 10:30:00 AM 13.19 55.742 0.407 7.83 7.59 10.19
5/17/2022 10:45:00 AM 13.36 56.048 0.407 7.85 5.13 10.2
5/17/2022 11:00:00 AM 13.56 56.408 0.407 7.86 5.05 10.21
5/17/2022 11:15:00 AM 13.7 56.66 0.408 7.86 5.64 10.2
5/17/2022 11:30:00 AM 13.81 56.858 0.407 7.86 5.95 10.19
5/17/2022 11:45:00 AM 13.97 57.146 0.407 7.88 5.34 10.19
5/17/2022 12:00:00 PM 14.15 57.47 0.408 7.88 6.18 10.19
5/17/2022 12:15:00 PM 14.39 57.902 0.407 7.88 6.13 10.18
5/17/2022 12:30:00 PM 14.61 58.298 0.407 7.9 4.82 10.15
5/17/2022 12:45:00 PM 14.79 58.622 0.407 7.9 34.81 10.12
5/17/2022 1:00:00 PM 15.02 59.036 0.408 7.91 10.04 10.1
5/17/2022 1:15:00 PM 15.07 59.126 0.407 7.92 4.13 10.08
5/17/2022 1:30:00 PM 15.18 59.324 0.407 7.91 4.39 10.03
5/17/2022 1:45:00 PM 15.43 59.774 0.407 7.92 4.39 10.01
5/17/2022 2:00:00 PM 15.74 60.332 0.408 7.93 11.11 9.99
5/17/2022 2:15:00 PM 15.98 60.764 0.408 7.94 11.56 9.96
5/17/2022 2:30:00 PM 16.25 61.25 0.408 7.94 14.49 9.92
5/17/2022 2:45:00 PM 16.46 61.628 0.408 7.94 10.73 9.88
5/17/2022 3:00:00 PM 16.6 61.88 0.408 7.95 5.26 9.86
5/17/2022 3:15:00 PM 16.71 62.078 0.408 7.96 4.92 9.82
5/17/2022 3:30:00 PM 16.89 62.402 0.409 7.96 9.42 9.78
5/17/2022 3:45:00 PM 16.94 62.492 0.409 7.96 3.78 9.74
5/17/2022 4:00:00 PM 17.07 62.726 0.409 7.97 4.42 9.7
5/17/2022 4:15:00 PM 17.12 62.816 0.409 7.97 4.45 9.67
5/17/2022 4:30:00 PM 17.15 62.87 0.409 7.97 8.69 9.63
5/17/2022 4:45:00 PM 17.21 62.978 0.409 7.97 3.83 9.61
5/17/2022 5:00:00 PM 17.2 62.96 0.409 7.97 4.25 9.59
5/17/2022 5:15:00 PM 17.13 62.834 0.41 7.98 4.96 9.55
5/17/2022 5:30:00 PM 17.07 62.726 0.409 7.97 3.97 9.51
5/17/2022 5:45:00 PM 17.02 62.636 0.409 7.96 5.03 9.48
5/17/2022 6:00:00 PM 16.92 62.456 0.41 7.96 4.72 9.45
5/17/2022 6:15:00 PM 16.8 62.24 0.41 7.96 12.92 9.43
5/17/2022 6:30:00 PM 16.7 62.06 0.41 7.95 4.38 9.41
5/17/2022 6:45:00 PM 16.61 61.898 0.41 7.94 8.66 9.37
5/17/2022 7:00:00 PM 16.49 61.682 0.41 7.94 4.62 9.35
5/17/2022 7:15:00 PM 16.38 61.484 0.41 7.92 5.26 9.31
5/17/2022 7:30:00 PM 16.26 61.268 0.411 7.91 14.26 9.27
5/17/2022 7:45:00 PM 16.15 61.07 0.411 7.9 4.12 9.26
5/17/2022 8:00:00 PM 16.04 60.872 0.411 7.89 4.44 9.24
5/17/2022 8:15:00 PM 15.91 60.638 0.411 7.88 4.66 9.24
5/17/2022 8:30:00 PM 15.81 60.458 0.411 7.87 5.41 9.23
5/17/2022 8:45:00 PM 15.7 60.26 0.412 7.86 4.37 9.22
5/17/2022 9:00:00 PM 15.59 60.062 0.412 7.84 15.59 9.2
5/17/2022 9:15:00 PM 15.49 59.882 0.412 7.84 7.13 9.2
5/17/2022 9:30:00 PM 15.39 59.702 0.412 7.83 7.01 9.23
5/17/2022 9:45:00 PM 15.29 59.522 0.412 7.82 18.14 9.22
5/17/2022 10:00:00 PM 15.19 59.342 0.412 7.82 5.37 9.24
5/17/2022 10:15:00 PM 15.09 59.162 0.411 7.82 4.99 9.24
5/17/2022 10:30:00 PM 14.99 58.982 0.412 7.81 11.19 9.26
5/17/2022 10:45:00 PM 14.9 58.82 0.412 7.81 5.08 9.27
5/17/2022 11:00:00 PM 14.81 58.658 0.413 7.8 4.75 9.28
5/17/2022 11:15:00 PM 14.73 58.514 0.414 7.8 12.49 9.3
5/17/2022 11:30:00 PM 14.63 58.334 0.414 7.79 9.81 9.31
5/17/2022 11:45:00 PM 14.54 58.172 0.414 7.79 5.26 9.33
5/18/2022 12:00:00 AM 14.44 57.992 0.414 7.78 10.63 9.33
5/18/2022 12:15:00 AM 14.35 57.83 0.414 7.78 4.82 9.35
5/18/2022 12:30:00 AM 14.26 57.668 0.415 7.78 12.84 9.37
5/18/2022 12:45:00 AM 14.15 57.47 0.415 7.78 5.66 9.41
5/18/2022 1:00:00 AM 14.06 57.308 0.415 7.77 9.5 9.41
5/18/2022 1:15:00 AM 13.96 57.128 0.415 7.78 10.14 9.44
5/18/2022 1:30:00 AM 13.85 56.93 0.416 7.78 4.45 9.45
5/18/2022 1:45:00 AM 13.75 56.75 0.416 7.77 6.56 9.47
5/18/2022 2:00:00 AM 13.65 56.57 0.416 7.77 4.75 9.49
5/18/2022 2:15:00 AM 13.55 56.39 0.416 7.77 6.62 9.51
5/18/2022 2:30:00 AM 13.45 56.21 0.417 7.76 9.37 9.53
5/18/2022 2:45:00 AM 13.35 56.03 0.417 7.76 10.37 9.55
5/18/2022 3:00:00 AM 13.26 55.868 0.417 7.76 6.64 9.6
5/18/2022 3:15:00 AM 13.17 55.706 0.417 7.76 4.95 9.61
5/18/2022 3:30:00 AM 13.07 55.526 0.417 7.76 4.68 9.62
5/18/2022 3:45:00 AM 12.98 55.364 0.417 7.76 5.36 9.64
5/18/2022 4:00:00 AM 12.88 55.184 0.418 7.76 5.01 9.68
5/18/2022 4:15:00 AM 12.79 55.022 0.418 7.76 5.13 9.7
5/18/2022 4:30:00 AM 12.7 54.86 0.418 7.76 4.94 9.73
5/18/2022 4:45:00 AM 12.61 54.698 0.418 7.76 5.14 9.74
5/18/2022 5:00:00 AM 12.51 54.518 0.419 7.75 26.35 9.76
5/18/2022 5:15:00 AM 12.41 54.338 0.418 7.76 4.9 9.79
5/18/2022 5:30:00 AM 12.32 54.176 0.419 7.76 4.88 9.81
5/18/2022 5:45:00 AM 12.22 53.996 0.419 7.76 12.71 9.85
5/18/2022 6:00:00 AM 12.13 53.834 0.419 7.76 5.03 9.86
5/18/2022 6:15:00 AM 12.03 53.654 0.419 7.75 4.74 9.9
5/18/2022 6:30:00 AM 11.95 53.51 0.42 7.76 5.41 9.94
5/18/2022 6:45:00 AM 11.87 53.366 0.42 7.75 13.81 9.96
5/18/2022 7:00:00 AM 11.78 53.204 0.42 7.76 4.44 10
5/18/2022 7:15:00 AM 11.71 53.078 0.42 7.76 12.5 10.04
5/18/2022 7:30:00 AM 11.67 53.006 0.42 7.76 5.06 10.08
5/18/2022 7:45:00 AM 11.63 52.934 0.421 7.76 18.16 10.12
5/18/2022 8:00:00 AM 11.59 52.862 0.422 7.74 44.65 10.12
5/18/2022 8:15:00 AM 11.58 52.844 0.421 7.76 7.25 10.19
5/18/2022 8:30:00 AM 11.58 52.844 0.421 7.77 6.04 10.23
5/18/2022 8:45:00 AM 11.61 52.898 0.421 7.78 25.43 10.26
5/18/2022 9:00:00 AM 11.65 52.97 0.421 7.79 4.9 10.33
5/18/2022 9:15:00 AM 11.71 53.078 0.421 7.8 4 10.37
5/18/2022 9:30:00 AM 11.78 53.204 0.422 7.8 11.06 10.36
5/18/2022 9:45:00 AM 11.87 53.366 0.421 7.82 4.21 10.4
5/18/2022 10:00:00 AM 11.97 53.546 0.421 7.82 14.91 10.41
5/18/2022 10:15:00 AM 12.09 53.762 0.422 7.84 5.73 10.44
5/18/2022 10:30:00 AM 12.23 54.014 0.421 7.85 3.97 10.46
5/18/2022 10:45:00 AM 12.35 54.23 0.421 7.85 17.83 10.45
5/18/2022 11:00:00 AM 12.54 54.572 0.422 7.86 14.7 10.45
5/18/2022 11:15:00 AM 12.68 54.824 0.419 7.87 4.64 10.47
5/18/2022 11:30:00 AM 12.86 55.148 0.421 7.88 4.96 10.44
5/18/2022 11:45:00 AM 13.05 55.49 0.421 7.89 4.82 10.43
5/18/2022 12:00:00 PM 13.28 55.904 0.421 7.88 5.06 10.42
5/18/2022 12:15:00 PM 13.53 56.354 0.421 7.9 9.14 10.39
5/18/2022 12:30:00 PM 13.7 56.66 0.421 7.91 10.39 10.39
5/18/2022 12:45:00 PM 13.89 57.002 0.421 7.93 3.66 10.38
5/18/2022 1:00:00 PM 13.91 57.038 0.421 7.93 14.2 10.35
5/18/2022 1:15:00 PM 14.01 57.218 0.421 7.94 4.05 10.35
5/18/2022 1:30:00 PM 14.01 57.218 0.421 7.95 4.04 10.31
5/18/2022 1:45:00 PM 14.02 57.236 0.421 7.95 3.98 10.29
5/18/2022 2:00:00 PM 14.01 57.218 0.422 7.96 3.97 10.23
5/18/2022 2:15:00 PM 14.04 57.272 0.422 7.95 8.85 10.22
5/18/2022 2:30:00 PM 14.06 57.308 0.422 7.95 7.23 10.19
5/18/2022 2:45:00 PM 14.06 57.308 0.422 7.96 3.91 10.15
5/18/2022 3:00:00 PM 14.08 57.344 0.422 7.95 7.15 10.12
5/18/2022 3:15:00 PM 14.11 57.398 0.422 7.97 3.56 10.11
5/18/2022 3:30:00 PM 14.09 57.362 0.422 7.96 9.88 10.07
5/18/2022 3:45:00 PM 14.07 57.326 0.423 7.96 4.14 10
5/18/2022 4:00:00 PM 14.06 57.308 0.423 7.94 4.49 9.95
5/18/2022 4:15:00 PM 14.04 57.272 0.423 7.94 5.34 9.93
5/18/2022 4:30:00 PM 14.03 57.254 0.423 7.93 3.46 9.89
5/18/2022 4:45:00 PM 14.06 57.308 0.423 7.93 4.43 9.88
5/18/2022 5:00:00 PM 14.08 57.344 0.423 7.92 4.58 9.9
5/18/2022 5:15:00 PM 14.07 57.326 0.424 7.93 15.6 9.87
5/18/2022 5:30:00 PM 14.05 57.29 0.424 7.93 5.46 9.85
5/18/2022 5:45:00 PM 14.02 57.236 0.424 7.91 12.34 9.82
5/18/2022 6:00:00 PM 13.99 57.182 0.424 7.9 5.96 9.78
5/18/2022 6:15:00 PM 13.97 57.146 0.425 7.9 10.69 9.79
5/18/2022 6:30:00 PM 13.94 57.092 0.425 7.9 5.2 9.77
5/18/2022 6:45:00 PM 13.91 57.038 0.425 7.89 4.34 9.76
5/18/2022 7:00:00 PM 13.88 56.984 0.425 7.89 4.38 9.75
5/18/2022 7:15:00 PM 13.85 56.93 0.426 7.89 5.18 9.73
5/18/2022 7:30:00 PM 13.83 56.894 0.426 7.89 3.52 9.73
5/18/2022 7:45:00 PM 13.8 56.84 0.426 7.88 4.03 9.69
5/18/2022 8:00:00 PM 13.77 56.786 0.426 7.87 8.32 9.66
5/18/2022 8:15:00 PM 13.74 56.732 0.426 7.86 9.52 9.65
5/18/2022 8:30:00 PM 13.71 56.678 0.427 7.86 3.64 9.64
5/18/2022 8:45:00 PM 13.69 56.642 0.427 7.84 10.54 9.61
5/18/2022 9:00:00 PM 13.67 56.606 0.427 7.85 4.83 9.62
5/18/2022 9:15:00 PM 13.65 56.57 0.427 7.84 4.65 9.61
5/18/2022 9:30:00 PM 13.63 56.534 0.426 7.83 20.6 9.6
5/18/2022 9:45:00 PM 13.6 56.48 0.425 7.83 4.48 9.59
5/18/2022 10:00:00 PM 13.57 56.426 0.425 7.82 5.26 9.59
5/18/2022 10:15:00 PM 13.53 56.354 0.426 7.81 9.21 9.58
5/18/2022 10:30:00 PM 13.49 56.282 0.425 7.81 4.97 9.59
5/18/2022 10:45:00 PM 13.45 56.21 0.425 7.81 4.6 9.61
5/18/2022 11:00:00 PM 13.41 56.138 0.425 7.8 7.25 9.59
5/18/2022 11:15:00 PM 13.37 56.066 0.425 7.79 4.47 9.61
5/18/2022 11:30:00 PM 13.33 55.994 0.425 7.79 5.17 9.59
5/18/2022 11:45:00 PM 13.29 55.922 0.426 7.79 5.21 9.6
5/19/2022 12:00:00 AM 13.25 55.85 0.426 7.79 4.23 9.62
5/19/2022 12:15:00 AM 13.21 55.778 0.426 7.78 11.44 9.62
5/19/2022 12:30:00 AM 13.17 55.706 0.425 7.79 5.19 9.63
5/19/2022 12:45:00 AM 13.14 55.652 0.426 7.78 11.4 9.63
5/19/2022 1:00:00 AM 13.11 55.598 0.426 7.77 7.9 9.62
5/19/2022 1:15:00 AM 13.07 55.526 0.426 7.78 4.65 9.64
5/19/2022 1:30:00 AM 13.05 55.49 0.426 7.77 4.23 9.63
5/19/2022 1:45:00 AM 13.02 55.436 0.426 7.77 4.23 9.63
5/19/2022 2:00:00 AM 13 55.4 0.427 7.77 9.53 9.65
5/19/2022 2:15:00 AM 12.97 55.346 0.427 7.77 4.69 9.64
5/19/2022 2:30:00 AM 12.95 55.31 0.427 7.76 4.86 9.63
5/19/2022 2:45:00 AM 12.92 55.256 0.427 7.77 5.17 9.65
5/19/2022 3:00:00 AM 12.89 55.202 0.427 7.76 4.81 9.66
5/19/2022 3:15:00 AM 12.87 55.166 0.428 7.76 8.37 9.67
5/19/2022 3:30:00 AM 12.84 55.112 0.428 7.77 4.71 9.68
5/19/2022 3:45:00 AM 12.81 55.058 0.428 7.76 4.36 9.67
5/19/2022 4:00:00 AM 12.79 55.022 0.428 7.75 6.61 9.65
5/19/2022 4:15:00 AM 12.75 54.95 0.429 7.76 4.38 9.69
5/19/2022 4:30:00 AM 12.73 54.914 0.429 7.76 6.91 9.71
5/19/2022 4:45:00 AM 12.7 54.86 0.429 7.75 7.64 9.7
5/19/2022 5:00:00 AM 12.67 54.806 0.429 7.76 5.22 9.71
5/19/2022 5:15:00 AM 12.65 54.77 0.429 7.75 8.62 9.72
5/19/2022 5:30:00 AM 12.62 54.716 0.428 7.76 7.13 9.72
5/19/2022 5:45:00 AM 12.6 54.68 0.428 7.75 10.02 9.73
5/19/2022 6:00:00 AM 12.58 54.644 0.429 7.76 4.21 9.74
5/19/2022 6:15:00 AM 12.55 54.59 0.429 7.76 4.35 9.74
5/19/2022 6:30:00 AM 12.54 54.572 0.429 7.76 3.91 9.76
5/19/2022 6:45:00 AM 12.52 54.536 0.429 7.76 4.12 9.77
5/19/2022 7:00:00 AM 12.5 54.5 0.429 7.76 3.99 9.78
5/19/2022 7:15:00 AM 12.49 54.482 0.429 7.76 4.11 9.8
5/19/2022 7:30:00 AM 12.48 54.464 0.428 7.76 4.97 9.82
5/19/2022 7:45:00 AM 12.48 54.464 0.428 7.77 3.98 9.83
5/19/2022 8:00:00 AM 12.47 54.446 0.428 7.76 4.2 9.84
5/19/2022 8:15:00 AM 12.48 54.464 0.428 7.77 3.97 9.85
5/19/2022 8:30:00 AM 12.48 54.464 0.428 7.77 7.51 9.9
5/19/2022 8:45:00 AM 12.48 54.464 0.428 7.78 4.38 9.92
5/19/2022 9:00:00 AM 12.5 54.5 0.428 7.78 4.14 9.93
5/19/2022 9:15:00 AM 12.49 54.482 0.428 7.79 4.25 9.94
5/19/2022 9:30:00 AM 12.49 54.482 0.428 7.79 3.83 9.94
5/19/2022 9:45:00 AM 12.49 54.482 0.427 7.78 5.15 9.95
5/19/2022 10:00:00 AM 12.5 54.5 0.427 7.79 4.54 9.95
5/19/2022 10:15:00 AM 12.51 54.518 0.427 7.79 4.17 9.96
5/19/2022 10:30:00 AM 12.52 54.536 0.427 7.79 5.38 9.98
5/19/2022 10:45:00 AM 12.54 54.572 0.427 7.79 6.09 9.98
5/19/2022 11:00:00 AM 12.57 54.626 0.427 7.8 7.84 10.01
5/19/2022 11:15:00 AM 12.59 54.662 0.427 7.81 5.73 10.01
5/19/2022 11:30:00 AM 12.61 54.698 0.427 7.81 3.88 10.02
5/19/2022 11:45:00 AM 12.64 54.752 0.427 7.82 3.97 10.04
5/19/2022 12:00:00 PM 12.69 54.842 0.427 7.83 5.06 10.06
5/19/2022 12:15:00 PM 12.8 55.04 0.427 7.84 3.86 10.1
5/19/2022 12:30:00 PM 12.91 55.238 0.427 7.85 5.3 10.13
5/19/2022 12:45:00 PM 13.04 55.472 0.427 7.86 3.57 10.16
5/19/2022 1:00:00 PM 13.21 55.778 0.427 7.88 3.48 10.18
5/19/2022 1:15:00 PM 13.43 56.174 0.427 7.88 5.15 10.18
5/19/2022 1:30:00 PM 13.54 56.372 0.427 7.9 3.55 10.18
5/19/2022 1:45:00 PM 13.8 56.84 0.427 7.91 3.57 10.16
5/19/2022 2:00:00 PM 14.02 57.236 0.427 7.91 5.13 10.16
5/19/2022 2:15:00 PM 14.33 57.794 0.428 7.91 5.52 10.15
5/19/2022 2:30:00 PM 14.49 58.082 0.428 7.92 5.15 10.11
5/19/2022 2:45:00 PM 14.8 58.64 0.428 7.93 5.18 10.1
5/19/2022 3:00:00 PM 15.01 59.018 0.429 7.95 3.86 10.07
5/19/2022 3:15:00 PM 15.3 59.54 0.429 7.94 3.5 10.02
5/19/2022 3:30:00 PM 15.59 60.062 0.429 7.95 3.54 9.98
5/19/2022 3:45:00 PM 15.62 60.116 0.429 7.95 4.31 9.93
5/19/2022 4:00:00 PM 15.67 60.206 0.43 7.96 3.27 9.89
5/19/2022 4:15:00 PM 15.82 60.476 0.43 7.97 4.02 9.86
5/19/2022 4:30:00 PM 15.91 60.638 0.43 7.96 3.76 9.83
5/19/2022 4:45:00 PM 15.88 60.584 0.431 7.97 5.01 9.8
5/19/2022 5:00:00 PM 16.02 60.836 0.431 7.96 3.36 9.75
5/19/2022 5:15:00 PM 16.11 60.998 0.432 7.98 3.75 9.73
5/19/2022 5:30:00 PM 16.17 61.106 0.432 7.98 3.63 9.72
5/19/2022 5:45:00 PM 16.15 61.07 0.432 7.99 4.31 9.69
5/19/2022 6:00:00 PM 16.08 60.944 0.432 8 3.39 9.66
5/19/2022 6:15:00 PM 16 60.8 0.433 7.98 3.9 9.6
5/19/2022 6:30:00 PM 15.99 60.782 0.433 7.97 3.37 9.56
5/19/2022 6:45:00 PM 15.96 60.728 0.433 7.96 6.01 9.53
5/19/2022 7:00:00 PM 15.95 60.71 0.433 7.95 3.96 9.49
5/19/2022 7:15:00 PM 15.91 60.638 0.433 7.95 3.51 9.46
5/19/2022 7:30:00 PM 15.89 60.602 0.433 7.94 4.08 9.4
5/19/2022 7:45:00 PM 15.85 60.53 0.434 7.92 5.5 9.37
5/19/2022 8:00:00 PM 15.8 60.44 0.433 7.92 5.36 9.34
5/19/2022 8:15:00 PM 15.75 60.35 0.433 7.9 3.39 9.29
5/19/2022 8:30:00 PM 15.7 60.26 0.434 7.89 5.86 9.24
5/19/2022 8:45:00 PM 15.66 60.188 0.434 7.88 3.82 9.22
5/19/2022 9:00:00 PM 15.61 60.098 0.434 7.86 3.64 9.2
5/19/2022 9:15:00 PM 15.56 60.008 0.434 7.85 5.74 9.16
5/19/2022 9:30:00 PM 15.51 59.918 0.434 7.85 5.22 9.21
5/19/2022 9:45:00 PM 15.45 59.81 0.433 7.83 4 9.19
5/19/2022 10:00:00 PM 15.39 59.702 0.433 7.83 3.75 9.18
5/19/2022 10:15:00 PM 15.34 59.612 0.433 7.82 3.99 9.17
5/19/2022 10:30:00 PM 15.29 59.522 0.433 7.82 4.12 9.2
5/19/2022 10:45:00 PM 15.24 59.432 0.433 7.82 4.37 9.2
5/19/2022 11:00:00 PM 15.2 59.36 0.433 7.81 6.03 9.18
5/19/2022 11:15:00 PM 15.17 59.306 0.433 7.81 5.17 9.18
5/19/2022 11:30:00 PM 15.13 59.234 0.433 7.8 5.39 9.19
5/19/2022 11:45:00 PM 15.1 59.18 0.433 7.8 4.25 9.19
5/20/2022 12:00:00 AM 15.06 59.108 0.433 7.8 3.89 9.17
5/20/2022 12:15:00 AM 15.02 59.036 0.433 7.79 4.02 9.16
5/20/2022 12:30:00 AM 14.97 58.946 0.433 7.79 5.37 9.2
5/20/2022 12:45:00 AM 14.92 58.856 0.433 7.78 5.38 9.17
5/20/2022 1:00:00 AM 14.87 58.766 0.433 7.78 4.99 9.21
5/20/2022 1:15:00 AM 14.83 58.694 0.433 7.78 4.69 9.18
5/20/2022 1:30:00 AM 14.76 58.568 0.433 7.78 4.01 9.23
5/20/2022 1:45:00 AM 14.7 58.46 0.433 7.77 4.88 9.24
5/20/2022 2:00:00 AM 14.64 58.352 0.433 7.76 5.37 9.23
5/20/2022 2:15:00 AM 14.58 58.244 0.432 7.76 3.91 9.23
5/20/2022 2:30:00 AM 14.53 58.154 0.432 7.76 5.52 9.22
5/20/2022 2:45:00 AM 14.47 58.046 0.432 7.76 5.05 9.25
5/20/2022 3:00:00 AM 14.41 57.938 0.432 7.76 4.35 9.27
5/20/2022 3:15:00 AM 14.37 57.866 0.432 7.75 3.85 9.24
5/20/2022 3:30:00 AM 14.31 57.758 0.432 7.74 3.98 9.25
5/20/2022 3:45:00 AM 14.27 57.686 0.432 7.74 5.44 9.26
5/20/2022 4:00:00 AM 14.22 57.596 0.432 7.74 5.3 9.26
5/20/2022 4:15:00 AM 14.18 57.524 0.432 7.74 6.53 9.3
5/20/2022 4:30:00 AM 14.13 57.434 0.432 7.75 3.65 9.33
5/20/2022 4:45:00 AM 14.1 57.38 0.432 7.74 3.98 9.29
5/20/2022 5:00:00 AM 14.05 57.29 0.432 7.74 4.33 9.33
5/20/2022 5:15:00 AM 14.01 57.218 0.432 7.74 7.69 9.33
5/20/2022 5:30:00 AM 13.96 57.128 0.434 7.73 6.95 9.33
5/20/2022 5:45:00 AM 13.93 57.074 0.432 7.74 7.17 9.36
5/20/2022 6:00:00 AM 13.9 57.02 0.432 7.74 8.9 9.35
5/20/2022 6:15:00 AM 13.86 56.948 0.432 7.74 3.99 9.39
5/20/2022 6:30:00 AM 13.83 56.894 0.432 7.73 6.01 9.38
5/20/2022 6:45:00 AM 13.8 56.84 0.432 7.74 3.7 9.41
5/20/2022 7:00:00 AM 13.77 56.786 0.432 7.74 6.27 9.46
5/20/2022 7:15:00 AM 13.75 56.75 0.432 7.75 4.51 9.47
5/20/2022 7:30:00 AM 13.75 56.75 0.432 7.75 4.03 9.52
5/20/2022 7:45:00 AM 13.75 56.75 0.432 7.75 5.05 9.54
5/20/2022 8:00:00 AM 13.75 56.75 0.432 7.76 5.48 9.59
5/20/2022 8:15:00 AM 13.74 56.732 0.432 7.77 5.86 9.63
5/20/2022 8:30:00 AM 13.76 56.768 0.432 7.76 5.75 9.6
5/20/2022 8:45:00 AM 13.78 56.804 0.432 7.77 4.2 9.65
5/20/2022 9:00:00 AM 13.79 56.822 0.432 7.78 5.89 9.69
5/20/2022 9:15:00 AM 13.77 56.786 0.432 7.79 3.75 9.71
5/20/2022 9:30:00 AM 13.8 56.84 0.432 7.79 3.77 9.71
5/20/2022 9:45:00 AM 13.85 56.93 0.432 7.79 5.28 9.74
5/20/2022 10:00:00 AM 13.93 57.074 0.432 7.81 3.71 9.78
5/20/2022 10:15:00 AM 14.03 57.254 0.432 7.82 5.26 9.85
5/20/2022 10:30:00 AM 14.12 57.416 0.432 7.84 3.7 9.89
5/20/2022 10:45:00 AM 14.19 57.542 0.431 7.84 3.48 9.9
5/20/2022 11:00:00 AM 14.29 57.722 0.431 7.85 3.85 9.91
5/20/2022 11:15:00 AM 14.39 57.902 0.431 7.85 3.54 9.91
5/20/2022 11:30:00 AM 14.48 58.064 0.431 7.86 4.96 9.91
5/20/2022 11:45:00 AM 14.5 58.1 0.431 7.88 3.42 9.88
5/20/2022 12:00:00 PM 14.57 58.226 0.431 7.87 3.79 9.86
5/20/2022 12:15:00 PM 14.71 58.478 0.431 7.88 3.54 9.87
5/20/2022 12:30:00 PM 14.75 58.55 0.431 7.89 4.8 9.84
5/20/2022 12:45:00 PM 14.86 58.748 0.431 7.9 4.4 9.87
5/20/2022 1:00:00 PM 14.88 58.784 0.431 7.91 3.5 9.81
5/20/2022 1:15:00 PM 14.9 58.82 0.431 7.91 3.19 9.77
5/20/2022 1:30:00 PM 15.02 59.036 0.432 7.92 3.44 9.79
5/20/2022 1:45:00 PM 15.04 59.072 0.432 7.92 4.75 9.79
5/20/2022 2:00:00 PM 15.03 59.054 0.432 7.92 3.59 9.73
5/20/2022 2:15:00 PM 15.04 59.072 0.43 7.9 5.01 9.65
5/20/2022 2:30:00 PM 15.05 59.09 0.427 7.9 3.77 9.59
5/20/2022 2:45:00 PM 15.05 59.09 0.427 7.88 7.07 9.56
5/20/2022 3:00:00 PM 15.06 59.108 0.427 7.87 3.9 9.53
5/20/2022 3:15:00 PM 15.12 59.216 0.427 7.86 4.89 9.55
5/20/2022 3:30:00 PM 15.22 59.396 0.427 7.88 3.49 9.59
5/20/2022 3:45:00 PM 15.32 59.576 0.427 7.88 5 9.61
5/20/2022 4:00:00 PM 15.39 59.702 0.428 7.9 6.24 9.64
5/20/2022 4:15:00 PM 15.44 59.792 0.427 7.9 4.87 9.62
5/20/2022 4:30:00 PM 15.48 59.864 0.427 7.91 5.93 9.63
5/20/2022 4:45:00 PM 15.52 59.936 0.427 7.9 5.29 9.61
5/20/2022 5:00:00 PM 15.56 60.008 0.427 7.91 3.95 9.6
5/20/2022 5:15:00 PM 15.68 60.224 0.427 7.89 5.17 9.58
5/20/2022 5:30:00 PM 15.83 60.494 0.427 7.92 4.07 9.61
5/20/2022 5:45:00 PM 15.9 60.62 0.427 7.91 5.13 9.58
5/20/2022 6:00:00 PM 15.92 60.656 0.427 7.92 4.93 9.54
5/20/2022 6:15:00 PM 15.96 60.728 0.427 7.91 3.99 9.52
5/20/2022 6:30:00 PM 15.96 60.728 0.428 7.92 4.06 9.51
5/20/2022 6:45:00 PM 15.94 60.692 0.428 7.92 3.85 9.49
5/20/2022 7:00:00 PM 15.9 60.62 0.428 7.9 6.29 9.45
5/20/2022 7:15:00 PM 15.87 60.566 0.429 7.89 3.54 9.38
5/20/2022 7:30:00 PM 15.83 60.494 0.429 7.89 11.69 9.36
5/20/2022 7:45:00 PM 15.81 60.458 0.429 7.86 7.08 9.34
5/20/2022 8:00:00 PM 15.79 60.422 0.43 7.85 6.8 9.29
5/20/2022 8:15:00 PM 15.78 60.404 0.43 7.85 4.37 9.25
5/20/2022 8:30:00 PM 15.77 60.386 0.43 7.84 3.76 9.21
5/20/2022 8:45:00 PM 15.76 60.368 0.43 7.82 4.05 9.21
5/20/2022 9:00:00 PM 15.74 60.332 0.431 7.81 5.07 9.18
5/20/2022 9:15:00 PM 15.72 60.296 0.431 7.8 4.3 9.17
5/20/2022 9:30:00 PM 15.69 60.242 0.431 7.79 3.41 9.15
5/20/2022 9:45:00 PM 15.67 60.206 0.432 7.77 5.24 9.13
5/20/2022 10:00:00 PM 15.64 60.152 0.432 7.76 5.28 9.12
5/20/2022 10:15:00 PM 15.61 60.098 0.432 7.75 5.19 9.14
5/20/2022 10:30:00 PM 15.58 60.044 0.432 7.75 3.75 9.14
5/20/2022 10:45:00 PM 15.55 59.99 0.432 7.74 5.27 9.12
5/20/2022 11:00:00 PM 15.53 59.954 0.432 7.72 5.13 9.1
5/20/2022 11:15:00 PM 15.5 59.9 0.432 7.73 4.54 9.12
5/20/2022 11:30:00 PM 15.47 59.846 0.432 7.73 3.85 9.1
5/20/2022 11:45:00 PM 15.45 59.81 0.432 7.72 3.88 9.08
5/21/2022 12:00:00 AM 15.43 59.774 0.432 7.71 5.4 9.1
5/21/2022 12:15:00 AM 15.4 59.72 0.432 7.7 3.72 9.1
5/21/2022 12:30:00 AM 15.38 59.684 0.432 7.7 3.53 9.1
5/21/2022 12:45:00 AM 15.36 59.648 0.432 7.68 5.29 9.12
5/21/2022 1:00:00 AM 15.34 59.612 0.431 7.68 3.74 9.11
5/21/2022 1:15:00 AM 15.33 59.594 0.432 7.67 3.66 9.06
5/21/2022 1:30:00 AM 15.31 59.558 0.432 7.67 4.06 9.05
5/21/2022 1:45:00 AM 15.28 59.504 0.431 7.67 4.01 9.09
5/21/2022 2:00:00 AM 15.26 59.468 0.432 7.67 3.95 9.07
5/21/2022 2:15:00 AM 15.22 59.396 0.431 7.66 5.1 9.09
5/21/2022 2:30:00 AM 15.19 59.342 0.431 7.66 3.86 9.07
5/21/2022 2:45:00 AM 15.17 59.306 0.432 7.67 3.67 9.12
5/21/2022 3:00:00 AM 15.14 59.252 0.432 7.67 4.17 9.12
5/21/2022 3:15:00 AM 15.11 59.198 0.432 7.67 3.71 9.12
5/21/2022 3:30:00 AM 15.06 59.108 0.432 7.67 5.49 9.17
5/21/2022 3:45:00 AM 15.03 59.054 0.432 7.67 5.34 9.14
5/21/2022 4:00:00 AM 14.99 58.982 0.431 7.68 4.08 9.18
5/21/2022 4:15:00 AM 14.96 58.928 0.432 7.68 4.99 9.17
5/21/2022 4:30:00 AM 14.93 58.874 0.432 7.69 3.8 9.17
5/21/2022 4:45:00 AM 14.89 58.802 0.432 7.68 4.35 9.17
5/21/2022 5:00:00 AM 14.85 58.73 0.432 7.69 4.19 9.2
5/21/2022 5:15:00 AM 14.81 58.658 0.432 7.69 5.43 9.22
5/21/2022 5:30:00 AM 14.77 58.586 0.432 7.69 5.2 9.21
5/21/2022 5:45:00 AM 14.73 58.514 0.432 7.7 4.48 9.23
5/21/2022 6:00:00 AM 14.68 58.424 0.432 7.7 4.45 9.25
5/21/2022 6:15:00 AM 14.65 58.37 0.432 7.69 5.21 9.22
5/21/2022 6:30:00 AM 14.61 58.298 0.431 7.69 4.45 9.27
5/21/2022 6:45:00 AM 14.58 58.244 0.432 7.69 4.27 9.28
5/21/2022 7:00:00 AM 14.56 58.208 0.432 7.69 4.23 9.3
5/21/2022 7:15:00 AM 14.53 58.154 0.432 7.71 4.11 9.35
5/21/2022 7:30:00 AM 14.52 58.136 0.432 7.72 4.25 9.38
5/21/2022 7:45:00 AM 14.53 58.154 0.432 7.71 5.31 9.42
5/21/2022 8:00:00 AM 14.55 58.19 0.432 7.72 3.67 9.46
5/21/2022 8:15:00 AM 14.56 58.208 0.433 7.72 5.79 9.5
5/21/2022 8:30:00 AM 14.59 58.262 0.433 7.72 5.47 9.52
5/21/2022 8:45:00 AM 14.62 58.316 0.433 7.73 5.43 9.56
5/21/2022 9:00:00 AM 14.68 58.424 0.433 7.74 3.91 9.57
5/21/2022 9:15:00 AM 14.76 58.568 0.433 7.76 4.2 9.61
5/21/2022 9:30:00 AM 14.87 58.766 0.433 7.77 3.65 9.62
5/21/2022 9:45:00 AM 15.01 59.018 0.433 7.78 3.86 9.63
5/21/2022 10:00:00 AM 15.17 59.306 0.434 7.79 5.05 9.63
5/21/2022 10:15:00 AM 15.3 59.54 0.434 7.82 4.86 9.64
5/21/2022 10:30:00 AM 15.46 59.828 0.434 7.82 3.8 9.59
5/21/2022 10:45:00 AM 15.69 60.242 0.435 7.84 4.53 9.57
5/21/2022 11:00:00 AM 15.9 60.62 0.435 7.85 3.64 9.62
5/21/2022 11:15:00 AM 16.16 61.088 0.435 7.86 4.91 9.6
5/21/2022 11:30:00 AM 16.35 61.43 0.435 7.87 3.69 9.59
5/21/2022 11:45:00 AM 16.57 61.826 0.435 7.88 3.72 9.58
5/21/2022 12:00:00 PM 16.88 62.384 0.435 7.88 3.94 9.53
5/21/2022 12:15:00 PM 17.05 62.69 0.435 7.9 3.71 9.54
5/21/2022 12:30:00 PM 17.28 63.104 0.435 7.91 4.04 9.52
5/21/2022 12:45:00 PM 17.4 63.32 0.435 7.92 3.59 9.41
5/21/2022 1:00:00 PM 17.59 63.662 0.435 7.92 3.53 9.43
5/21/2022 1:15:00 PM 17.75 63.95 0.435 7.93 4.29 9.37
5/21/2022 1:30:00 PM 18.03 64.454 0.435 7.94 3.48 9.34
5/21/2022 1:45:00 PM 18.23 64.814 0.435 7.93 3.02 9.35
5/21/2022 2:00:00 PM 18.35 65.03 0.435 7.94 4.94 9.31
5/21/2022 2:15:00 PM 18.63 65.534 0.435 7.94 3.1 9.23
5/21/2022 2:30:00 PM 18.8 65.84 0.435 7.95 3.4 9.28
5/21/2022 2:45:00 PM 19.07 66.326 0.435 7.96 3.58 9.2
5/21/2022 3:00:00 PM 19.28 66.704 0.435 7.97 3.56 9.28
5/21/2022 3:15:00 PM 19.33 66.794 0.435 7.98 3.42 9.17
5/21/2022 3:30:00 PM 19.34 66.812 0.435 7.97 3.48 9.13
5/21/2022 3:45:00 PM 19.46 67.028 0.434 7.97 3.42 9.12
5/21/2022 4:00:00 PM 19.56 67.208 0.434 7.98 3.74 9.07
5/21/2022 4:15:00 PM 19.61 67.298 0.434 7.98 3.29 9.06
5/21/2022 4:30:00 PM 19.67 67.406 0.434 7.99 3.33 9.01
5/21/2022 4:45:00 PM 19.84 67.712 0.434 7.99 3.32 9.01
5/21/2022 5:00:00 PM 19.93 67.874 0.434 7.99 3.16 8.97
5/21/2022 5:15:00 PM 20.02 68.036 0.434 7.99 3.51 8.87
5/21/2022 5:30:00 PM 20.17 68.306 0.434 7.98 3.42 8.94
5/21/2022 5:45:00 PM 20.07 68.126 0.434 7.98 4.37 8.85
5/21/2022 6:00:00 PM 20.01 68.018 0.434 7.98 3.03 8.82
5/21/2022 6:15:00 PM 19.93 67.874 0.435 7.96 4.49 8.74
5/21/2022 6:30:00 PM 19.87 67.766 0.435 7.96 3.18 8.7
5/21/2022 6:45:00 PM 19.82 67.676 0.435 7.95 4.91 8.67
5/21/2022 7:00:00 PM 19.79 67.622 0.435 7.94 5.39 8.65
5/21/2022 7:15:00 PM 19.75 67.55 0.435 7.94 3.47 8.59
5/21/2022 7:30:00 PM 19.71 67.478 0.435 7.92 4.52 8.54
5/21/2022 7:45:00 PM 19.67 67.406 0.435 7.89 3.98 8.44
5/21/2022 8:00:00 PM 19.62 67.316 0.435 7.89 4.6 8.42
5/21/2022 8:15:00 PM 19.59 67.262 0.435 7.87 4.44 8.39
5/21/2022 8:30:00 PM 19.54 67.172 0.435 7.86 3.95 8.38
5/21/2022 8:45:00 PM 19.5 67.1 0.435 7.84 4.91 8.35
5/21/2022 9:00:00 PM 19.45 67.01 0.435 7.83 4.07 8.35
5/21/2022 9:15:00 PM 19.42 66.956 0.435 7.83 3.55 8.31
5/21/2022 9:30:00 PM 19.37 66.866 0.435 7.81 4.5 8.26
5/21/2022 9:45:00 PM 19.32 66.776 0.435 7.81 3.93 8.28
5/21/2022 10:00:00 PM 19.26 66.668 0.435 7.81 5.98 8.32
5/21/2022 10:15:00 PM 19.23 66.614 0.436 7.81 4 8.27
5/21/2022 10:30:00 PM 19.17 66.506 0.436 7.81 6.07 8.33
5/21/2022 10:45:00 PM 19.13 66.434 0.436 7.81 4.17 8.33
5/21/2022 11:00:00 PM 19.07 66.326 0.436 7.81 4.18 8.25
5/21/2022 11:15:00 PM 19.02 66.236 0.436 7.81 4.8 8.26
5/21/2022 11:30:00 PM 18.97 66.146 0.436 7.81 4.82 8.3
5/21/2022 11:45:00 PM 18.92 66.056 0.436 7.81 4.07 8.37
5/22/2022 12:00:00 AM 18.87 65.966 0.436 7.8 5.72 8.36
5/22/2022 12:15:00 AM 18.81 65.858 0.437 7.8 4.18 8.35
5/22/2022 12:30:00 AM 18.75 65.75 0.437 7.8 5.11 8.32
5/22/2022 12:45:00 AM 18.7 65.66 0.437 7.79 4.62 8.38
5/22/2022 1:00:00 AM 18.63 65.534 0.437 7.8 4.48 8.39
5/22/2022 1:15:00 AM 18.57 65.426 0.437 7.79 6.14 8.38
5/22/2022 1:30:00 AM 18.5 65.3 0.437 7.8 4.24 8.38
5/22/2022 1:45:00 AM 18.43 65.174 0.437 7.8 3.97 8.44
5/22/2022 2:00:00 AM 18.36 65.048 0.437 7.79 4.06 8.41
5/22/2022 2:15:00 AM 18.29 64.922 0.438 7.8 3.92 8.44
5/22/2022 2:30:00 AM 18.24 64.832 0.438 7.79 3.75 8.46
5/22/2022 2:45:00 AM 18.16 64.688 0.438 7.79 4.18 8.47
5/22/2022 3:00:00 AM 18.09 64.562 0.438 7.78 6 8.46
5/22/2022 3:15:00 AM 18.01 64.418 0.438 7.79 4.41 8.5
5/22/2022 3:30:00 AM 17.93 64.274 0.438 7.79 4.67 8.54
5/22/2022 3:45:00 AM 17.85 64.13 0.439 7.79 3.99 8.55
5/22/2022 4:00:00 AM 17.77 63.986 0.439 7.78 5.3 8.55
5/22/2022 4:15:00 AM 17.7 63.86 0.439 7.79 4.32 8.57
5/22/2022 4:30:00 AM 17.61 63.698 0.439 7.78 5.16 8.6
5/22/2022 4:45:00 AM 17.53 63.554 0.44 7.78 5.54 8.63
5/22/2022 5:00:00 AM 17.45 63.41 0.44 7.77 7.7 8.63
5/22/2022 5:15:00 AM 17.38 63.284 0.44 7.78 4.11 8.65
5/22/2022 5:30:00 AM 17.31 63.158 0.44 7.77 4.4 8.65
5/22/2022 5:45:00 AM 17.23 63.014 0.44 7.78 4.51 8.67
5/22/2022 6:00:00 AM 17.16 62.888 0.441 7.77 4.29 8.69
5/22/2022 6:15:00 AM 17.1 62.78 0.441 7.76 4.74 8.69
5/22/2022 6:30:00 AM 17.04 62.672 0.441 7.77 4.96 8.72
5/22/2022 6:45:00 AM 16.99 62.582 0.441 7.78 5.79 8.79
5/22/2022 7:00:00 AM 16.94 62.492 0.441 7.78 4.07 8.8
5/22/2022 7:15:00 AM 16.89 62.402 0.441 7.78 4.5 8.84
5/22/2022 7:30:00 AM 16.87 62.366 0.442 7.79 5.76 8.87
5/22/2022 7:45:00 AM 16.86 62.348 0.442 7.78 5.53 8.92
5/22/2022 8:00:00 AM 16.84 62.312 0.442 7.8 4.1 8.97
5/22/2022 8:15:00 AM 16.85 62.33 0.442 7.8 5.6 9.01
5/22/2022 8:30:00 AM 16.87 62.366 0.442 7.81 3.84 9.03
5/22/2022 8:45:00 AM 16.88 62.384 0.442 7.82 5.08 9.04
5/22/2022 9:00:00 AM 16.91 62.438 0.442 7.83 4.04 9.07
5/22/2022 9:15:00 AM 16.95 62.51 0.442 7.83 5.56 9.12
5/22/2022 9:30:00 AM 17.01 62.618 0.442 7.83 5.46 9.14
5/22/2022 9:45:00 AM 17.09 62.762 0.442 7.85 4.81 9.17
5/22/2022 10:00:00 AM 17.14 62.852 0.442 7.86 4.47 9.19
5/22/2022 10:15:00 AM 17.17 62.906 0.442 7.87 4.1 9.22
5/22/2022 10:30:00 AM 17.26 63.068 0.442 7.88 3.8 9.24
5/22/2022 10:45:00 AM 17.39 63.302 0.442 7.89 3.53 9.23
5/22/2022 11:00:00 AM 17.57 63.626 0.442 7.9 5.76 9.23
5/22/2022 11:15:00 AM 17.8 64.04 0.442 7.91 5.45 9.26
5/22/2022 11:30:00 AM 18.05 64.49 0.443 7.92 5.29 9.28
5/22/2022 11:45:00 AM 18.24 64.832 0.443 7.93 3.79 9.24
5/22/2022 12:00:00 PM 18.36 65.048 0.442 7.95 3.72 9.22
5/22/2022 12:15:00 PM 18.44 65.192 0.443 7.95 3.55 9.22
5/22/2022 12:30:00 PM 18.62 65.516 0.443 7.96 5.11 9.19
5/22/2022 12:45:00 PM 18.73 65.714 0.443 7.97 4.05 9.17
5/22/2022 1:00:00 PM 18.79 65.82201 0.443 7.98 4 9.15
5/22/2022 1:15:00 PM 18.98 66.164 0.443 7.98 3.79 9.13
5/22/2022 1:30:00 PM 19.12 66.416 0.443 7.98 4.32 9.12
5/22/2022 1:45:00 PM 19.37 66.866 0.443 7.98 3.51 9.1
5/22/2022 2:00:00 PM 19.37 66.866 0.443 7.99 4.7 9.07
5/22/2022 2:15:00 PM 19.57 67.226 0.443 7.99 4.99 9.05
5/22/2022 2:30:00 PM 19.71 67.478 0.444 8 4.98 9.05
5/22/2022 2:45:00 PM 19.91 67.838 0.443 8.01 3.32 8.98
5/22/2022 3:00:00 PM 19.99 67.982 0.444 8.01 3.47 8.98
5/22/2022 3:15:00 PM 19.96 67.92799 0.443 8.02 3.96 8.95
5/22/2022 3:30:00 PM 20.06 68.108 0.444 8.02 4 8.91
5/22/2022 3:45:00 PM 20.19 68.342 0.444 8.02 3.69 8.91
5/22/2022 4:00:00 PM 20.22 68.396 0.444 8.02 3.74 8.87
5/22/2022 4:15:00 PM 20.14 68.252 0.444 8.02 3.9 8.79
5/22/2022 4:30:00 PM 20.13 68.234 0.444 8 5.16 8.76
5/22/2022 4:45:00 PM 20.1 68.18 0.444 8 3.52 8.69
5/22/2022 5:00:00 PM 20.05 68.09 0.444 7.99 3.74 8.65
5/22/2022 5:15:00 PM 19.97 67.946 0.444 7.98 3.71 8.62
5/22/2022 5:30:00 PM 19.92 67.856 0.444 7.97 3.51 8.58
5/22/2022 5:45:00 PM 19.87 67.766 0.444 7.95 4.76 8.53
5/22/2022 6:00:00 PM 19.82 67.676 0.444 7.95 3.6 8.51
5/22/2022 6:15:00 PM 19.78 67.604 0.444 7.95 3.4 8.5
5/22/2022 6:30:00 PM 19.76 67.568 0.444 7.94 5.31 8.49
5/22/2022 6:45:00 PM 19.75 67.55 0.444 7.94 3.75 8.51
5/22/2022 7:00:00 PM 19.71 67.478 0.444 7.94 5.01 8.5
5/22/2022 7:15:00 PM 19.67 67.406 0.444 7.93 3.86 8.49
5/22/2022 7:30:00 PM 19.62 67.316 0.444 7.93 3.71 8.47
5/22/2022 7:45:00 PM 19.55 67.19 0.444 7.93 3.67 8.46
5/22/2022 8:00:00 PM 19.48 67.064 0.444 7.92 4.09 8.42
5/22/2022 8:15:00 PM 19.38 66.884 0.444 7.91 3.83 8.41
5/22/2022 8:30:00 PM 19.3 66.74 0.444 7.91 4.28 8.44
5/22/2022 8:45:00 PM 19.21 66.578 0.445 7.9 3.95 8.39
5/22/2022 9:00:00 PM 19.1 66.38 0.445 7.9 3.82 8.43
5/22/2022 9:15:00 PM 18.98 66.164 0.445 7.9 3.74 8.42
5/22/2022 9:30:00 PM 18.91 66.038 0.445 7.89 3.88 8.41
5/22/2022 9:45:00 PM 18.81 65.858 0.445 7.88 3.95 8.44
5/22/2022 10:00:00 PM 18.71 65.67799 0.445 7.88 3.83 8.44
5/22/2022 10:15:00 PM 18.6 65.48 0.446 7.87 5.59 8.46
5/22/2022 10:30:00 PM 18.52 65.336 0.446 7.87 5.28 8.48
5/22/2022 10:45:00 PM 18.45 65.21 0.446 7.86 4.3 8.49
5/22/2022 11:00:00 PM 18.35 65.03 0.446 7.86 5.85 8.52
5/22/2022 11:15:00 PM 18.25 64.85 0.446 7.86 4.68 8.53
5/22/2022 11:30:00 PM 18.15 64.67 0.447 7.85 4.3 8.52
5/22/2022 11:45:00 PM 18.06 64.508 0.447 7.85 4.32 8.5
5/23/2022 12:00:00 AM 17.96 64.328 0.447 7.85 5.93 8.55
5/23/2022 12:15:00 AM 17.85 64.13 0.448 7.85 3.96 8.61
5/23/2022 12:30:00 AM 17.76 63.968 0.448 7.84 4.34 8.59
5/23/2022 12:45:00 AM 17.65 63.77 0.449 7.84 4.09 8.59
5/23/2022 1:00:00 AM 17.54 63.572 0.449 7.83 5.33 8.63
5/23/2022 1:15:00 AM 17.42 63.356 0.449 7.84 5.42 8.66
5/23/2022 1:30:00 AM 17.32 63.176 0.449 7.84 4.68 8.7
5/23/2022 1:45:00 AM 17.22 62.996 0.449 7.84 4.56 8.67
5/23/2022 2:00:00 AM 17.1 62.78 0.449 7.84 4.22 8.74
5/23/2022 2:15:00 AM 17 62.6 0.449 7.83 6.14 8.76
5/23/2022 2:30:00 AM 16.88 62.384 0.449 7.83 4.19 8.79
5/23/2022 2:45:00 AM 16.77 62.186 0.449 7.84 4.15 8.82
5/23/2022 3:00:00 AM 16.67 62.006 0.449 7.83 4.27 8.83
5/23/2022 3:15:00 AM 16.56 61.808 0.449 7.82 6.01 8.86
5/23/2022 3:30:00 AM 16.45 61.61 0.449 7.83 4.83 8.86
5/23/2022 3:45:00 AM 16.33 61.394 0.45 7.83 4.54 8.93
5/23/2022 4:00:00 AM 16.21 61.178 0.45 7.83 5.43 8.96
5/23/2022 4:15:00 AM 16.09 60.962 0.45 7.83 4.75 8.98
5/23/2022 4:30:00 AM 15.97 60.746 0.451 7.83 4.43 9.01
5/23/2022 4:45:00 AM 15.86 60.548 0.451 7.83 4.48 8.99
5/23/2022 5:00:00 AM 15.75 60.35 0.451 7.82 4.28 9.05
5/23/2022 5:15:00 AM 15.64 60.152 0.452 7.73 820.06 8.66
5/23/2022 5:30:00 AM 15.54 59.972 0.451 7.76 158.12 8.89
5/23/2022 5:45:00 AM 15.45 59.81 0.452 7.78 11.79 8.99
5/23/2022 6:00:00 AM 15.34 59.612 0.454 7.79 10.23 8.97
5/23/2022 6:15:00 AM 15.25 59.45 0.454 7.8 18.56 9.05
5/23/2022 6:30:00 AM 15.14 59.252 0.453 7.79 17.27 9.07
5/23/2022 6:45:00 AM 15.06 59.108 0.454 7.8 40.68 9.16
5/23/2022 7:00:00 AM 14.98 58.964 0.454 7.81 13.89 9.21
5/23/2022 7:15:00 AM 14.9 58.82 0.454 7.81 7.03 9.29
5/23/2022 7:30:00 AM 14.86 58.748 0.454 7.81 21.55 9.28
5/23/2022 7:45:00 AM 14.81 58.658 0.454 7.82 26.02 9.38
5/23/2022 8:00:00 AM 14.81 58.658 0.454 7.82 9.28 9.37
5/23/2022 8:15:00 AM 14.78 58.604 0.454 7.84 18.01 9.41
5/23/2022 8:30:00 AM 14.76 58.568 0.454 7.84 7.85 9.45
5/23/2022 8:45:00 AM 14.78 58.604 0.454 7.86 5.03 9.5
5/23/2022 9:00:00 AM 14.79 58.622 0.454 7.86 6.54 9.53
5/23/2022 9:15:00 AM 14.85 58.73 0.454 7.88 6.44 9.55
5/23/2022 9:30:00 AM 14.91 58.838 0.454 7.88 6.07 9.57
5/23/2022 9:45:00 AM 14.99 58.982 0.454 7.89 7.58 9.6
5/23/2022 10:00:00 AM 15.08 59.144 0.455 7.9 11.5 9.66
5/23/2022 10:15:00 AM 15.17 59.306 0.454 7.9 5.09 9.65
5/23/2022 10:30:00 AM 15.23 59.414 0.454 7.92 5.51 9.71
5/23/2022 10:45:00 AM 15.34 59.612 0.454 7.92 5.87 9.67
5/23/2022 11:00:00 AM 15.4 59.72 0.454 7.93 6.23 9.68
5/23/2022 11:15:00 AM 15.45 59.81 0.455 7.93 12.76 9.71
5/23/2022 11:30:00 AM 15.58 60.044 0.454 7.95 5.2 9.69
5/23/2022 11:45:00 AM 15.75 60.35 0.461 7.66 9.16 9.86
5/23/2022 12:00:00 PM 15.85 60.53 0.461 7.72 3.61 9.88
5/23/2022 12:15:00 PM 15.94 60.692 0.461 7.77 3.21 9.89
5/23/2022 12:30:00 PM 15.98 60.764 0.461 7.83 3.45 9.88
5/23/2022 12:45:00 PM 16.09 60.962 0.461 7.89 3.55 9.89
5/23/2022 1:00:00 PM 16.18 61.124 0.461 7.93 3.4 9.89
5/23/2022 1:15:00 PM 16.28 61.304 0.461 7.95 3.37 9.9
5/23/2022 1:30:00 PM 16.35 61.43 0.461 7.96 3.12 9.89
5/23/2022 1:45:00 PM 16.38 61.484 0.461 7.96 3.05 9.86
5/23/2022 2:00:00 PM 16.41 61.538 0.461 7.98 3.16 9.85
5/23/2022 2:15:00 PM 16.42 61.556 0.461 7.98 3.18 9.82
5/23/2022 2:30:00 PM 16.43 61.574 0.462 7.98 3.44 9.8
5/23/2022 2:45:00 PM 16.44 61.592 0.462 7.98 3.11 9.78
5/23/2022 3:00:00 PM 16.47 61.646 0.462 7.98 3.15 9.77
5/23/2022 3:15:00 PM 16.5 61.7 0.462 7.99 3.09 9.75
5/23/2022 3:30:00 PM 16.53 61.754 0.462 7.99 3.25 9.74
5/23/2022 3:45:00 PM 16.54 61.772 0.462 7.98 2.87 9.71
5/23/2022 4:00:00 PM 16.55 61.79 0.462 7.98 3.44 9.68
5/23/2022 4:15:00 PM 16.55 61.79 0.463 7.99 3.14 9.67
5/23/2022 4:30:00 PM 16.55 61.79 0.463 7.98 3.26 9.64
5/23/2022 4:45:00 PM 16.53 61.754 0.463 7.98 2.86 9.62
5/23/2022 5:00:00 PM 16.51 61.718 0.463 7.98 3.07 9.6
5/23/2022 5:15:00 PM 16.49 61.682 0.463 7.97 2.96 9.57
5/23/2022 5:30:00 PM 16.47 61.646 0.463 7.97 3.13 9.55
5/23/2022 5:45:00 PM 16.44 61.592 0.464 7.96 3.19 9.53
5/23/2022 6:00:00 PM 16.4 61.52 0.463 7.95 3.09 9.49
5/23/2022 6:15:00 PM 16.36 61.448 0.464 7.95 3.25 9.46
5/23/2022 6:30:00 PM 16.33 61.394 0.464 7.94 3.7 9.45
5/23/2022 6:45:00 PM 16.3 61.34 0.463 7.93 3.2 9.44
5/23/2022 7:00:00 PM 16.27 61.286 0.463 7.93 3.85 9.43
5/23/2022 7:15:00 PM 16.23 61.214 0.463 7.92 3.53 9.42
5/23/2022 7:30:00 PM 16.18 61.124 0.463 7.92 3.23 9.4
5/23/2022 7:45:00 PM 16.13 61.034 0.463 7.9 3.28 9.36
5/23/2022 8:00:00 PM 16.07 60.926 0.463 7.89 3.03 9.35
5/23/2022 8:15:00 PM 16.01 60.818 0.463 7.88 3.61 9.31
5/23/2022 8:30:00 PM 15.95 60.71 0.464 7.87 3.31 9.29
5/23/2022 8:45:00 PM 15.89 60.602 0.464 7.86 3.12 9.27
5/23/2022 9:00:00 PM 15.84 60.512 0.464 7.86 3.05 9.26
5/23/2022 9:15:00 PM 15.79 60.422 0.464 7.84 3.4 9.25
5/23/2022 9:30:00 PM 15.74 60.332 0.464 7.84 3.33 9.26
5/23/2022 9:45:00 PM 15.69 60.242 0.464 7.84 3.26 9.24
5/23/2022 10:00:00 PM 15.65 60.17 0.464 7.84 3.37 9.26
5/23/2022 10:15:00 PM 15.6 60.08 0.464 7.83 3.75 9.26
5/23/2022 10:30:00 PM 15.56 60.008 0.464 7.83 3.41 9.26
5/23/2022 10:45:00 PM 15.52 59.936 0.464 7.83 3.62 9.26
5/23/2022 11:00:00 PM 15.48 59.864 0.464 7.82 3.65 9.25
5/23/2022 11:15:00 PM 15.43 59.774 0.464 7.82 3.45 9.26
5/23/2022 11:30:00 PM 15.39 59.702 0.464 7.81 4.03 9.27
5/23/2022 11:45:00 PM 15.35 59.63 0.464 7.81 4.01 9.27
5/24/2022 12:00:00 AM 15.31 59.558 0.464 7.81 3.53 9.29
5/24/2022 12:15:00 AM 15.27 59.486 0.464 7.81 3.44 9.29
5/24/2022 12:30:00 AM 15.23 59.414 0.464 7.8 3.44 9.29
5/24/2022 12:45:00 AM 15.19 59.342 0.464 7.8 3.63 9.3
5/24/2022 1:00:00 AM 15.15 59.27 0.464 7.8 3.6 9.31
5/24/2022 1:15:00 AM 15.1 59.18 0.465 7.8 3.25 9.32
5/24/2022 1:30:00 AM 15.05 59.09 0.465 7.79 3.91 9.33
5/24/2022 1:45:00 AM 14.99 58.982 0.465 7.79 3.62 9.34
5/24/2022 2:00:00 AM 14.92 58.856 0.465 7.78 3.78 9.34
5/24/2022 2:15:00 AM 14.85 58.73 0.465 7.78 3.74 9.35
5/24/2022 2:30:00 AM 14.79 58.622 0.465 7.77 3.29 9.36
5/24/2022 2:45:00 AM 14.72 58.496 0.465 7.78 3.37 9.39
5/24/2022 3:00:00 AM 14.66 58.388 0.466 7.77 3.85 9.39
5/24/2022 3:15:00 AM 14.59 58.262 0.466 7.77 3.47 9.41
5/24/2022 3:30:00 AM 14.52 58.136 0.466 7.77 3.71 9.43
5/24/2022 3:45:00 AM 14.46 58.028 0.466 7.77 3.55 9.44
5/24/2022 4:00:00 AM 14.39 57.902 0.466 7.77 3.61 9.45
5/24/2022 4:15:00 AM 14.32 57.776 0.466 7.76 3.5 9.46
5/24/2022 4:30:00 AM 14.25 57.65 0.467 7.77 3.66 9.47
5/24/2022 4:45:00 AM 14.19 57.542 0.467 7.76 3.46 9.47
5/24/2022 5:00:00 AM 14.12 57.416 0.467 7.77 3.77 9.5
5/24/2022 5:15:00 AM 14.06 57.308 0.467 7.77 3.75 9.52
5/24/2022 5:30:00 AM 13.99 57.182 0.467 7.77 3.92 9.53
5/24/2022 5:45:00 AM 13.95 57.11 0.467 7.77 3.79 9.54
5/24/2022 6:00:00 AM 13.91 57.038 0.467 7.78 3.74 9.56
5/24/2022 6:15:00 AM 13.88 56.984 0.468 7.78 3.62 9.57
5/24/2022 6:30:00 AM 13.85 56.93 0.468 7.78 3.55 9.59
5/24/2022 6:45:00 AM 13.82 56.876 0.468 7.79 3.42 9.62
5/24/2022 7:00:00 AM 13.8 56.84 0.468 7.79 3.68 9.64
5/24/2022 7:15:00 AM 13.78 56.804 0.468 7.8 3.42 9.67
5/24/2022 7:30:00 AM 13.76 56.768 0.468 7.81 3.3 9.7
5/24/2022 7:45:00 AM 13.75 56.75 0.468 7.81 3.57 9.73
5/24/2022 8:00:00 AM 13.75 56.75 0.468 7.83 3.69 9.78
5/24/2022 8:15:00 AM 13.76 56.768 0.469 7.83 3.5 9.82
5/24/2022 8:30:00 AM 13.75 56.75 0.469 7.85 3.51 9.86
5/24/2022 8:45:00 AM 13.76 56.768 0.469 7.85 3.57 9.87
5/24/2022 9:00:00 AM 13.79 56.822 0.469 7.86 3.26 9.91
5/24/2022 9:15:00 AM 13.81 56.858 0.469 7.87 3.54 9.95
5/24/2022 9:30:00 AM 13.84 56.912 0.47 7.88 3.45 9.98
5/24/2022 9:45:00 AM 13.89 57.002 0.47 7.88 3.65 10
5/24/2022 10:00:00 AM 13.94 57.092 0.47 7.9 3.55 10.03
5/24/2022 10:15:00 AM 14.01 57.218 0.47 7.91 3.58 10.05
5/24/2022 10:30:00 AM 14.03 57.254 0.47 7.92 3.61 10.06
5/24/2022 10:45:00 AM 14.04 57.272 0.471 7.92 3.39 10.05
5/24/2022 11:00:00 AM 14.09 57.362 0.471 7.92 3.39 10.07
5/24/2022 11:15:00 AM 14.12 57.416 0.471 7.93 3.21 10.07
5/24/2022 11:30:00 AM 14.13 57.434 0.471 7.93 3.4 10.06
5/24/2022 11:45:00 AM 14.14 57.452 0.471 7.92 3.26 10.05
5/24/2022 12:00:00 PM 14.16 57.488 0.471 7.93 3.33 10.05
5/24/2022 12:15:00 PM 14.19 57.542 0.471 7.93 3.25 10.04
5/24/2022 12:30:00 PM 14.22 57.596 0.471 7.94 3.31 10.05
5/24/2022 12:45:00 PM 14.23 57.614 0.471 7.94 3.23 10.04
5/24/2022 1:00:00 PM 14.27 57.686 0.471 7.94 3.07 10.03
5/24/2022 1:15:00 PM 14.3 57.74 0.472 7.94 3.34 10.04
5/24/2022 1:30:00 PM 14.32 57.776 0.472 7.95 3.21 10.04
5/24/2022 1:45:00 PM 14.38 57.884 0.472 7.96 3.3 10.05
5/24/2022 2:00:00 PM 14.4 57.92 0.472 7.96 3.17 10.05
5/24/2022 2:15:00 PM 14.42 57.956 0.472 7.96 3.22 10.04
5/24/2022 2:30:00 PM 14.43 57.974 0.473 7.96 3.26 10.02
5/24/2022 2:45:00 PM 14.44 57.992 0.473 7.96 3.24 10
5/24/2022 3:00:00 PM 14.47 58.046 0.472 7.96 3.07 10
5/24/2022 3:15:00 PM 14.52 58.136 0.472 7.96 3.33 10
5/24/2022 3:30:00 PM 14.55 58.19 0.472 7.97 2.99 9.99
5/24/2022 3:45:00 PM 14.56 58.208 0.472 7.97 3.21 9.97
5/24/2022 4:00:00 PM 14.56 58.208 0.472 7.96 3.12 9.94
5/24/2022 4:15:00 PM 14.56 58.208 0.472 7.96 3.15 9.91
5/24/2022 4:30:00 PM 14.56 58.208 0.472 7.95 3.21 9.89
5/24/2022 4:45:00 PM 14.57 58.226 0.472 7.94 3.13 9.88
5/24/2022 5:00:00 PM 14.57 58.226 0.472 7.95 3.51 9.87
5/24/2022 5:15:00 PM 14.59 58.262 0.472 7.95 3.37 9.88
5/24/2022 5:30:00 PM 14.62 58.316 0.472 7.95 3.57 9.88
5/24/2022 5:45:00 PM 14.64 58.352 0.472 7.95 3.19 9.88
5/24/2022 6:00:00 PM 14.64 58.352 0.472 7.96 3.39 9.87
5/24/2022 6:15:00 PM 14.63 58.334 0.472 7.94 3.08 9.83
5/24/2022 6:30:00 PM 14.62 58.316 0.472 7.94 3.28 9.8
5/24/2022 6:45:00 PM 14.6 58.28 0.472 7.93 3.36 9.76
5/24/2022 7:00:00 PM 14.59 58.262 0.472 7.92 3.36 9.73
5/24/2022 7:15:00 PM 14.57 58.226 0.472 7.91 3.36 9.7
5/24/2022 7:30:00 PM 14.55 58.19 0.472 7.9 3.33 9.67
5/24/2022 7:45:00 PM 14.53 58.154 0.472 7.89 3.14 9.65
5/24/2022 8:00:00 PM 14.51 58.118 0.473 7.88 3.37 9.64
5/24/2022 8:15:00 PM 14.49 58.082 0.473 7.87 3.34 9.62
5/24/2022 8:30:00 PM 14.48 58.064 0.473 7.86 3.48 9.6
5/24/2022 8:45:00 PM 14.47 58.046 0.473 7.86 3.37 9.59
5/24/2022 9:00:00 PM 14.46 58.028 0.473 7.86 3.48 9.59
5/24/2022 9:15:00 PM 14.45 58.01 0.473 7.85 3.24 9.58
5/24/2022 9:30:00 PM 14.44 57.992 0.473 7.85 3.52 9.58
5/24/2022 9:45:00 PM 14.42 57.956 0.474 7.84 3.37 9.56
5/24/2022 10:00:00 PM 14.41 57.938 0.474 7.85 3.67 9.57
5/24/2022 10:15:00 PM 14.39 57.902 0.474 7.84 3.73 9.57
5/24/2022 10:30:00 PM 14.38 57.884 0.474 7.84 3.43 9.56
5/24/2022 10:45:00 PM 14.36 57.848 0.474 7.83 3.31 9.57
5/24/2022 11:00:00 PM 14.35 57.83 0.475 7.83 3.61 9.56
5/24/2022 11:15:00 PM 14.33 57.794 0.475 7.83 3.64 9.56
5/24/2022 11:30:00 PM 14.32 57.776 0.475 7.83 3.53 9.56
5/24/2022 11:45:00 PM 14.3 57.74 0.475 7.83 3.5 9.57
5/25/2022 12:00:00 AM 14.28 57.704 0.476 7.83 3.52 9.56
5/25/2022 12:15:00 AM 14.27 57.686 0.476 7.82 3.41 9.56
5/25/2022 12:30:00 AM 14.25 57.65 0.475 7.82 3.58 9.55
5/25/2022 12:45:00 AM 14.23 57.614 0.474 7.82 3.7 9.56
5/25/2022 1:00:00 AM 14.21 57.578 0.473 7.82 3.45 9.57
5/25/2022 1:15:00 AM 14.19 57.542 0.473 7.82 3.83 9.57
5/25/2022 1:30:00 AM 14.16 57.488 0.474 7.81 3.35 9.57
5/25/2022 1:45:00 AM 14.11 57.398 0.475 7.81 3.45 9.58
5/25/2022 2:00:00 AM 14.06 57.308 0.476 7.81 3.62 9.6
5/25/2022 2:15:00 AM 14.02 57.236 0.476 7.8 3.63 9.6
5/25/2022 2:30:00 AM 13.97 57.146 0.477 7.8 3.77 9.6
5/25/2022 2:45:00 AM 13.93 57.074 0.477 7.79 3.83 9.61
5/25/2022 3:00:00 AM 13.89 57.002 0.477 7.8 3.7 9.62
5/25/2022 3:15:00 AM 13.85 56.93 0.477 7.8 3.5 9.64
5/25/2022 3:30:00 AM 13.82 56.876 0.478 7.8 3.67 9.63
5/25/2022 3:45:00 AM 13.78 56.804 0.478 7.79 3.74 9.64
5/25/2022 4:00:00 AM 13.74 56.732 0.478 7.8 3.71 9.66
5/25/2022 4:15:00 AM 13.72 56.696 0.478 7.8 3.74 9.67
5/25/2022 4:30:00 AM 13.68 56.624 0.478 7.8 4.23 9.66
5/25/2022 4:45:00 AM 13.63 56.534 0.478 7.8 3.78 9.67
5/25/2022 5:00:00 AM 13.58 56.444 0.477 7.79 3.75 9.67
5/25/2022 5:15:00 AM 13.54 56.372 0.477 7.79 3.94 9.68
5/25/2022 5:30:00 AM 13.48 56.264 0.477 7.79 3.75 9.71
5/25/2022 5:45:00 AM 13.42 56.156 0.477 7.79 3.57 9.73
5/25/2022 6:00:00 AM 13.37 56.066 0.478 7.79 3.71 9.74
5/25/2022 6:15:00 AM 13.32 55.976 0.478 7.79 3.91 9.76
5/25/2022 6:30:00 AM 13.28 55.904 0.478 7.8 3.58 9.79
5/25/2022 6:45:00 AM 13.24 55.832 0.478 7.8 3.5 9.83
5/25/2022 7:00:00 AM 13.22 55.796 0.478 7.8 3.56 9.84
5/25/2022 7:15:00 AM 13.2 55.76 0.479 7.82 3.51 9.89
5/25/2022 7:30:00 AM 13.21 55.778 0.479 7.82 3.68 9.94
5/25/2022 7:45:00 AM 13.21 55.778 0.479 7.84 3.52 9.98
5/25/2022 8:00:00 AM 13.22 55.796 0.479 7.85 3.51 10
5/25/2022 8:15:00 AM 13.25 55.85 0.479 7.86 3.57 10.03
5/25/2022 8:30:00 AM 13.29 55.922 0.479 7.86 3.59 10.06
5/25/2022 8:45:00 AM 13.35 56.03 0.479 7.88 3.46 10.09
5/25/2022 9:00:00 AM 13.41 56.138 0.48 7.89 3.61 10.12
5/25/2022 9:15:00 AM 13.45 56.21 0.48 7.9 3.56 10.13
5/25/2022 9:30:00 AM 13.52 56.336 0.48 7.91 3.57 10.15
5/25/2022 9:45:00 AM 13.6 56.48 0.48 7.92 3.49 10.15
5/25/2022 10:00:00 AM 13.73 56.714 0.48 7.93 3.52 10.18
5/25/2022 10:15:00 AM 13.88 56.984 0.48 7.94 3.56 10.2
5/25/2022 10:30:00 AM 14.05 57.29 0.48 7.95 3.54 10.22
5/25/2022 10:45:00 AM 14.18 57.524 0.48 7.95 3.44 10.23
5/25/2022 11:00:00 AM 14.31 57.758 0.48 7.97 3.26 10.24
5/25/2022 11:15:00 AM 14.37 57.866 0.48 7.97 3.29 10.24
5/25/2022 11:30:00 AM 14.44 57.992 0.48 7.97 3.33 10.24
5/25/2022 11:45:00 AM 14.59 58.262 0.481 7.98 3.41 10.24
5/25/2022 12:00:00 PM 14.72 58.496 0.481 7.99 3.32 10.23
5/25/2022 12:15:00 PM 14.81 58.658 0.481 8 3.3 10.21
5/25/2022 12:30:00 PM 14.89 58.802 0.481 7.99 3.46 10.19
5/25/2022 12:45:00 PM 15.14 59.252 0.481 7.99 12.36 10.19
5/25/2022 1:00:00 PM 15.35 59.63 0.481 8.01 3.67 10.16
5/25/2022 1:15:00 PM 15.67 60.206 0.481 8.01 3.24 10.13
5/25/2022 1:30:00 PM 15.82 60.476 0.481 8.02 2.96 10.11
5/25/2022 1:45:00 PM 16.02 60.836 0.481 8.03 3.01 10.08
5/25/2022 2:00:00 PM 16.07 60.926 0.481 8.04 3.25 10.04
5/25/2022 2:15:00 PM 16.26 61.268 0.481 8.04 3.31 10.02
5/25/2022 2:30:00 PM 16.47 61.646 0.481 8.04 2.93 9.99
5/25/2022 2:45:00 PM 16.77 62.186 0.481 8.04 2.92 9.94
5/25/2022 3:00:00 PM 17.05 62.69 0.481 8.04 3.45 9.91
5/25/2022 3:15:00 PM 17.17 62.906 0.481 8.04 2.97 9.85
5/25/2022 3:30:00 PM 17.14 62.852 0.481 8.05 3.18 9.8
5/25/2022 3:45:00 PM 17.16 62.888 0.481 8.05 3.08 9.76
5/25/2022 4:00:00 PM 17.16 62.888 0.481 8.04 3.21 9.72
5/25/2022 4:15:00 PM 17.15 62.87 0.481 8.04 3.04 9.7
5/25/2022 4:30:00 PM 17.19 62.942 0.482 8.03 3.07 9.68
5/25/2022 4:45:00 PM 17.21 62.978 0.481 8.04 3.11 9.65
5/25/2022 5:00:00 PM 17.21 62.978 0.481 8.03 3.1 9.6
5/25/2022 5:15:00 PM 17.34 63.212 0.482 8.04 2.81 9.6
5/25/2022 5:30:00 PM 17.35 63.23 0.482 8.03 2.98 9.57
5/25/2022 5:45:00 PM 17.33 63.194 0.482 8.03 3.17 9.52
5/25/2022 6:00:00 PM 17.3 63.14 0.482 8.03 3.09 9.49
5/25/2022 6:15:00 PM 17.29 63.122 0.482 8.03 3.16 9.47
5/25/2022 6:30:00 PM 17.27 63.086 0.482 8.03 3.16 9.43
5/25/2022 6:45:00 PM 17.22 62.996 0.482 8.02 3.37 9.38
5/25/2022 7:00:00 PM 17.2 62.96 0.482 8.01 3.32 9.35
5/25/2022 7:15:00 PM 17.17 62.906 0.482 8 3.19 9.31
5/25/2022 7:30:00 PM 17.15 62.87 0.482 7.99 3.09 9.27
5/25/2022 7:45:00 PM 17.12 62.816 0.482 7.98 3.2 9.23
5/25/2022 8:00:00 PM 17.08 62.744 0.482 7.97 3.11 9.2
5/25/2022 8:15:00 PM 17.04 62.672 0.482 7.96 3.28 9.17
5/25/2022 8:30:00 PM 16.98 62.564 0.482 7.96 3.38 9.14
5/25/2022 8:45:00 PM 16.92 62.456 0.482 7.94 3.26 9.1
5/25/2022 9:00:00 PM 16.86 62.348 0.482 7.93 3.65 9.08
5/25/2022 9:15:00 PM 16.8 62.24 0.483 7.92 3.31 9.06
5/25/2022 9:30:00 PM 16.73 62.114 0.483 7.92 3.43 9.07
5/25/2022 9:45:00 PM 16.66 61.988 0.483 7.91 3.57 9.07
5/25/2022 10:00:00 PM 16.6 61.88 0.483 7.91 3.48 9.08
5/25/2022 10:15:00 PM 16.55 61.79 0.483 7.9 3.82 9.08
5/25/2022 10:30:00 PM 16.5 61.7 0.483 7.89 3.66 9.08
5/25/2022 10:45:00 PM 16.43 61.574 0.483 7.89 3.52 9.09
5/25/2022 11:00:00 PM 16.36 61.448 0.483 7.88 3.55 9.09
5/25/2022 11:15:00 PM 16.29 61.322 0.483 7.88 3.39 9.1
5/25/2022 11:30:00 PM 16.23 61.214 0.483 7.87 3.29 9.11
5/25/2022 11:45:00 PM 16.16 61.088 0.483 7.87 3.49 9.11
5/26/2022 12:00:00 AM 16.1 60.98 0.484 7.87 3.47 9.1
5/26/2022 12:15:00 AM 16.03 60.854 0.484 7.86 3.75 9.12
5/26/2022 12:30:00 AM 15.98 60.764 0.484 7.86 3.38 9.13
5/26/2022 12:45:00 AM 15.92 60.656 0.484 7.86 3.33 9.14
5/26/2022 1:00:00 AM 15.86 60.548 0.484 7.86 3.38 9.15
5/26/2022 1:15:00 AM 15.81 60.458 0.484 7.85 3.33 9.15
5/26/2022 1:30:00 AM 15.76 60.368 0.484 7.85 3.31 9.16
5/26/2022 1:45:00 AM 15.71 60.278 0.484 7.84 4.04 9.17
5/26/2022 2:00:00 AM 15.64 60.152 0.484 7.84 3.7 9.18
5/26/2022 2:15:00 AM 15.58 60.044 0.484 7.83 3.5 9.18
5/26/2022 2:30:00 AM 15.52 59.936 0.485 7.83 4.08 9.19
5/26/2022 2:45:00 AM 15.46 59.828 0.485 7.82 3.36 9.2
5/26/2022 3:00:00 AM 15.39 59.702 0.485 7.81 3.41 9.21
5/26/2022 3:15:00 AM 15.33 59.594 0.485 7.8 5.08 9.23
5/26/2022 3:30:00 AM 15.27 59.486 0.486 7.8 3.54 9.24
5/26/2022 3:45:00 AM 15.2 59.36 0.486 7.81 3.62 9.26
5/26/2022 4:00:00 AM 15.14 59.252 0.486 7.8 3.65 9.27
5/26/2022 4:15:00 AM 15.07 59.126 0.486 7.8 3.72 9.29
5/26/2022 4:30:00 AM 15.01 59.018 0.486 7.8 3.32 9.3
5/26/2022 4:45:00 AM 14.94 58.892 0.486 7.8 3.28 9.31
5/26/2022 5:00:00 AM 14.87 58.766 0.486 7.79 3.45 9.31
5/26/2022 5:15:00 AM 14.8 58.64 0.486 7.78 3.38 9.32
5/26/2022 5:30:00 AM 14.72 58.496 0.486 7.79 3.47 9.35
5/26/2022 5:45:00 AM 14.66 58.388 0.487 7.79 3.68 9.37
5/26/2022 6:00:00 AM 14.59 58.262 0.487 7.78 3.75 9.38
5/26/2022 6:15:00 AM 14.53 58.154 0.487 7.79 3.43 9.4
5/26/2022 6:30:00 AM 14.46 58.028 0.487 7.8 3.39 9.44
5/26/2022 6:45:00 AM 14.41 57.938 0.487 7.8 3.57 9.47
5/26/2022 7:00:00 AM 14.36 57.848 0.488 7.8 3.48 9.5
5/26/2022 7:15:00 AM 14.32 57.776 0.488 7.81 3.66 9.55
5/26/2022 7:30:00 AM 14.31 57.758 0.488 7.82 3.13 9.56
5/26/2022 7:45:00 AM 14.3 57.74 0.488 7.82 3.11 9.6
5/26/2022 8:00:00 AM 14.29 57.722 0.488 7.83 3.48 9.63
5/26/2022 8:15:00 AM 14.31 57.758 0.488 7.84 3.38 9.67
5/26/2022 8:30:00 AM 14.33 57.794 0.489 7.85 3.47 9.69
5/26/2022 8:45:00 AM 14.37 57.866 0.489 7.86 3.06 9.72
5/26/2022 9:00:00 AM 14.44 57.992 0.489 7.87 3.2 9.75
5/26/2022 9:15:00 AM 14.52 58.136 0.489 7.87 3.44 9.77
5/26/2022 9:30:00 AM 14.63 58.334 0.489 7.89 3.4 9.78
5/26/2022 9:45:00 AM 14.78 58.604 0.489 7.9 3 9.8
5/26/2022 10:00:00 AM 14.99 58.982 0.488 7.92 3.27 9.83
5/26/2022 10:15:00 AM 15.18 59.324 0.488 7.93 3.19 9.86
5/26/2022 10:30:00 AM 15.38 59.684 0.487 7.96 3.23 9.88
5/26/2022 10:45:00 AM 15.56 60.008 0.486 7.96 3.48 9.86
5/26/2022 11:00:00 AM 15.75 60.35 0.487 7.96 3.45 9.87
5/26/2022 11:15:00 AM 15.99 60.782 0.487 7.97 3.35 9.85
5/26/2022 11:30:00 AM 16.21 61.178 0.488 7.97 3.2 9.83
5/26/2022 11:45:00 AM 16.44 61.592 0.488 7.98 3.3 9.82
5/26/2022 12:00:00 PM 16.67 62.006 0.489 7.97 3.19 9.79
5/26/2022 12:15:00 PM 16.92 62.456 0.49 7.98 3.42 9.75
5/26/2022 12:30:00 PM 17.13 62.834 0.49 7.98 3.54 9.73
5/26/2022 12:45:00 PM 17.36 63.248 0.49 7.98 3.47 9.71
5/26/2022 1:00:00 PM 17.61 63.698 0.491 7.99 3.2 9.68
5/26/2022 1:15:00 PM 17.84 64.112 0.491 8.01 3.29 9.64
5/26/2022 1:30:00 PM 18.09 64.562 0.491 8.02 3.56 9.61
5/26/2022 1:45:00 PM 18.37 65.066 0.491 8.03 2.91 9.6
5/26/2022 2:00:00 PM 18.56 65.408 0.491 8.02 3.05 9.57
5/26/2022 2:15:00 PM 18.63 65.534 0.491 8.02 3.2 9.54
5/26/2022 2:30:00 PM 18.62 65.516 0.491 8.01 3.22 9.51
5/26/2022 2:45:00 PM 18.87 65.966 0.491 8.01 3.18 9.5
5/26/2022 3:00:00 PM 19.04 66.272 0.491 8.02 3.2 9.48
5/26/2022 3:15:00 PM 19.23 66.614 0.491 8.02 3 9.43
5/26/2022 3:30:00 PM 19.45 67.01 0.491 8.02 3.27 9.38
5/26/2022 3:45:00 PM 19.64 67.352 0.491 8.03 3.17 9.33
5/26/2022 4:00:00 PM 19.75 67.55 0.492 8.02 3.15 9.26
5/26/2022 4:15:00 PM 19.93 67.874 0.492 8.02 2.9 9.21
5/26/2022 4:30:00 PM 20.13 68.234 0.492 8.02 2.99 9.19
5/26/2022 4:45:00 PM 20.2 68.36 0.492 8.02 3.24 9.14
5/26/2022 5:00:00 PM 20.27 68.486 0.492 8.03 3.38 9.1
5/26/2022 5:15:00 PM 20.25 68.45 0.492 8.04 3.17 9.05
5/26/2022 5:30:00 PM 20.19 68.342 0.492 8.03 3.14 9.01
5/26/2022 5:45:00 PM 20.08 68.144 0.492 8.02 3.1 8.95
5/26/2022 6:00:00 PM 19.99 67.982 0.492 8.02 3.22 8.92
5/26/2022 6:15:00 PM 19.91 67.838 0.492 8.02 3.17 8.89
5/26/2022 6:30:00 PM 19.79 67.622 0.492 8.01 3.21 8.84
5/26/2022 6:45:00 PM 19.67 67.406 0.492 7.99 2.93 8.78
5/26/2022 7:00:00 PM 19.55 67.19 0.491 7.98 3.34 8.74
5/26/2022 7:15:00 PM 19.47 67.046 0.491 7.97 3.24 8.71
5/26/2022 7:30:00 PM 19.39 66.902 0.491 7.96 3.18 8.68
5/26/2022 7:45:00 PM 19.33 66.794 0.491 7.96 3.19 8.66
5/26/2022 8:00:00 PM 19.29 66.722 0.491 7.95 3.24 8.65
5/26/2022 8:15:00 PM 19.26 66.668 0.491 7.94 3.24 8.61
5/26/2022 8:30:00 PM 19.23 66.614 0.491 7.93 3.21 8.58
5/26/2022 8:45:00 PM 19.19 66.542 0.491 7.92 3.32 8.56
5/26/2022 9:00:00 PM 19.14 66.452 0.491 7.91 3.63 8.53
5/26/2022 9:15:00 PM 19.09 66.362 0.491 7.9 3.49 8.53
5/26/2022 9:30:00 PM 19.03 66.254 0.491 7.88 3.63 8.51
5/26/2022 9:45:00 PM 18.96 66.128 0.491 7.88 3.52 8.52
5/26/2022 10:00:00 PM 18.87 65.966 0.491 7.88 3.76 8.53
5/26/2022 10:15:00 PM 18.79 65.82201 0.491 7.87 3.75 8.52
5/26/2022 10:30:00 PM 18.7 65.66 0.491 7.86 3.49 8.52
5/26/2022 10:45:00 PM 18.63 65.534 0.491 7.85 3.52 8.55
5/26/2022 11:00:00 PM 18.56 65.408 0.491 7.85 3.54 8.56
5/26/2022 11:15:00 PM 18.48 65.264 0.491 7.85 3.59 8.57
5/26/2022 11:30:00 PM 18.41 65.138 0.491 7.85 3.62 8.59
5/26/2022 11:45:00 PM 18.35 65.03 0.491 7.84 5.84 8.58
5/27/2022 12:00:00 AM 18.3 64.94 0.491 7.85 4.53 8.6
5/27/2022 12:15:00 AM 18.24 64.832 0.491 7.85 3.76 8.61
5/27/2022 12:30:00 AM 18.19 64.742 0.491 7.85 3.68 8.62
5/27/2022 12:45:00 AM 18.15 64.67 0.491 7.85 3.58 8.63
5/27/2022 1:00:00 AM 18.1 64.58 0.492 7.84 4.02 8.62
5/27/2022 1:15:00 AM 18.07 64.526 0.492 7.83 3.64 8.62
5/27/2022 1:30:00 AM 18.04 64.472 0.492 7.84 4.1 8.62
5/27/2022 1:45:00 AM 18.01 64.418 0.492 7.84 3.87 8.63
5/27/2022 2:00:00 AM 17.98 64.364 0.492 7.83 3.67 8.63
5/27/2022 2:15:00 AM 17.96 64.328 0.492 7.83 3.99 8.64
5/27/2022 2:30:00 AM 17.93 64.274 0.492 7.83 3.86 8.64
5/27/2022 2:45:00 AM 17.91 64.238 0.492 7.83 3.71 8.64
5/27/2022 3:00:00 AM 17.89 64.202 0.492 7.83 3.98 8.66
5/27/2022 3:15:00 AM 17.86 64.148 0.492 7.83 3.78 8.65
5/27/2022 3:30:00 AM 17.84 64.112 0.492 7.83 3.85 8.66
5/27/2022 3:45:00 AM 17.81 64.058 0.493 7.82 3.8 8.65
5/27/2022 4:00:00 AM 17.78 64.004 0.493 7.82 3.99 8.66
5/27/2022 4:15:00 AM 17.76 63.968 0.492 7.82 3.85 8.66
5/27/2022 4:30:00 AM 17.73 63.914 0.492 7.82 4.01 8.67
5/27/2022 4:45:00 AM 17.71 63.878 0.492 7.8 4.26 8.66
5/27/2022 5:00:00 AM 17.68 63.824 0.492 7.8 4.03 8.66
5/27/2022 5:15:00 AM 17.65 63.77 0.492 7.8 4.11 8.66
5/27/2022 5:30:00 AM 17.62 63.716 0.492 7.8 4.05 8.66
5/27/2022 5:45:00 AM 17.59 63.662 0.492 7.78 4.56 8.64
5/27/2022 6:00:00 AM 17.56 63.608 0.492 7.79 4.11 8.66
5/27/2022 6:15:00 AM 17.53 63.554 0.493 7.79 4.02 8.68
5/27/2022 6:30:00 AM 17.49 63.482 0.493 7.79 4.13 8.69
5/27/2022 6:45:00 AM 17.46 63.428 0.492 7.79 4.21 8.71
5/27/2022 7:00:00 AM 17.43 63.374 0.493 7.8 3.91 8.74
5/27/2022 7:15:00 AM 17.41 63.338 0.492 7.79 4.07 8.75
5/27/2022 7:30:00 AM 17.38 63.284 0.492 7.8 4.2 8.78
5/27/2022 7:45:00 AM 17.37 63.266 0.492 7.8 4.89 8.83
5/27/2022 8:00:00 AM 17.36 63.248 0.492 7.81 5.21 8.84
5/27/2022 8:15:00 AM 17.36 63.248 0.492 7.81 4.29 8.89
5/27/2022 8:30:00 AM 17.37 63.266 0.492 7.83 4.05 8.94
5/27/2022 8:45:00 AM 17.39 63.302 0.492 7.83 4.07 8.97
5/27/2022 9:00:00 AM 17.37 63.266 0.492 7.84 3.94 8.99
5/27/2022 9:15:00 AM 17.37 63.266 0.491 7.84 3.95 8.98
5/27/2022 9:30:00 AM 17.39 63.302 0.491 7.84 4.06 9.01
5/27/2022 9:45:00 AM 17.43 63.374 0.491 7.85 3.89 9.04
5/27/2022 10:00:00 AM 17.42 63.356 0.49 7.84 3.9 9.02
5/27/2022 10:15:00 AM 17.44 63.392 0.49 7.85 3.97 9.04
5/27/2022 10:30:00 AM 17.52 63.536 0.474 7.82 12.8 9.03
5/27/2022 10:45:00 AM 17.45 63.41 0.479 7.83 5.71 9.03
5/27/2022 11:00:00 AM 17.45 63.41 0.478 7.83 5.85 9.03
5/27/2022 11:15:00 AM 17.53 63.554 0.475 7.83 5.99 9.08
5/27/2022 11:30:00 AM 17.69 63.842 0.474 7.85 5.73 9.15
5/27/2022 11:45:00 AM 17.74 63.932 0.476 7.85 5.71 9.19
5/27/2022 12:00:00 PM 17.81 64.058 0.476 7.86 7.72 9.19
5/27/2022 12:15:00 PM 17.85 64.13 0.478 7.87 9.04 9.21
5/27/2022 12:30:00 PM 17.86 64.148 0.479 7.88 6.88 9.22
5/27/2022 12:45:00 PM 17.89 64.202 0.478 7.88 6.49 9.23
5/27/2022 1:00:00 PM 17.85 64.13 0.476 7.89 6.71 9.21
5/27/2022 1:15:00 PM 17.89 64.202 0.475 7.88 6.51 9.21
5/27/2022 1:30:00 PM 17.97 64.346 0.475 7.88 7.36 9.23
5/27/2022 1:45:00 PM 18.04 64.472 0.476 7.9 6.87 9.25
5/27/2022 2:00:00 PM 18.06 64.508 0.477 7.91 6.29 9.24
5/27/2022 2:15:00 PM 18.12 64.616 0.478 7.91 6.49 9.24
5/27/2022 2:30:00 PM 18.18 64.724 0.48 7.91 6.35 9.24
5/27/2022 2:45:00 PM 18.26 64.868 0.482 7.92 6.56 9.24
5/27/2022 3:00:00 PM 18.33 64.994 0.482 7.92 5.82 9.24
5/27/2022 3:15:00 PM 18.38 65.084 0.482 7.92 6.51 9.24
5/27/2022 3:30:00 PM 18.47 65.246 0.482 7.92 7.24 9.24
5/27/2022 3:45:00 PM 18.66 65.588 0.481 7.93 7.62 9.26
5/27/2022 4:00:00 PM 18.8 65.84 0.479 7.94 8.74 9.25
5/27/2022 4:15:00 PM 18.8 65.84 0.478 7.94 8.14 9.22
5/27/2022 4:30:00 PM 18.78 65.804 0.476 7.94 7.66 9.18
5/27/2022 4:45:00 PM 18.78 65.804 0.475 7.94 7.57 9.15
5/27/2022 5:00:00 PM 18.75 65.75 0.475 7.93 6.89 9.1
5/27/2022 5:15:00 PM 18.8 65.84 0.474 7.93 7.25 9.08
5/27/2022 5:30:00 PM 18.85 65.93 0.474 7.93 7.06 9.08
5/27/2022 5:45:00 PM 18.89 66.002 0.474 7.94 7.47 9.08
5/27/2022 6:00:00 PM 18.88 65.984 0.474 7.93 6.85 9.04
5/27/2022 6:15:00 PM 18.85 65.93 0.473 7.93 6.62 8.98
5/27/2022 6:30:00 PM 18.8 65.84 0.473 7.93 6.82 8.94
5/27/2022 6:45:00 PM 18.76 65.768 0.473 7.92 7.46 8.91
5/27/2022 7:00:00 PM 18.69 65.642 0.473 7.91 6.49 8.87
5/27/2022 7:15:00 PM 18.59 65.462 0.472 7.91 7.21 8.83
5/27/2022 7:30:00 PM 18.5 65.3 0.471 7.9 7.19 8.8
5/27/2022 7:45:00 PM 18.42 65.156 0.47 7.89 7.31 8.76
5/27/2022 8:00:00 PM 18.34 65.012 0.469 7.88 7.35 8.73
5/27/2022 8:15:00 PM 18.27 64.886 0.469 7.87 7.5 8.71
5/27/2022 8:30:00 PM 18.21 64.778 0.468 7.86 7.3 8.69
5/27/2022 8:45:00 PM 18.15 64.67 0.467 7.86 7.31 8.67
5/27/2022 9:00:00 PM 18.09 64.562 0.467 7.86 8.14 8.65
5/27/2022 9:15:00 PM 18.04 64.472 0.466 7.85 7.99 8.63
5/27/2022 9:30:00 PM 18 64.4 0.466 7.84 8.45 8.62
5/27/2022 9:45:00 PM 17.96 64.328 0.466 7.84 9.16 8.62
5/27/2022 10:00:00 PM 17.92 64.256 0.465 7.83 8.54 8.63
5/27/2022 10:15:00 PM 17.88 64.184 0.465 7.82 9.4 8.63
5/27/2022 10:30:00 PM 17.84 64.112 0.465 7.82 8.79 8.61
5/27/2022 10:45:00 PM 17.8 64.04 0.465 7.82 8.76 8.62
5/27/2022 11:00:00 PM 17.75 63.95 0.465 7.81 8.2 8.62
5/27/2022 11:15:00 PM 17.7 63.86 0.464 7.8 8.16 8.6
5/27/2022 11:30:00 PM 17.63 63.734 0.463 7.8 8.41 8.63
5/27/2022 11:45:00 PM 17.58 63.644 0.462 7.79 9.06 8.62
5/28/2022 12:00:00 AM 17.52 63.536 0.461 7.79 10.54 8.64
5/28/2022 12:15:00 AM 17.47 63.446 0.459 7.79 9.28 8.64
5/28/2022 12:30:00 AM 17.43 63.374 0.458 7.78 10.18 8.64
5/28/2022 12:45:00 AM 17.38 63.284 0.457 7.78 11.02 8.63
5/28/2022 1:00:00 AM 17.34 63.212 0.456 7.78 10.99 8.66
5/28/2022 1:15:00 AM 17.3 63.14 0.455 7.76 12.79 8.66
5/28/2022 1:30:00 AM 17.26 63.068 0.455 7.78 11.68 8.66
5/28/2022 1:45:00 AM 17.23 63.014 0.456 7.77 10.77 8.68
5/28/2022 2:00:00 AM 17.19 62.942 0.457 7.78 11.37 8.69
5/28/2022 2:15:00 AM 17.15 62.87 0.457 7.78 10.86 8.7
5/28/2022 2:30:00 AM 17.1 62.78 0.458 7.78 10.05 8.71
5/28/2022 2:45:00 AM 17.05 62.69 0.459 7.76 10.22 8.73
5/28/2022 3:00:00 AM 17 62.6 0.459 7.79 9.46 8.74
5/28/2022 3:15:00 AM 16.95 62.51 0.46 7.77 8.96 8.74
5/28/2022 3:30:00 AM 16.9 62.42 0.46 7.77 9.22 8.75
5/28/2022 3:45:00 AM 16.85 62.33 0.461 7.78 9.29 8.76
5/28/2022 4:00:00 AM 16.79 62.222 0.462 7.77 8.59 8.77
5/28/2022 4:15:00 AM 16.73 62.114 0.463 7.77 8.12 8.79
5/28/2022 4:30:00 AM 16.69 62.042 0.463 7.76 7.85 8.8
5/28/2022 4:45:00 AM 16.64 61.952 0.464 7.77 7.89 8.82
5/28/2022 5:00:00 AM 16.6 61.88 0.465 7.78 7.55 8.82
5/28/2022 5:15:00 AM 16.56 61.808 0.467 7.78 7.63 8.83
5/28/2022 5:30:00 AM 16.52 61.736 0.467 7.77 7.33 8.83
5/28/2022 5:45:00 AM 16.48 61.664 0.468 7.77 7.01 8.84
5/28/2022 6:00:00 AM 16.44 61.592 0.469 7.77 6.82 8.86
5/28/2022 6:15:00 AM 16.4 61.52 0.47 7.78 7.11 8.89
5/28/2022 6:30:00 AM 16.37 61.466 0.471 7.78 6.74 8.9
5/28/2022 6:45:00 AM 16.34 61.412 0.472 7.79 6.61 8.92
5/28/2022 7:00:00 AM 16.31 61.358 0.473 7.79 6.43 8.94
5/28/2022 7:15:00 AM 16.28 61.304 0.474 7.78 5.92 8.95
5/28/2022 7:30:00 AM 16.27 61.286 0.475 7.8 5.53 8.98
5/28/2022 7:45:00 AM 16.25 61.25 0.475 7.8 5.9 9
5/28/2022 8:00:00 AM 16.25 61.25 0.476 7.8 5.61 9.02
5/28/2022 8:15:00 AM 16.28 61.304 0.477 7.81 5.79 9.11
5/28/2022 8:30:00 AM 16.29 61.322 0.478 7.84 5.32 9.16
5/28/2022 8:45:00 AM 16.3 61.34 0.478 7.85 5.46 9.2
5/28/2022 9:00:00 AM 16.31 61.358 0.478 7.86 5.33 9.23
5/28/2022 9:15:00 AM 16.33 61.394 0.479 7.86 5.18 9.25
5/28/2022 9:30:00 AM 16.32 61.376 0.479 7.87 4.81 9.25
5/28/2022 9:45:00 AM 16.29 61.322 0.478 7.87 5 9.23
5/28/2022 10:00:00 AM 16.27 61.286 0.478 7.87 4.98 9.23
5/28/2022 10:15:00 AM 16.28 61.304 0.478 7.88 4.84 9.24
5/28/2022 10:30:00 AM 16.27 61.286 0.478 7.87 4.87 9.26
5/28/2022 10:45:00 AM 16.28 61.304 0.477 7.87 4.95 9.28
5/28/2022 11:00:00 AM 16.31 61.358 0.477 7.89 4.75 9.31
5/28/2022 11:15:00 AM 16.34 61.412 0.476 7.9 4.65 9.35
5/28/2022 11:30:00 AM 16.33 61.394 0.476 7.9 12.87 9.34
5/28/2022 11:45:00 AM 16.34 61.412 0.475 7.9 4.66 9.34
5/28/2022 12:00:00 PM 16.42 61.556 0.475 7.91 4.71 9.38
5/28/2022 12:15:00 PM 16.6 61.88 0.474 7.94 4.48 9.44
5/28/2022 12:30:00 PM 16.83 62.294 0.474 7.96 4.49 9.45
5/28/2022 12:45:00 PM 16.93 62.474 0.473 7.97 4.33 9.46
5/28/2022 1:00:00 PM 17.11 62.798 0.472 7.97 4.33 9.47
5/28/2022 1:15:00 PM 17.18 62.924 0.472 7.98 4.33 9.47
5/28/2022 1:30:00 PM 17.35 63.23 0.471 7.98 4.61 9.47
5/28/2022 1:45:00 PM 17.4 63.32 0.47 7.99 4.53 9.46
5/28/2022 2:00:00 PM 17.51 63.518 0.47 7.99 4.16 9.44
5/28/2022 2:15:00 PM 17.68 63.824 0.469 8 4.15 9.44
5/28/2022 2:30:00 PM 17.68 63.824 0.469 8 95.17 9.44
5/28/2022 2:45:00 PM 17.89 64.202 0.468 8.01 4.84 9.45
5/28/2022 3:00:00 PM 17.91 64.238 0.468 8.01 4.25 9.41
5/28/2022 3:15:00 PM 18.27 64.886 0.467 8.01 4.32 9.44
5/28/2022 3:30:00 PM 18.45 65.21 0.466 8.03 4.31 9.4
5/28/2022 3:45:00 PM 18.39 65.102 0.466 8.02 4.2 9.33
5/28/2022 4:00:00 PM 18.7 65.66 0.465 8.03 4.17 9.33
5/28/2022 4:15:00 PM 18.79 65.82201 0.464 8.03 4.25 9.31
5/28/2022 4:30:00 PM 18.81 65.858 0.463 8.03 4.25 9.28
5/28/2022 4:45:00 PM 18.79 65.82201 0.463 8.03 3.97 9.23
5/28/2022 5:00:00 PM 18.79 65.82201 0.462 8.04 4.36 9.22
5/28/2022 5:15:00 PM 18.75 65.75 0.461 8.03 4.13 9.22
5/28/2022 5:30:00 PM 18.64 65.552 0.46 8.02 4.54 9.2
5/28/2022 5:45:00 PM 18.57 65.426 0.459 8.02 4.46 9.18
5/28/2022 6:00:00 PM 18.52 65.336 0.458 8.01 4.34 9.14
5/28/2022 6:15:00 PM 18.48 65.264 0.458 8.01 4.44 9.08
5/28/2022 6:30:00 PM 18.48 65.264 0.457 8 4.69 9.05
5/28/2022 6:45:00 PM 18.5 65.3 0.456 7.99 4.51 9
5/28/2022 7:00:00 PM 18.5 65.3 0.456 7.98 4.33 8.96
5/28/2022 7:15:00 PM 18.49 65.282 0.455 7.96 4.36 8.9
5/28/2022 7:30:00 PM 18.5 65.3 0.455 7.96 4.34 8.88
5/28/2022 7:45:00 PM 18.49 65.282 0.454 7.96 4.51 8.87
5/28/2022 8:00:00 PM 18.44 65.192 0.454 7.94 4.28 8.81
5/28/2022 8:15:00 PM 18.38 65.084 0.453 7.93 4.34 8.82
5/28/2022 8:30:00 PM 18.31 64.958 0.453 7.92 4.4 8.77
5/28/2022 8:45:00 PM 18.21 64.778 0.452 7.91 4.41 8.74
5/28/2022 9:00:00 PM 18.1 64.58 0.452 7.89 4.38 8.72
5/28/2022 9:15:00 PM 18 64.4 0.452 7.89 4.44 8.72
5/28/2022 9:30:00 PM 17.89 64.202 0.452 7.88 4.71 8.71
5/28/2022 9:45:00 PM 17.78 64.004 0.452 7.87 4.66 8.71
5/28/2022 10:00:00 PM 17.67 63.806 0.452 7.87 4.63 8.75
5/28/2022 10:15:00 PM 17.56 63.608 0.451 7.84 4.61 8.75
5/28/2022 10:30:00 PM 17.46 63.428 0.451 7.83 5.27 8.75
5/28/2022 10:45:00 PM 17.37 63.266 0.451 7.81 5.77 8.76
5/28/2022 11:00:00 PM 17.27 63.086 0.451 7.8 4.74 8.79
5/28/2022 11:15:00 PM 17.17 62.906 0.451 7.8 4.31 8.8
5/28/2022 11:30:00 PM 17.08 62.744 0.452 7.8 4.91 8.83
5/28/2022 11:45:00 PM 16.98 62.564 0.452 7.78 4.95 8.83
5/29/2022 12:00:00 AM 16.9 62.42 0.452 7.79 5.01 8.85
5/29/2022 12:15:00 AM 16.82 62.276 0.452 7.78 4.39 8.84
5/29/2022 12:30:00 AM 16.74 62.132 0.452 7.77 4.41 8.86
5/29/2022 12:45:00 AM 16.67 62.006 0.452 7.78 4.68 8.87
5/29/2022 1:00:00 AM 16.6 61.88 0.452 7.79 4.52 8.89
5/29/2022 1:15:00 AM 16.54 61.772 0.451 7.79 4.46 8.9
5/29/2022 1:30:00 AM 16.47 61.646 0.451 7.79 4.81 8.92
5/29/2022 1:45:00 AM 16.41 61.538 0.451 7.79 4.69 8.93
5/29/2022 2:00:00 AM 16.35 61.43 0.452 7.78 4.64 8.95
5/29/2022 2:15:00 AM 16.29 61.322 0.452 7.78 4.54 8.96
5/29/2022 2:30:00 AM 16.23 61.214 0.453 7.79 4.63 8.97
5/29/2022 2:45:00 AM 16.17 61.106 0.453 7.78 4.65 8.97
5/29/2022 3:00:00 AM 16.11 60.998 0.453 7.78 4.67 8.99
5/29/2022 3:15:00 AM 16.05 60.89 0.453 7.78 4.36 9
5/29/2022 3:30:00 AM 15.99 60.782 0.453 7.76 4.53 9
5/29/2022 3:45:00 AM 15.92 60.656 0.453 7.77 4.27 9.02
5/29/2022 4:00:00 AM 15.85 60.53 0.453 7.77 4.42 9.04
5/29/2022 4:15:00 AM 15.78 60.404 0.453 7.77 4.42 9.06
5/29/2022 4:30:00 AM 15.72 60.296 0.453 7.77 4.53 9.07
5/29/2022 4:45:00 AM 15.65 60.17 0.453 7.77 4.45 9.09
5/29/2022 5:00:00 AM 15.58 60.044 0.453 7.75 4.67 9.1
5/29/2022 5:15:00 AM 15.51 59.918 0.453 7.76 4.65 9.11
5/29/2022 5:30:00 AM 15.44 59.792 0.452 7.76 4.41 9.13
5/29/2022 5:45:00 AM 15.37 59.666 0.452 7.76 4.18 9.14
5/29/2022 6:00:00 AM 15.3 59.54 0.452 7.75 4.56 9.18
5/29/2022 6:15:00 AM 15.24 59.432 0.452 7.75 4.51 9.18
5/29/2022 6:30:00 AM 15.17 59.306 0.451 7.76 4.01 9.23
5/29/2022 6:45:00 AM 15.13 59.234 0.451 7.76 4.24 9.25
5/29/2022 7:00:00 AM 15.08 59.144 0.45 7.77 4.44 9.3
5/29/2022 7:15:00 AM 15.03 59.054 0.45 7.77 5.11 9.31
5/29/2022 7:30:00 AM 15 59 0.449 7.78 4.35 9.36
5/29/2022 7:45:00 AM 14.98 58.964 0.449 7.78 4.13 9.4
5/29/2022 8:00:00 AM 14.97 58.946 0.448 7.8 4.35 9.48
5/29/2022 8:15:00 AM 14.97 58.946 0.448 7.82 4.09 9.52
5/29/2022 8:30:00 AM 14.98 58.964 0.448 7.83 5.25 9.57
5/29/2022 8:45:00 AM 15.03 59.054 0.447 7.85 4.08 9.64
5/29/2022 9:00:00 AM 15.04 59.072 0.447 7.86 4.19 9.66
5/29/2022 9:15:00 AM 15.06 59.108 0.447 7.86 4.28 9.68
5/29/2022 9:30:00 AM 15.08 59.144 0.447 7.86 4.11 9.69
5/29/2022 9:45:00 AM 15.18 59.324 0.447 7.88 4 9.7
5/29/2022 10:00:00 AM 15.34 59.612 0.447 7.88 9.43 9.71
5/29/2022 10:15:00 AM 15.51 59.918 0.447 7.9 3.73 9.7
5/29/2022 10:30:00 AM 15.65 60.17 0.447 7.9 3.74 9.72
5/29/2022 10:45:00 AM 15.86 60.548 0.447 7.92 7.68 9.71
5/29/2022 11:00:00 AM 16.09 60.962 0.447 7.93 4.07 9.71
5/29/2022 11:15:00 AM 16.33 61.394 0.447 7.94 4.1 9.71
5/29/2022 11:30:00 AM 16.56 61.808 0.447 7.94 3.83 9.71
5/29/2022 11:45:00 AM 16.77 62.186 0.448 7.95 3.97 9.7
5/29/2022 12:00:00 PM 16.98 62.564 0.449 7.95 4.04 9.69
5/29/2022 12:15:00 PM 17.09 62.762 0.45 7.96 4.06 9.68
5/29/2022 12:30:00 PM 17.04 62.672 0.451 7.95 3.84 9.64
5/29/2022 12:45:00 PM 17.32 63.176 0.452 7.96 3.76 9.66
5/29/2022 1:00:00 PM 17.7 63.86 0.453 7.97 3.99 9.64
5/29/2022 1:15:00 PM 17.86 64.148 0.453 7.97 3.83 9.57
5/29/2022 1:30:00 PM 18.03 64.454 0.454 7.99 3.81 9.56
5/29/2022 1:45:00 PM 18.21 64.778 0.455 7.98 3.66 9.52
5/29/2022 2:00:00 PM 18.51 65.318 0.455 7.98 3.8 9.51
5/29/2022 2:15:00 PM 18.47 65.246 0.455 8 3.84 9.46
5/29/2022 2:30:00 PM 18.66 65.588 0.456 7.99 3.83 9.45
5/29/2022 2:45:00 PM 19.07 66.326 0.457 8 3.72 9.43
5/29/2022 3:00:00 PM 19.52 67.136 0.457 8.01 3.65 9.43
5/29/2022 3:15:00 PM 19.74 67.532 0.457 8.02 4.17 9.39
5/29/2022 3:30:00 PM 19.77 67.586 0.458 8.02 3.72 9.32
5/29/2022 3:45:00 PM 19.76 67.568 0.458 8.04 3.79 9.27
5/29/2022 4:00:00 PM 19.76 67.568 0.458 8.05 3.41 9.21
5/29/2022 4:15:00 PM 20.05 68.09 0.459 8.04 3.67 9.19
5/29/2022 4:30:00 PM 20.3 68.54 0.459 8.04 3.84 9.17
5/29/2022 4:45:00 PM 20.39 68.702 0.459 8.04 3.7 9.11
5/29/2022 5:00:00 PM 20.46 68.828 0.459 8.03 3.61 9.08
5/29/2022 5:15:00 PM 20.48 68.864 0.459 8.03 3.47 9.06
5/29/2022 5:30:00 PM 20.42 68.756 0.46 8.01 3.71 9.03
5/29/2022 5:45:00 PM 20.27 68.486 0.46 8.02 3.79 9
5/29/2022 6:00:00 PM 20.15 68.27 0.46 8.01 3.82 8.97
5/29/2022 6:15:00 PM 20.03 68.054 0.46 8 3.68 8.91
5/29/2022 6:30:00 PM 19.96 67.92799 0.46 7.99 3.7 8.86
5/29/2022 6:45:00 PM 19.88 67.784 0.46 7.97 3.9 8.84
5/29/2022 7:00:00 PM 19.81 67.658 0.46 7.97 3.79 8.8
5/29/2022 7:15:00 PM 19.74 67.532 0.46 7.96 4 8.76
5/29/2022 7:30:00 PM 19.66 67.388 0.46 7.95 3.68 8.73
5/29/2022 7:45:00 PM 19.56 67.208 0.461 7.93 3.44 8.69
5/29/2022 8:00:00 PM 19.47 67.046 0.461 7.91 3.43 8.64
5/29/2022 8:15:00 PM 19.38 66.884 0.461 7.9 4.02 8.6
5/29/2022 8:30:00 PM 19.3 66.74 0.461 7.89 3.72 8.57
5/29/2022 8:45:00 PM 19.21 66.578 0.461 7.88 3.72 8.56
5/29/2022 9:00:00 PM 19.12 66.416 0.461 7.88 4.02 8.55
5/29/2022 9:15:00 PM 19.03 66.254 0.461 7.87 4.05 8.55
5/29/2022 9:30:00 PM 18.93 66.074 0.461 7.86 4.04 8.55
5/29/2022 9:45:00 PM 18.84 65.912 0.461 7.86 3.69 8.54
5/29/2022 10:00:00 PM 18.74 65.732 0.461 7.85 4.03 8.54
5/29/2022 10:15:00 PM 18.65 65.57 0.461 7.84 4.36 8.55
5/29/2022 10:30:00 PM 18.55 65.39 0.461 7.84 4.17 8.57
5/29/2022 10:45:00 PM 18.46 65.228 0.461 7.83 4 8.58
5/29/2022 11:00:00 PM 18.37 65.066 0.462 7.83 3.81 8.6
5/29/2022 11:15:00 PM 18.28 64.904 0.462 7.82 4.11 8.6
5/29/2022 11:30:00 PM 18.19 64.742 0.462 7.83 3.82 8.63
5/29/2022 11:45:00 PM 18.1 64.58 0.462 7.82 4.26 8.62
5/30/2022 12:00:00 AM 18.01 64.418 0.462 7.81 3.98 8.63
5/30/2022 12:15:00 AM 17.93 64.274 0.462 7.8 4.29 8.65
5/30/2022 12:30:00 AM 17.84 64.112 0.462 7.78 4.01 8.67
5/30/2022 12:45:00 AM 17.76 63.968 0.462 7.77 4.38 8.66
5/30/2022 1:00:00 AM 17.68 63.824 0.463 7.77 4.04 8.69
5/30/2022 1:15:00 AM 17.59 63.662 0.463 7.77 4.23 8.71
5/30/2022 1:30:00 AM 17.5 63.5 0.463 7.76 4.35 8.73
5/30/2022 1:45:00 AM 17.42 63.356 0.463 7.77 4.63 8.74
5/30/2022 2:00:00 AM 17.34 63.212 0.463 7.76 4.13 8.76
5/30/2022 2:15:00 AM 17.26 63.068 0.464 7.77 4.62 8.79
5/30/2022 2:30:00 AM 17.18 62.924 0.464 7.76 3.93 8.78
5/30/2022 2:45:00 AM 17.1 62.78 0.464 7.75 4.25 8.8
5/30/2022 3:00:00 AM 17.03 62.654 0.464 7.76 4.02 8.82
5/30/2022 3:15:00 AM 16.94 62.492 0.464 7.76 3.99 8.85
5/30/2022 3:30:00 AM 16.87 62.366 0.464 7.75 4.28 8.85
5/30/2022 3:45:00 AM 16.79 62.222 0.465 7.75 4.42 8.86
5/30/2022 4:00:00 AM 16.72 62.096 0.465 7.75 4.3 8.88
5/30/2022 4:15:00 AM 16.66 61.988 0.465 7.75 4.11 8.89
5/30/2022 4:30:00 AM 16.6 61.88 0.465 7.74 3.91 8.92
5/30/2022 4:45:00 AM 16.54 61.772 0.466 7.76 4.13 8.93
5/30/2022 5:00:00 AM 16.48 61.664 0.466 7.75 4.02 8.93
5/30/2022 5:15:00 AM 16.43 61.574 0.466 7.75 4.18 8.96
5/30/2022 5:30:00 AM 16.38 61.484 0.466 7.76 4.59 8.98
5/30/2022 5:45:00 AM 16.32 61.376 0.466 7.74 4.22 8.97
5/30/2022 6:00:00 AM 16.27 61.286 0.466 7.75 4.28 8.99
5/30/2022 6:15:00 AM 16.2 61.16 0.467 7.76 4.01 9.02
5/30/2022 6:30:00 AM 16.14 61.052 0.467 7.75 4.11 9.04
5/30/2022 6:45:00 AM 16.09 60.962 0.467 7.75 3.91 9.08
5/30/2022 7:00:00 AM 16.05 60.89 0.468 7.76 4.2 9.12
5/30/2022 7:15:00 AM 16 60.8 0.468 7.77 4.2 9.17
5/30/2022 7:30:00 AM 15.99 60.782 0.468 7.77 3.72 9.22
5/30/2022 7:45:00 AM 15.96 60.728 0.468 7.78 3.91 9.26
5/30/2022 8:00:00 AM 15.94 60.692 0.469 7.78 4.04 9.28
5/30/2022 8:15:00 AM 15.91 60.638 0.469 7.79 4.27 9.31
5/30/2022 8:30:00 AM 15.91 60.638 0.469 7.8 4.41 9.34
5/30/2022 8:45:00 AM 15.93 60.674 0.469 7.81 4.19 9.37
5/30/2022 9:00:00 AM 15.97 60.746 0.469 7.83 3.89 9.39
5/30/2022 9:15:00 AM 16.03 60.854 0.47 7.83 3.8 9.4
5/30/2022 9:30:00 AM 16.13 61.034 0.47 7.84 3.71 9.39
5/30/2022 9:45:00 AM 16.26 61.268 0.47 7.86 3.81 9.44
5/30/2022 10:00:00 AM 16.42 61.556 0.47 7.88 3.86 9.48
5/30/2022 10:15:00 AM 16.61 61.898 0.469 7.88 3.7 9.48
5/30/2022 10:30:00 AM 16.8 62.24 0.47 7.89 3.73 9.47
5/30/2022 10:45:00 AM 17.03 62.654 0.47 7.9 3.87 9.49
5/30/2022 11:00:00 AM 17.29 63.122 0.47 7.91 3.61 9.48
5/30/2022 11:15:00 AM 17.56 63.608 0.47 7.93 3.91 9.48
5/30/2022 11:30:00 AM 17.84 64.112 0.47 7.95 3.9 9.48
5/30/2022 11:45:00 AM 18.09 64.562 0.469 7.96 3.95 9.47
5/30/2022 12:00:00 PM 18.33 64.994 0.469 7.96 3.73 9.46
5/30/2022 12:15:00 PM 18.57 65.426 0.469 7.97 3.76 9.44
5/30/2022 12:30:00 PM 18.8 65.84 0.47 7.97 3.69 9.4
5/30/2022 12:45:00 PM 19.08 66.344 0.471 7.98 3.78 9.4
5/30/2022 1:00:00 PM 19.33 66.794 0.471 7.98 3.75 9.36
5/30/2022 1:15:00 PM 19.6 67.28 0.472 7.99 3.59 9.35
5/30/2022 1:30:00 PM 19.85 67.73 0.472 7.99 3.77 9.32
5/30/2022 1:45:00 PM 20.1 68.18 0.473 8 3.67 9.28
5/30/2022 2:00:00 PM 20.36 68.648 0.473 8 3.71 9.26
5/30/2022 2:15:00 PM 20.62 69.116 0.474 7.99 3.53 9.22
5/30/2022 2:30:00 PM 20.87 69.566 0.474 8 3.29 9.21
5/30/2022 2:45:00 PM 21.12 70.016 0.474 8.01 3.53 9.16
5/30/2022 3:00:00 PM 21.36 70.448 0.474 8.01 3.4 9.12
5/30/2022 3:15:00 PM 21.57 70.826 0.475 8.01 3.71 9.09
5/30/2022 3:30:00 PM 21.77 71.186 0.475 8.02 3.76 9.05
5/30/2022 3:45:00 PM 21.93 71.474 0.475 8.02 3.41 9
5/30/2022 4:00:00 PM 22.08 71.744 0.476 8.02 3.46 8.97
5/30/2022 4:15:00 PM 22.21 71.978 0.476 8.02 3.46 8.92
5/30/2022 4:30:00 PM 22.32 72.176 0.476 8.03 3.37 8.88
5/30/2022 4:45:00 PM 22.39 72.302 0.476 8.02 3.47 8.82
5/30/2022 5:00:00 PM 22.43 72.374 0.476 8.03 3.52 8.78
5/30/2022 5:15:00 PM 22.44 72.392 0.477 8.03 3.56 8.73
5/30/2022 5:30:00 PM 22.41 72.338 0.477 8.03 3.81 8.68
5/30/2022 5:45:00 PM 22.36 72.248 0.477 8.02 3.63 8.63
5/30/2022 6:00:00 PM 22.27 72.086 0.477 8.02 3.89 8.58
5/30/2022 6:15:00 PM 22.17 71.906 0.478 8 3.82 8.54
5/30/2022 6:30:00 PM 22.09 71.762 0.478 7.99 3.82 8.5
5/30/2022 6:45:00 PM 21.99 71.582 0.478 7.98 3.65 8.46
5/30/2022 7:00:00 PM 21.87 71.366 0.478 7.96 3.83 8.41
5/30/2022 7:15:00 PM 21.74 71.132 0.478 7.95 3.65 8.37
5/30/2022 7:30:00 PM 21.62 70.916 0.478 7.93 3.71 8.34
5/30/2022 7:45:00 PM 21.5 70.7 0.478 7.92 3.93 8.3
5/30/2022 8:00:00 PM 21.4 70.52 0.479 7.9 3.79 8.27
5/30/2022 8:15:00 PM 21.32 70.376 0.479 7.87 3.82 8.22
5/30/2022 8:30:00 PM 21.24 70.232 0.479 7.87 3.61 8.18
5/30/2022 8:45:00 PM 21.18 70.124 0.479 7.85 3.88 8.16
5/30/2022 9:00:00 PM 21.11 69.998 0.479 7.85 3.78 8.15
5/30/2022 9:15:00 PM 21.05 69.89 0.479 7.85 3.7 8.15
5/30/2022 9:30:00 PM 20.98 69.764 0.479 7.84 4.2 8.13
5/30/2022 9:45:00 PM 20.92 69.656 0.48 7.84 3.81 8.12
5/30/2022 10:00:00 PM 20.85 69.53 0.48 7.83 4.05 8.14
5/30/2022 10:15:00 PM 20.77 69.386 0.48 7.83 4.12 8.14
5/30/2022 10:30:00 PM 20.69 69.242 0.48 7.82 4.13 8.14
5/30/2022 10:45:00 PM 20.6 69.08 0.48 7.82 4.21 8.14
5/30/2022 11:00:00 PM 20.51 68.918 0.48 7.82 4.06 8.16
5/30/2022 11:15:00 PM 20.41 68.738 0.48 7.82 4.01 8.2
5/30/2022 11:30:00 PM 20.31 68.558 0.48 7.81 4.08 8.21
5/30/2022 11:45:00 PM 20.21 68.378 0.48 7.81 3.99 8.21
5/31/2022 12:00:00 AM 20.1 68.18 0.48 7.8 3.93 8.22
5/31/2022 12:15:00 AM 19.99 67.982 0.48 7.8 4.16 8.25
5/31/2022 12:30:00 AM 19.88 67.784 0.48 7.8 4.37 8.29
5/31/2022 12:45:00 AM 19.78 67.604 0.48 7.79 4.05 8.28
5/31/2022 1:00:00 AM 19.68 67.424 0.48 7.79 4.65 8.29
5/31/2022 1:15:00 AM 19.57 67.226 0.48 7.79 4.08 8.31
5/31/2022 1:30:00 AM 19.47 67.046 0.48 7.78 4.23 8.32
5/31/2022 1:45:00 AM 19.37 66.866 0.481 7.77 4.24 8.34
5/31/2022 2:00:00 AM 19.27 66.686 0.481 7.76 4.8 8.37
5/31/2022 2:15:00 AM 19.17 66.506 0.481 7.76 4.27 8.39
5/31/2022 2:30:00 AM 19.08 66.344 0.481 7.75 4.26 8.39
5/31/2022 2:45:00 AM 18.99 66.182 0.482 7.75 4.68 8.43
5/31/2022 3:00:00 AM 18.91 66.038 0.482 7.75 4.33 8.44
5/31/2022 3:15:00 AM 18.83 65.894 0.482 7.74 4.49 8.43
5/31/2022 3:30:00 AM 18.75 65.75 0.482 7.75 4.16 8.45
5/31/2022 3:45:00 AM 18.67 65.606 0.482 7.74 4.2 8.47
5/31/2022 4:00:00 AM 18.61 65.498 0.482 7.75 3.57 8.51
5/31/2022 4:15:00 AM 18.54 65.372 0.482 7.74 4.27 8.51
5/31/2022 4:30:00 AM 18.47 65.246 0.482 7.74 4.48 8.52
5/31/2022 4:45:00 AM 18.4 65.12 0.481 7.74 4.63 8.53
5/31/2022 5:00:00 AM 18.33 64.994 0.481 7.74 4.45 8.53
5/31/2022 5:15:00 AM 18.26 64.868 0.481 7.74 4.25 8.55
5/31/2022 5:30:00 AM 18.19 64.742 0.482 7.75 4.11 8.58
5/31/2022 5:45:00 AM 18.12 64.616 0.482 7.74 4.19 8.58
5/31/2022 6:00:00 AM 18.05 64.49 0.482 7.74 4.6 8.59
5/31/2022 6:15:00 AM 17.99 64.382 0.483 7.75 4.28 8.62
5/31/2022 6:30:00 AM 17.92 64.256 0.483 7.74 4.03 8.66
5/31/2022 6:45:00 AM 17.87 64.166 0.484 7.75 4.23 8.7
5/31/2022 7:00:00 AM 17.81 64.058 0.484 7.75 4.08 8.73
5/31/2022 7:15:00 AM 17.77 63.986 0.484 7.77 4.27 8.77
5/31/2022 7:30:00 AM 17.76 63.968 0.484 7.75 4.07 8.79
5/31/2022 7:45:00 AM 17.73 63.914 0.485 7.78 4.01 8.86
5/31/2022 8:00:00 AM 17.71 63.878 0.485 7.78 3.66 8.88
5/31/2022 8:15:00 AM 17.68 63.824 0.486 7.79 4.13 8.94
5/31/2022 8:30:00 AM 17.68 63.824 0.486 7.79 7.28 8.94
5/31/2022 8:45:00 AM 17.7 63.86 0.486 7.8 17.73 8.98
5/31/2022 9:00:00 AM 17.74 63.932 0.486 7.81 3.96 9
5/31/2022 9:15:00 AM 17.8 64.04 0.487 7.82 4.1 9.02
5/31/2022 9:30:00 AM 17.9 64.22 0.487 7.83 3.92 9.04
5/31/2022 9:45:00 AM 18.02 64.436 0.487 7.86 3.79 9.08
5/31/2022 10:00:00 AM 18.17 64.706 0.488 7.86 3.98 9.11
5/31/2022 10:15:00 AM 18.37 65.066 0.488 7.89 3.74 9.13
5/31/2022 10:30:00 AM 18.58 65.444 0.488 7.91 3.71 9.15
5/31/2022 10:45:00 AM 18.79 65.82201 0.488 7.92 3.57 9.15
5/31/2022 11:00:00 AM 19.06 66.308 0.487 7.93 3.67 9.16
5/31/2022 11:15:00 AM 19.34 66.812 0.487 7.95 3.65 9.18
5/31/2022 11:30:00 AM 19.62 67.316 0.487 7.97 3.79 9.19
5/31/2022 11:45:00 AM 19.82 67.676 0.487 7.96 3.56 9.17
5/31/2022 12:00:00 PM 20.08 68.144 0.486 7.97 3.45 9.16
5/31/2022 12:15:00 PM 20.39 68.702 0.487 7.99 3.45 9.17
5/31/2022 12:30:00 PM 20.43 68.774 0.487 7.98 3.48 9.14
5/31/2022 12:45:00 PM 20.69 69.242 0.487 7.99 3.46 9.11
5/31/2022 1:00:00 PM 20.95 69.71 0.488 8 3.44 9.12
5/31/2022 1:15:00 PM 20.87 69.566 0.488 7.99 3.14 9.07
5/31/2022 1:30:00 PM 21.3 70.34 0.489 8.01 3.38 9.05
5/31/2022 1:45:00 PM 21.4 70.52 0.489 8.02 3.21 9.05
5/31/2022 2:00:00 PM 21.28 70.304 0.49 8.01 3.4 8.97
5/31/2022 2:15:00 PM 21.48 70.664 0.49 8.01 3.22 8.97
5/31/2022 2:30:00 PM 21.37 70.466 0.49 8 3.34 8.92
5/31/2022 2:45:00 PM 21.37 70.466 0.491 8.01 6.09 8.91
5/31/2022 3:00:00 PM 21.69 71.042 0.491 8.01 3.61 8.92
5/31/2022 3:15:00 PM 22.02 71.636 0.491 8.03 3.34 8.95
5/31/2022 3:30:00 PM 22.28 72.104 0.491 8.03 3.22 8.95
5/31/2022 3:45:00 PM 22.47 72.446 0.492 8.05 3.33 8.92
5/31/2022 4:00:00 PM 22.67 72.806 0.492 8.05 3.77 8.89
5/31/2022 4:15:00 PM 22.86 73.148 0.492 8.05 3.34 8.83
5/31/2022 4:30:00 PM 22.99 73.382 0.492 8.06 3.4 8.79
5/31/2022 4:45:00 PM 23.11 73.598 0.493 8.06 3.38 8.73
5/31/2022 5:00:00 PM 23.18 73.724 0.493 8.04 3.37 8.67
5/31/2022 5:15:00 PM 23.21 73.778 0.493 8.06 11.52 8.62
5/31/2022 5:30:00 PM 23.23 73.814 0.493 8.06 3.19 8.57
5/31/2022 5:45:00 PM 23.22 73.796 0.493 8.05 3.23 8.52
5/31/2022 6:00:00 PM 23.13 73.634 0.493 8.05 3.04 8.45
5/31/2022 6:15:00 PM 23.05 73.49 0.493 8.04 3.46 8.4
5/31/2022 6:30:00 PM 22.95 73.31 0.494 8.02 3.4 8.35
5/31/2022 6:45:00 PM 22.89 73.202 0.494 8.02 3.68 8.34
5/31/2022 7:00:00 PM 22.79 73.022 0.494 8 3.38 8.28
5/31/2022 7:15:00 PM 22.68 72.824 0.494 7.99 3.65 8.25
5/31/2022 7:30:00 PM 22.56 72.608 0.494 7.97 3.18 8.19
5/31/2022 7:45:00 PM 22.46 72.42799 0.495 7.95 3.42 8.15
5/31/2022 8:00:00 PM 22.36 72.248 0.495 7.94 3.41 8.1
5/31/2022 8:15:00 PM 22.27 72.086 0.495 7.93 3.31 8.08
5/31/2022 8:30:00 PM 22.19 71.942 0.495 7.91 3.32 8.02
5/31/2022 8:45:00 PM 22.12 71.816 0.495 7.9 3.41 8.01
5/31/2022 9:00:00 PM 22.04 71.672 0.495 7.88 3.4 7.97
5/31/2022 9:15:00 PM 21.97 71.546 0.495 7.87 3.48 7.95
5/31/2022 9:30:00 PM 21.89 71.402 0.495 7.86 3.46 7.93
5/31/2022 9:45:00 PM 21.82 71.276 0.495 7.86 3.43 7.93
5/31/2022 10:00:00 PM 21.74 71.132 0.495 7.86 3.79 7.92
5/31/2022 10:15:00 PM 21.66 70.988 0.495 7.85 3.97 7.95
5/31/2022 10:30:00 PM 21.57 70.826 0.496 7.85 3.85 7.96
5/31/2022 10:45:00 PM 21.49 70.682 0.496 7.84 3.78 7.96
5/31/2022 11:00:00 PM 21.4 70.52 0.496 7.84 4.42 7.99
5/31/2022 11:15:00 PM 21.3 70.34 0.496 7.83 3.84 7.99
5/31/2022 11:30:00 PM 21.21 70.17799 0.496 7.83 3.97 7.99
5/31/2022 11:45:00 PM 21.11 69.998 0.496 7.83 4.37 8.02
6/1/2022 12:00:00 AM 21.01 69.818 0.496 7.82 3.67 8.03
6/1/2022 12:15:00 AM 20.9 69.62 0.496 7.82 3.87 8.06
6/1/2022 12:30:00 AM 20.81 69.458 0.496 7.81 3.85 8.07
6/1/2022 12:45:00 AM 20.7 69.26 0.496 7.81 3.75 8.07
6/1/2022 1:00:00 AM 20.6 69.08 0.496 7.79 3.83 8.09
6/1/2022 1:15:00 AM 20.49 68.882 0.496 7.77 3.88 8.11
6/1/2022 1:30:00 AM 20.37 68.666 0.496 7.77 4.05 8.13
6/1/2022 1:45:00 AM 20.27 68.486 0.496 7.77 4.29 8.16
6/1/2022 2:00:00 AM 20.18 68.324 0.496 7.77 3.95 8.19
6/1/2022 2:15:00 AM 20.08 68.144 0.496 7.76 3.99 8.2
6/1/2022 2:30:00 AM 19.99 67.982 0.496 7.76 3.83 8.21
6/1/2022 2:45:00 AM 19.91 67.838 0.497 7.75 3.82 8.23
6/1/2022 3:00:00 AM 19.83 67.694 0.497 7.76 3.88 8.25
6/1/2022 3:15:00 AM 19.75 67.55 0.497 7.76 3.77 8.26
6/1/2022 3:30:00 AM 19.67 67.406 0.497 7.76 4.06 8.28
6/1/2022 3:45:00 AM 19.59 67.262 0.497 7.77 3.92 8.3
6/1/2022 4:00:00 AM 19.53 67.154 0.497 7.77 4.3 8.3
6/1/2022 4:15:00 AM 19.46 67.028 0.498 7.77 4.96 8.32
6/1/2022 4:30:00 AM 19.39 66.902 0.498 7.77 4.59 8.32
6/1/2022 4:45:00 AM 19.32 66.776 0.498 7.76 4.22 8.33
6/1/2022 5:00:00 AM 19.26 66.668 0.498 7.77 4.26 8.35
6/1/2022 5:15:00 AM 19.18 66.524 0.499 7.77 4.26 8.37
6/1/2022 5:30:00 AM 19.12 66.416 0.499 7.75 4.2 8.36
6/1/2022 5:45:00 AM 19.04 66.272 0.499 7.76 3.83 8.37
6/1/2022 6:00:00 AM 18.97 66.146 0.499 7.76 4.33 8.41
6/1/2022 6:15:00 AM 18.91 66.038 0.5 7.77 4.08 8.44
6/1/2022 6:30:00 AM 18.85 65.93 0.5 7.77 4.85 8.47
6/1/2022 6:45:00 AM 18.81 65.858 0.5 7.77 3.95 8.48
6/1/2022 7:00:00 AM 18.77 65.786 0.5 7.78 3.84 8.52
6/1/2022 7:15:00 AM 18.74 65.732 0.5 7.77 3.8 8.54
6/1/2022 7:30:00 AM 18.74 65.732 0.5 7.8 3.83 8.62
6/1/2022 7:45:00 AM 18.72 65.696 0.5 7.8 3.74 8.66
6/1/2022 8:00:00 AM 18.72 65.696 0.5 7.8 3.74 8.67
6/1/2022 8:15:00 AM 18.71 65.67799 0.5 7.81 3.4 8.72
6/1/2022 8:30:00 AM 18.73 65.714 0.5 7.81 3.69 8.74
6/1/2022 8:45:00 AM 18.77 65.786 0.5 7.84 3.72 8.79
6/1/2022 9:00:00 AM 18.82 65.876 0.5 7.84 3.53 8.81
6/1/2022 9:15:00 AM 18.89 66.002 0.5 7.86 3.79 8.87
6/1/2022 9:30:00 AM 18.99 66.182 0.5 7.88 3.71 8.89
6/1/2022 9:45:00 AM 19.11 66.398 0.5 7.89 3.76 8.91
6/1/2022 10:00:00 AM 19.28 66.704 0.5 7.92 3.47 8.95
6/1/2022 10:15:00 AM 19.48 67.064 0.501 7.94 3.77 8.95
6/1/2022 10:30:00 AM 19.66 67.388 0.501 7.95 3.65 9.01
6/1/2022 10:45:00 AM 19.87 67.766 0.502 7.96 3.39 9.02
6/1/2022 11:00:00 AM 20.08 68.144 0.502 7.97 3.2 9.03
6/1/2022 11:15:00 AM 20.25 68.45 0.503 7.98 3.31 9.03
6/1/2022 11:30:00 AM 20.39 68.702 0.504 8 3.36 9.03
6/1/2022 11:45:00 AM 20.41 68.738 0.504 8.01 3.33 9
6/1/2022 12:00:00 PM 20.69 69.242 0.504 8.01 3.3 9.03
6/1/2022 12:15:00 PM 20.68 69.224 0.505 8.01 3.17 9.01
6/1/2022 12:30:00 PM 20.82 69.476 0.505 8.02 3.5 9.01
6/1/2022 12:45:00 PM 21.09 69.962 0.506 8.02 3.32 9
6/1/2022 1:00:00 PM 21.23 70.214 0.506 8.03 3.24 8.97
6/1/2022 1:15:00 PM 21.37 70.466 0.506 8.03 3.25 8.97
6/1/2022 1:30:00 PM 21.67 71.006 0.506 8.04 3.24 8.96
6/1/2022 1:45:00 PM 21.69 71.042 0.506 8.04 3.24 8.93
6/1/2022 2:00:00 PM 22.03 71.654 0.507 8.05 3.25 8.92
6/1/2022 2:15:00 PM 22.32 72.176 0.507 8.05 3.16 8.91
6/1/2022 2:30:00 PM 22.53 72.554 0.507 8.05 3.05 8.88
6/1/2022 2:45:00 PM 22.58 72.644 0.507 8.06 3.09 8.87
6/1/2022 3:00:00 PM 22.63 72.734 0.507 8.07 3.33 8.86
6/1/2022 3:15:00 PM 22.83 73.094 0.507 8.07 3.08 8.86
6/1/2022 3:30:00 PM 23.04 73.472 0.507 8.08 19.93 8.83
6/1/2022 3:45:00 PM 23.04 73.472 0.507 8.08 3.44 8.77
6/1/2022 4:00:00 PM 23.2 73.76 0.508 8.08 2.95 8.72
6/1/2022 4:15:00 PM 23.28 73.904 0.507 8.09 3.18 8.72
6/1/2022 4:30:00 PM 23.23 73.814 0.507 8.08 3.26 8.64
6/1/2022 4:45:00 PM 23.31 73.958 0.508 8.08 3.38 8.57
6/1/2022 5:00:00 PM 23.42 74.156 0.508 8.08 3.27 8.56
6/1/2022 5:15:00 PM 23.35 74.03 0.508 8.09 3.17 8.51
6/1/2022 5:30:00 PM 23.35 74.03 0.508 8.08 3.07 8.45
6/1/2022 5:45:00 PM 23.41 74.138 0.508 8.07 3.13 8.43
6/1/2022 6:00:00 PM 23.31 73.958 0.508 8.07 3.37 8.4
6/1/2022 6:15:00 PM 23.26 73.868 0.508 8.06 3.2 8.34
6/1/2022 6:30:00 PM 23.19 73.742 0.508 8.05 3.36 8.28
6/1/2022 6:45:00 PM 23.1 73.58 0.508 8.04 3.43 8.2
6/1/2022 7:00:00 PM 23.01 73.418 0.508 8.02 3.39 8.14
6/1/2022 7:15:00 PM 22.93 73.274 0.508 8 3.9 8.06
6/1/2022 7:30:00 PM 22.84 73.112 0.509 7.98 3.24 8
6/1/2022 7:45:00 PM 22.77 72.986 0.509 7.96 3.28 7.97
6/1/2022 8:00:00 PM 22.68 72.824 0.509 7.96 3.29 7.97
6/1/2022 8:15:00 PM 22.6 72.68 0.509 7.95 3.13 7.94
6/1/2022 8:30:00 PM 22.51 72.518 0.509 7.92 3.28 7.89
6/1/2022 8:45:00 PM 22.45 72.41 0.509 7.92 3.26 7.85
6/1/2022 9:00:00 PM 22.38 72.284 0.509 7.91 3.25 7.86
6/1/2022 9:15:00 PM 22.31 72.158 0.509 7.9 3.58 7.84
6/1/2022 9:30:00 PM 22.25 72.05 0.509 7.89 5.03 7.84
6/1/2022 9:45:00 PM 22.19 71.942 0.509 7.88 4.28 7.8
6/1/2022 10:00:00 PM 22.1 71.78 0.507 7.88 3.89 7.85
6/1/2022 10:15:00 PM 22 71.6 0.506 7.88 4.05 7.84
6/1/2022 10:30:00 PM 21.92 71.456 0.506 7.87 3.78 7.85
6/1/2022 10:45:00 PM 21.84 71.312 0.505 7.87 4.06 7.84
6/1/2022 11:00:00 PM 21.76 71.168 0.505 7.86 3.97 7.84
6/1/2022 11:15:00 PM 21.68 71.024 0.506 7.86 3.98 7.82
6/1/2022 11:30:00 PM 21.59 70.862 0.506 7.85 3.71 7.84
6/1/2022 11:45:00 PM 21.51 70.718 0.506 7.85 4.05 7.85
6/2/2022 12:00:00 AM 21.42 70.556 0.506 7.84 4.12 7.86
6/2/2022 12:15:00 AM 21.34 70.412 0.506 7.84 4.14 7.9
6/2/2022 12:30:00 AM 21.27 70.286 0.506 7.83 3.98 7.86
6/2/2022 12:45:00 AM 21.2 70.16 0.506 7.82 3.65 7.91
6/2/2022 1:00:00 AM 21.12 70.016 0.506 7.82 3.98 7.95
6/2/2022 1:15:00 AM 21.05 69.89 0.506 7.82 4.02 7.96
6/2/2022 1:30:00 AM 20.98 69.764 0.506 7.8 4.09 7.97
6/2/2022 1:45:00 AM 20.91 69.638 0.506 7.81 4.04 7.96
6/2/2022 2:00:00 AM 20.84 69.512 0.506 7.8 4.19 7.99
6/2/2022 2:15:00 AM 20.76 69.368 0.506 7.8 4.01 8.01
6/2/2022 2:30:00 AM 20.69 69.242 0.505 7.8 4.17 8
6/2/2022 2:45:00 AM 20.64 69.152 0.505 7.79 3.97 8
6/2/2022 3:00:00 AM 20.57 69.026 0.505 7.81 4.1 8.03
6/2/2022 3:15:00 AM 20.51 68.918 0.505 7.79 4.52 8.04
6/2/2022 3:30:00 AM 20.45 68.81 0.505 7.8 5.21 8.06
6/2/2022 3:45:00 AM 20.39 68.702 0.506 7.81 4.68 8.07
6/2/2022 4:00:00 AM 20.33 68.594 0.506 7.8 4.51 8.08
6/2/2022 4:15:00 AM 20.29 68.522 0.506 7.81 4.18 8.1
6/2/2022 4:30:00 AM 20.25 68.45 0.507 7.81 4.42 8.07
6/2/2022 4:45:00 AM 20.2 68.36 0.507 7.81 4.29 8.11
6/2/2022 5:00:00 AM 20.15 68.27 0.507 7.79 5.54 8.11
6/2/2022 5:15:00 AM 20.11 68.198 0.508 7.81 4.21 8.15
6/2/2022 5:30:00 AM 20.07 68.126 0.508 7.8 4.36 8.13
6/2/2022 5:45:00 AM 20.03 68.054 0.508 7.81 4.15 8.15
6/2/2022 6:00:00 AM 19.99 67.982 0.508 7.8 4.38 8.16
6/2/2022 6:15:00 AM 19.96 67.92799 0.509 7.81 4.21 8.18
6/2/2022 6:30:00 AM 19.93 67.874 0.509 7.8 4.06 8.18
6/2/2022 6:45:00 AM 19.9 67.82 0.509 7.81 4.15 8.22
6/2/2022 7:00:00 AM 19.87 67.766 0.509 7.81 4.09 8.26
6/2/2022 7:15:00 AM 19.85 67.73 0.509 7.81 4.08 8.26
6/2/2022 7:30:00 AM 19.82 67.676 0.509 7.81 4.25 8.29
6/2/2022 7:45:00 AM 19.79 67.622 0.509 7.81 4.28 8.3
6/2/2022 8:00:00 AM 19.77 67.586 0.509 7.82 3.86 8.32
6/2/2022 8:15:00 AM 19.75 67.55 0.509 7.82 4.02 8.34
6/2/2022 8:30:00 AM 19.73 67.514 0.509 7.82 3.94 8.34
6/2/2022 8:45:00 AM 19.71 67.478 0.509 7.83 3.89 8.37
6/2/2022 9:00:00 AM 19.71 67.478 0.509 7.83 3.75 8.43
6/2/2022 9:15:00 AM 19.71 67.478 0.51 7.85 3.93 8.46
6/2/2022 9:30:00 AM 19.7 67.46 0.51 7.85 3.88 8.52
6/2/2022 9:45:00 AM 19.68 67.424 0.51 7.86 3.86 8.52
6/2/2022 10:00:00 AM 19.66 67.388 0.51 7.87 3.96 8.54
6/2/2022 10:15:00 AM 19.68 67.424 0.51 7.88 3.95 8.59
6/2/2022 10:30:00 AM 19.76 67.568 0.51 7.89 3.62 8.65
6/2/2022 10:45:00 AM 19.88 67.784 0.51 7.93 3.96 8.78
6/2/2022 11:00:00 AM 19.91 67.838 0.51 7.95 3.96 8.84
6/2/2022 11:15:00 AM 19.91 67.838 0.51 7.94 3.46 8.8
6/2/2022 11:30:00 AM 19.93 67.874 0.51 7.92 3.25 8.79
6/2/2022 11:45:00 AM 19.99 67.982 0.51 7.93 3.43 8.8
6/2/2022 12:00:00 PM 20.07 68.126 0.51 7.96 3.84 8.87
6/2/2022 12:15:00 PM 20.09 68.162 0.51 7.95 3.76 8.85
6/2/2022 12:30:00 PM 20.12 68.216 0.51 7.98 3.8 8.88
6/2/2022 12:45:00 PM 20.21 68.378 0.51 7.99 3.96 8.94
6/2/2022 1:00:00 PM 20.23 68.414 0.51 7.99 3.67 8.94
6/2/2022 1:15:00 PM 20.23 68.414 0.51 8.01 3.99 8.94
6/2/2022 1:30:00 PM 20.23 68.414 0.51 8.01 3.56 8.92
6/2/2022 1:45:00 PM 20.26 68.468 0.509 8.01 4.04 8.94
6/2/2022 2:00:00 PM 20.3 68.54 0.509 8.03 3.85 8.96
6/2/2022 2:15:00 PM 20.41 68.738 0.509 8.03 3.68 8.98
6/2/2022 2:30:00 PM 20.48 68.864 0.508 8.04 3.72 8.97
6/2/2022 2:45:00 PM 20.61 69.098 0.508 8.05 3.57 9.01
6/2/2022 3:00:00 PM 20.63 69.134 0.508 8.06 3.67 8.95
6/2/2022 3:15:00 PM 20.61 69.098 0.509 8.05 3.74 8.92
6/2/2022 3:30:00 PM 20.65 69.17 0.509 8.05 12.75 8.92
6/2/2022 3:45:00 PM 20.78 69.404 0.509 8.05 8.01 8.91
6/2/2022 4:00:00 PM 20.91 69.638 0.509 8.07 3.45 8.96
6/2/2022 4:15:00 PM 20.91 69.638 0.51 8.07 3.45 8.94
6/2/2022 4:30:00 PM 20.93 69.674 0.51 8.07 3.5 8.93
6/2/2022 4:45:00 PM 21.11 69.998 0.51 8.07 3.3 8.92
6/2/2022 5:00:00 PM 21.02 69.836 0.51 8.08 4.02 8.86
6/2/2022 5:15:00 PM 20.98 69.764 0.51 8.08 3.37 8.77
6/2/2022 5:30:00 PM 20.91 69.638 0.511 8.06 4.15 8.68
6/2/2022 5:45:00 PM 20.86 69.548 0.511 8.04 3.86 8.62
6/2/2022 6:00:00 PM 20.82 69.476 0.511 8.04 3.66 8.59
6/2/2022 6:15:00 PM 20.79 69.422 0.511 8.04 3.21 8.57
6/2/2022 6:30:00 PM 20.76 69.368 0.511 8.04 3.52 8.57
6/2/2022 6:45:00 PM 20.71 69.278 0.511 8.03 4.86 8.52
6/2/2022 7:00:00 PM 20.66 69.188 0.511 8.01 5.35 8.46
6/2/2022 7:15:00 PM 20.62 69.116 0.511 8.01 3.56 8.44
6/2/2022 7:30:00 PM 20.57 69.026 0.511 8 4.33 8.38
6/2/2022 7:45:00 PM 20.53 68.954 0.511 7.99 3.75 8.35
6/2/2022 8:00:00 PM 20.49 68.882 0.511 7.98 3.67 8.32
6/2/2022 8:15:00 PM 20.44 68.792 0.511 7.96 3.26 8.28
6/2/2022 8:30:00 PM 20.39 68.702 0.511 7.96 3.67 8.24
6/2/2022 8:45:00 PM 20.35 68.63 0.511 7.93 3.16 8.22
6/2/2022 9:00:00 PM 20.3 68.54 0.511 7.92 3.34 8.2
6/2/2022 9:15:00 PM 20.23 68.414 0.51 7.92 3.77 8.21
6/2/2022 9:30:00 PM 20.15 68.27 0.51 7.91 3.65 8.22
6/2/2022 9:45:00 PM 20.09 68.162 0.51 7.91 3.67 8.19
6/2/2022 10:00:00 PM 20.01 68.018 0.51 7.9 4.53 8.2
6/2/2022 10:15:00 PM 19.92 67.856 0.509 7.89 3.97 8.2
6/2/2022 10:30:00 PM 19.83 67.694 0.509 7.89 3.89 8.22
6/2/2022 10:45:00 PM 19.76 67.568 0.509 7.88 3.8 8.22
6/2/2022 11:00:00 PM 19.69 67.442 0.509 7.88 3.81 8.23
6/2/2022 11:15:00 PM 19.62 67.316 0.51 7.88 3.95 8.26
6/2/2022 11:30:00 PM 19.56 67.208 0.51 7.88 3.76 8.23
6/2/2022 11:45:00 PM 19.5 67.1 0.51 7.87 4.23 8.25
6/3/2022 12:00:00 AM 19.44 66.992 0.51 7.88 3.97 8.25
6/3/2022 12:15:00 AM 19.38 66.884 0.51 7.87 3.82 8.26
6/3/2022 12:30:00 AM 19.32 66.776 0.51 7.87 4.11 8.27
6/3/2022 12:45:00 AM 19.26 66.668 0.51 7.86 3.88 8.26
6/3/2022 1:00:00 AM 19.19 66.542 0.51 7.87 3.8 8.3
6/3/2022 1:15:00 AM 19.13 66.434 0.51 7.86 3.85 8.3
6/3/2022 1:30:00 AM 19.07 66.326 0.51 7.84 3.64 8.27
6/3/2022 1:45:00 AM 18.99 66.182 0.51 7.86 4.19 8.34
6/3/2022 2:00:00 AM 18.91 66.038 0.51 7.86 4.1 8.36
6/3/2022 2:15:00 AM 18.81 65.858 0.511 7.86 3.97 8.36
6/3/2022 2:30:00 AM 18.72 65.696 0.511 7.85 3.66 8.37
6/3/2022 2:45:00 AM 18.62 65.516 0.511 7.84 3.74 8.4
6/3/2022 3:00:00 AM 18.51 65.318 0.511 7.85 3.75 8.43
6/3/2022 3:15:00 AM 18.41 65.138 0.511 7.84 3.95 8.44
6/3/2022 3:30:00 AM 18.31 64.958 0.512 7.84 3.94 8.45
6/3/2022 3:45:00 AM 18.21 64.778 0.512 7.83 4.84 8.46
6/3/2022 4:00:00 AM 18.11 64.598 0.512 7.84 3.85 8.48
6/3/2022 4:15:00 AM 18.01 64.418 0.513 7.83 4.21 8.47
6/3/2022 4:30:00 AM 17.92 64.256 0.513 7.84 4.12 8.51
6/3/2022 4:45:00 AM 17.83 64.094 0.513 7.82 3.75 8.52
6/3/2022 5:00:00 AM 17.73 63.914 0.514 7.83 4.04 8.51
6/3/2022 5:15:00 AM 17.64 63.752 0.514 7.83 4.07 8.54
6/3/2022 5:30:00 AM 17.56 63.608 0.514 7.83 4.01 8.54
6/3/2022 5:45:00 AM 17.49 63.482 0.514 7.82 3.87 8.53
6/3/2022 6:00:00 AM 17.4 63.32 0.514 7.83 3.74 8.59
6/3/2022 6:15:00 AM 17.3 63.14 0.513 7.83 3.85 8.62
6/3/2022 6:30:00 AM 17.2 62.96 0.513 7.82 4.12 8.65
6/3/2022 6:45:00 AM 17.11 62.798 0.513 7.83 3.51 8.68
6/3/2022 7:00:00 AM 17.03 62.654 0.513 7.84 3.65 8.75
6/3/2022 7:15:00 AM 16.97 62.546 0.512 7.84 3.8 8.8
6/3/2022 7:30:00 AM 16.97 62.546 0.512 7.85 3.5 8.84
6/3/2022 7:45:00 AM 16.91 62.438 0.512 7.86 3.5 8.9
6/3/2022 8:00:00 AM 16.85 62.33 0.511 7.88 3.72 8.96
6/3/2022 8:15:00 AM 16.79 62.222 0.511 7.87 3.62 8.97
6/3/2022 8:30:00 AM 16.74 62.132 0.511 7.9 3.72 9.02
6/3/2022 8:45:00 AM 16.77 62.186 0.511 7.91 3.61 9.04
6/3/2022 9:00:00 AM 16.78 62.204 0.511 7.92 3.34 9.06
6/3/2022 9:15:00 AM 16.8 62.24 0.511 7.91 3.43 9.09
6/3/2022 9:30:00 AM 16.86 62.348 0.511 7.93 3.54 9.11
6/3/2022 9:45:00 AM 16.95 62.51 0.511 7.95 3.3 9.13
6/3/2022 10:00:00 AM 17.05 62.69 0.511 7.96 3.23 9.17
6/3/2022 10:15:00 AM 17.29 63.122 0.511 7.99 3.46 9.21
6/3/2022 10:30:00 AM 17.42 63.356 0.511 8 3.21 9.2
6/3/2022 10:45:00 AM 17.6 63.68 0.511 8 3.25 9.22
6/3/2022 11:00:00 AM 17.82 64.076 0.511 8.01 3.23 9.23
6/3/2022 11:15:00 AM 18.08 64.544 0.511 8.03 3.35 9.23
6/3/2022 11:30:00 AM 18.34 65.012 0.511 8.03 3.54 9.28
6/3/2022 11:45:00 AM 18.62 65.516 0.511 8.04 3.35 9.34
6/3/2022 12:00:00 PM 18.7 65.66 0.511 8.04 3.29 9.33
6/3/2022 12:15:00 PM 18.79 65.82201 0.51 8.06 3.38 9.33
6/3/2022 12:30:00 PM 18.8 65.84 0.51 8.05 3.49 9.3
6/3/2022 12:45:00 PM 19.02 66.236 0.509 8.06 3.24 9.33
6/3/2022 1:00:00 PM 19.02 66.236 0.509 8.05 2.95 9.33
6/3/2022 1:15:00 PM 19.19 66.542 0.508 8.06 3.25 9.29
6/3/2022 1:30:00 PM 19.34 66.812 0.508 8.07 3.21 9.24
6/3/2022 1:45:00 PM 19.43 66.974 0.508 8.06 2.95 9.24
6/3/2022 2:00:00 PM 19.63 67.334 0.507 8.08 3.22 9.26
6/3/2022 2:15:00 PM 19.94 67.892 0.506 8.08 7.46 9.28
6/3/2022 2:30:00 PM 19.7 67.46 0.505 8.1 3.05 9.23
6/3/2022 2:45:00 PM 19.67 67.406 0.505 8.08 3.34 9.22
6/3/2022 3:00:00 PM 20.02 68.036 0.504 8.09 3.22 9.26
6/3/2022 3:15:00 PM 20.02 68.036 0.503 8.1 3.03 9.19
6/3/2022 3:30:00 PM 19.79 67.622 0.502 8.09 3.22 9.05
6/3/2022 3:45:00 PM 19.65 67.37 0.502 8.07 2.95 8.93
6/3/2022 4:00:00 PM 19.75 67.55 0.501 8.06 2.95 8.96
6/3/2022 4:15:00 PM 19.78 67.604 0.5 8.07 3.21 8.98
6/3/2022 4:30:00 PM 19.92 67.856 0.5 8.07 3.12 9.01
6/3/2022 4:45:00 PM 20.11 68.198 0.499 8.08 3.02 9.05
6/3/2022 5:00:00 PM 20.28 68.504 0.498 8.08 3.94 9.07
6/3/2022 5:15:00 PM 20.36 68.648 0.498 8.1 3.19 9.06
6/3/2022 5:30:00 PM 20.35 68.63 0.497 8.11 3.07 9
6/3/2022 5:45:00 PM 20.25 68.45 0.497 8.1 3.18 8.94
6/3/2022 6:00:00 PM 20.17 68.306 0.496 8.1 3 8.89
6/3/2022 6:15:00 PM 20.05 68.09 0.496 8.08 3.23 8.81
6/3/2022 6:30:00 PM 19.95 67.91 0.496 8.07 3.4 8.79
6/3/2022 6:45:00 PM 19.9 67.82 0.495 8.07 3.29 8.77
6/3/2022 7:00:00 PM 19.83 67.694 0.495 8.06 4.64 8.75
6/3/2022 7:15:00 PM 19.76 67.568 0.495 8.05 3.25 8.7
6/3/2022 7:30:00 PM 19.66 67.388 0.495 8.04 3.29 8.68
6/3/2022 7:45:00 PM 19.54 67.172 0.495 8.02 3.32 8.63
6/3/2022 8:00:00 PM 19.43 66.974 0.494 8.01 3.43 8.61
6/3/2022 8:15:00 PM 19.32 66.776 0.494 7.99 3.18 8.56
6/3/2022 8:30:00 PM 19.2 66.56 0.494 7.98 3.18 8.55
6/3/2022 8:45:00 PM 19.1 66.38 0.494 7.97 3.12 8.52
6/3/2022 9:00:00 PM 19.01 66.218 0.494 7.96 3.31 8.49
6/3/2022 9:15:00 PM 18.93 66.074 0.494 7.94 3.3 8.48
6/3/2022 9:30:00 PM 18.85 65.93 0.494 7.93 3.4 8.47
6/3/2022 9:45:00 PM 18.77 65.786 0.494 7.92 3.55 8.45
6/3/2022 10:00:00 PM 18.68 65.624 0.494 7.9 3.48 8.46
6/3/2022 10:15:00 PM 18.6 65.48 0.494 7.89 3.81 8.46
6/3/2022 10:30:00 PM 18.51 65.318 0.494 7.88 3.65 8.47
6/3/2022 10:45:00 PM 18.42 65.156 0.494 7.88 3.31 8.49
6/3/2022 11:00:00 PM 18.33 64.994 0.495 7.87 3.5 8.5
6/3/2022 11:15:00 PM 18.23 64.814 0.495 7.87 3.59 8.53
6/3/2022 11:30:00 PM 18.14 64.652 0.495 7.87 3.74 8.53
6/3/2022 11:45:00 PM 18.05 64.49 0.495 7.86 3.22 8.53
6/4/2022 12:00:00 AM 17.95 64.31 0.495 7.86 3.45 8.57
6/4/2022 12:15:00 AM 17.85 64.13 0.496 7.85 3.42 8.58
6/4/2022 12:30:00 AM 17.74 63.932 0.496 7.86 3.65 8.61
6/4/2022 12:45:00 AM 17.63 63.734 0.496 7.85 3.65 8.63
6/4/2022 1:00:00 AM 17.52 63.536 0.496 7.85 3.49 8.66
6/4/2022 1:15:00 AM 17.42 63.356 0.497 7.84 3.39 8.66
6/4/2022 1:30:00 AM 17.31 63.158 0.497 7.84 3.66 8.69
6/4/2022 1:45:00 AM 17.2 62.96 0.497 7.84 3.37 8.71
6/4/2022 2:00:00 AM 17.1 62.78 0.498 7.83 3.58 8.73
6/4/2022 2:15:00 AM 16.99 62.582 0.498 7.83 4.12 8.74
6/4/2022 2:30:00 AM 16.89 62.402 0.498 7.83 3.63 8.77
6/4/2022 2:45:00 AM 16.8 62.24 0.499 7.83 3.45 8.76
6/4/2022 3:00:00 AM 16.7 62.06 0.499 7.84 3.76 8.8
6/4/2022 3:15:00 AM 16.6 61.88 0.499 7.83 3.74 8.83
6/4/2022 3:30:00 AM 16.51 61.718 0.5 7.82 3.68 8.85
6/4/2022 3:45:00 AM 16.4 61.52 0.5 7.83 3.66 8.87
6/4/2022 4:00:00 AM 16.31 61.358 0.5 7.82 3.56 8.89
6/4/2022 4:15:00 AM 16.2 61.16 0.5 7.82 3.62 8.91
6/4/2022 4:30:00 AM 16.11 60.998 0.501 7.83 3.41 8.92
6/4/2022 4:45:00 AM 16.01 60.818 0.501 7.82 3.68 8.95
6/4/2022 5:00:00 AM 15.91 60.638 0.501 7.82 3.56 8.97
6/4/2022 5:15:00 AM 15.81 60.458 0.502 7.82 3.6 8.99
6/4/2022 5:30:00 AM 15.72 60.296 0.502 7.82 3.7 9.01
6/4/2022 5:45:00 AM 15.63 60.134 0.502 7.82 3.63 9.03
6/4/2022 6:00:00 AM 15.53 59.954 0.503 7.82 3.64 9.06
6/4/2022 6:15:00 AM 15.44 59.792 0.503 7.83 4.15 9.1
6/4/2022 6:30:00 AM 15.37 59.666 0.503 7.82 4.01 9.14
6/4/2022 6:45:00 AM 15.3 59.54 0.504 7.83 3.52 9.19
6/4/2022 7:00:00 AM 15.23 59.414 0.504 7.84 3.42 9.23
6/4/2022 7:15:00 AM 15.18 59.324 0.504 7.85 3.27 9.28
6/4/2022 7:30:00 AM 15.15 59.27 0.504 7.85 3.35 9.33
6/4/2022 7:45:00 AM 15.12 59.216 0.504 7.87 3.3 9.37
6/4/2022 8:00:00 AM 15.09 59.162 0.505 7.87 3.56 9.4
6/4/2022 8:15:00 AM 15.08 59.144 0.505 7.87 3.32 9.42
6/4/2022 8:30:00 AM 15.1 59.18 0.505 7.89 3.3 9.46
6/4/2022 8:45:00 AM 15.13 59.234 0.505 7.9 3.44 9.49
6/4/2022 9:00:00 AM 15.18 59.324 0.505 7.91 3.27 9.51
6/4/2022 9:15:00 AM 15.26 59.468 0.505 7.92 3.24 9.53
6/4/2022 9:30:00 AM 15.37 59.666 0.505 7.93 3.24 9.57
6/4/2022 9:45:00 AM 15.49 59.882 0.505 7.96 3.27 9.59
6/4/2022 10:00:00 AM 15.65 60.17 0.505 7.97 3.18 9.61
6/4/2022 10:15:00 AM 15.86 60.548 0.505 7.99 3.3 9.64
6/4/2022 10:30:00 AM 16.05 60.89 0.505 8 2.97 9.66
6/4/2022 10:45:00 AM 16.28 61.304 0.505 7.99 3.2 9.66
6/4/2022 11:00:00 AM 16.57 61.826 0.506 8.01 3.17 9.67
6/4/2022 11:15:00 AM 16.82 62.276 0.506 8.02 3.76 9.67
6/4/2022 11:30:00 AM 17.12 62.816 0.505 8.03 2.95 9.69
6/4/2022 11:45:00 AM 17.32 63.176 0.505 8.04 3.04 9.68
6/4/2022 12:00:00 PM 17.53 63.554 0.505 8.04 2.88 9.67
6/4/2022 12:15:00 PM 17.75 63.95 0.504 8.04 3.09 9.66
6/4/2022 12:30:00 PM 17.95 64.31 0.504 8.06 3.08 9.65
6/4/2022 12:45:00 PM 18.2 64.76 0.504 8.07 4.19 9.64
6/4/2022 1:00:00 PM 18.43 65.174 0.504 8.07 3.08 9.62
6/4/2022 1:15:00 PM 18.68 65.624 0.504 8.07 2.93 9.6
6/4/2022 1:30:00 PM 18.93 66.074 0.504 8.08 3.17 9.58
6/4/2022 1:45:00 PM 19.17 66.506 0.504 8.08 2.97 9.56
6/4/2022 2:00:00 PM 19.42 66.956 0.505 8.07 3.1 9.52
6/4/2022 2:15:00 PM 19.67 67.406 0.505 8.09 3.04 9.51
6/4/2022 2:30:00 PM 19.89 67.802 0.505 8.1 2.87 9.48
6/4/2022 2:45:00 PM 20.16 68.288 0.505 8.09 2.95 9.45
6/4/2022 3:00:00 PM 20.32 68.576 0.505 8.1 3.14 9.43
6/4/2022 3:15:00 PM 20.5 68.9 0.505 8.11 3.01 9.39
6/4/2022 3:30:00 PM 20.68 69.224 0.505 8.11 2.91 9.38
6/4/2022 3:45:00 PM 20.83 69.494 0.505 8.11 2.91 9.36
6/4/2022 4:00:00 PM 20.9 69.62 0.506 8.1 3.01 9.3
6/4/2022 4:15:00 PM 20.99 69.782 0.506 8.12 2.9 9.28
6/4/2022 4:30:00 PM 20.99 69.782 0.506 8.11 2.99 9.21
6/4/2022 4:45:00 PM 21.02 69.836 0.506 8.11 3.1 9.14
6/4/2022 5:00:00 PM 21.03 69.854 0.506 8.12 2.96 9.11
6/4/2022 5:15:00 PM 20.96 69.728 0.506 8.12 2.77 9.06
6/4/2022 5:30:00 PM 20.93 69.674 0.507 8.11 2.83 9.01
6/4/2022 5:45:00 PM 20.83 69.494 0.507 8.11 2.81 8.96
6/4/2022 6:00:00 PM 20.71 69.278 0.507 8.1 5.91 8.89
6/4/2022 6:15:00 PM 20.5 68.9 0.507 8.1 2.93 8.84
6/4/2022 6:30:00 PM 20.4 68.72 0.507 8.08 2.93 8.8
6/4/2022 6:45:00 PM 20.28 68.504 0.507 8.08 3.03 8.78
6/4/2022 7:00:00 PM 20.14 68.252 0.508 8.07 2.94 8.74
6/4/2022 7:15:00 PM 19.97 67.946 0.508 8.06 2.95 8.69
6/4/2022 7:30:00 PM 19.8 67.64 0.508 8.05 3.44 8.66
6/4/2022 7:45:00 PM 19.6 67.28 0.508 8.03 3.25 8.63
6/4/2022 8:00:00 PM 19.41 66.938 0.508 8.02 3.11 8.58
6/4/2022 8:15:00 PM 19.27 66.686 0.508 8 3.12 8.55
6/4/2022 8:30:00 PM 19.1 66.38 0.509 7.99 3.14 8.53
6/4/2022 8:45:00 PM 18.96 66.128 0.509 7.98 3.26 8.53
6/4/2022 9:00:00 PM 18.83 65.894 0.509 7.97 3.17 8.52
6/4/2022 9:15:00 PM 18.71 65.67799 0.509 7.96 3.26 8.5
6/4/2022 9:30:00 PM 18.6 65.48 0.509 7.95 3.24 8.5
6/4/2022 9:45:00 PM 18.48 65.264 0.509 7.94 3.34 8.48
6/4/2022 10:00:00 PM 18.38 65.084 0.509 7.94 4.67 8.49
6/4/2022 10:15:00 PM 18.27 64.886 0.509 7.92 3.39 8.51
6/4/2022 10:30:00 PM 18.16 64.688 0.509 7.92 3.49 8.52
6/4/2022 10:45:00 PM 18.05 64.49 0.509 7.9 3.85 8.5
6/4/2022 11:00:00 PM 17.95 64.31 0.509 7.9 3.57 8.54
6/4/2022 11:15:00 PM 17.85 64.13 0.509 7.88 3.14 8.54
6/4/2022 11:30:00 PM 17.73 63.914 0.509 7.87 3.16 8.56
6/4/2022 11:45:00 PM 17.64 63.752 0.509 7.86 3.07 8.58
6/5/2022 12:00:00 AM 17.56 63.608 0.51 7.85 3.33 8.6
6/5/2022 12:15:00 AM 17.46 63.428 0.51 7.85 3.39 8.62
6/5/2022 12:30:00 AM 17.38 63.284 0.51 7.86 3.4 8.65
6/5/2022 12:45:00 AM 17.28 63.104 0.509 7.86 3.26 8.67
6/5/2022 1:00:00 AM 17.17 62.906 0.509 7.86 3.28 8.66
6/5/2022 1:15:00 AM 17.06 62.708 0.509 7.85 3.37 8.72
6/5/2022 1:30:00 AM 16.96 62.528 0.509 7.85 3.6 8.71
6/5/2022 1:45:00 AM 16.86 62.348 0.509 7.85 3.27 8.75
6/5/2022 2:00:00 AM 16.75 62.15 0.509 7.85 3.78 8.76
6/5/2022 2:15:00 AM 16.61 61.898 0.509 7.85 3.37 8.81
6/5/2022 2:30:00 AM 16.47 61.646 0.509 7.84 3.24 8.84
6/5/2022 2:45:00 AM 16.36 61.448 0.51 7.84 6.67 8.84
6/5/2022 3:00:00 AM 16.26 61.268 0.51 7.85 5.99 8.91
6/5/2022 3:15:00 AM 16.16 61.088 0.51 7.84 3.97 8.89
6/5/2022 3:30:00 AM 16.06 60.908 0.51 7.84 3.94 8.93
6/5/2022 3:45:00 AM 15.92 60.656 0.51 7.83 3.86 8.95
6/5/2022 4:00:00 AM 15.8 60.44 0.51 7.84 3.33 8.97
6/5/2022 4:15:00 AM 15.67 60.206 0.51 7.84 3.58 9.01
6/5/2022 4:30:00 AM 15.55 59.99 0.51 7.83 3.94 9.04
6/5/2022 4:45:00 AM 15.44 59.792 0.511 7.82 3.38 9.04
6/5/2022 5:00:00 AM 15.33 59.594 0.511 7.82 4.42 9.05
6/5/2022 5:15:00 AM 15.23 59.414 0.512 7.83 3.58 9.09
6/5/2022 5:30:00 AM 15.12 59.216 0.513 7.83 3.5 9.13
6/5/2022 5:45:00 AM 15.02 59.036 0.514 7.82 3.46 9.14
6/5/2022 6:00:00 AM 14.95 58.91 0.514 7.83 3.74 9.18
6/5/2022 6:15:00 AM 14.88 58.784 0.514 7.83 3.48 9.18
6/5/2022 6:30:00 AM 14.83 58.694 0.515 7.83 11.26 9.22
6/5/2022 6:45:00 AM 14.78 58.604 0.515 7.84 3.34 9.26
6/5/2022 7:00:00 AM 14.74 58.532 0.515 7.85 3.35 9.31
6/5/2022 7:15:00 AM 14.7 58.46 0.515 7.87 3.37 9.39
6/5/2022 7:30:00 AM 14.69 58.442 0.514 7.88 3.18 9.44
6/5/2022 7:45:00 AM 14.68 58.424 0.514 7.89 3.45 9.52
6/5/2022 8:00:00 AM 14.7 58.46 0.514 7.91 3.27 9.61
6/5/2022 8:15:00 AM 14.72 58.496 0.514 7.93 3.19 9.64
6/5/2022 8:30:00 AM 14.73 58.514 0.514 7.93 3.24 9.64
6/5/2022 8:45:00 AM 14.77 58.586 0.513 7.94 3.43 9.69
6/5/2022 9:00:00 AM 14.81 58.658 0.513 7.95 3.06 9.72
6/5/2022 9:15:00 AM 14.9 58.82 0.513 7.97 2.94 9.79
6/5/2022 9:30:00 AM 14.97 58.946 0.513 7.99 3.25 9.86
6/5/2022 9:45:00 AM 15.06 59.108 0.513 8.01 2.95 9.93
6/5/2022 10:00:00 AM 15.18 59.324 0.513 8.03 3.97 9.97
6/5/2022 10:15:00 AM 15.3 59.54 0.513 8.04 2.92 10
6/5/2022 10:30:00 AM 15.43 59.774 0.513 8.05 2.94 10.01
6/5/2022 10:45:00 AM 15.6 60.08 0.513 8.05 2.91 10.02
6/5/2022 11:00:00 AM 15.73 60.314 0.513 8.04 2.9 10.04
6/5/2022 11:15:00 AM 16.01 60.818 0.513 8.08 2.79 10.03
6/5/2022 11:30:00 AM 16.28 61.304 0.513 8.09 3.12 10.03
6/5/2022 11:45:00 AM 16.52 61.736 0.513 8.1 2.83 10.03
6/5/2022 12:00:00 PM 16.73 62.114 0.513 8.11 3.35 10.05
6/5/2022 12:15:00 PM 16.94 62.492 0.513 8.1 2.93 10.08
6/5/2022 12:30:00 PM 17.15 62.87 0.513 8.1 3.06 10.04
6/5/2022 12:45:00 PM 17.32 63.176 0.513 8.13 2.82 9.99
6/5/2022 1:00:00 PM 17.61 63.698 0.513 8.13 2.72 9.98
6/5/2022 1:15:00 PM 17.76 63.968 0.514 8.14 2.68 9.93
6/5/2022 1:30:00 PM 18.07 64.526 0.514 8.13 2.82 9.94
6/5/2022 1:45:00 PM 18.08 64.544 0.514 8.14 2.8 9.9
6/5/2022 2:00:00 PM 18.39 65.102 0.515 8.14 2.8 9.88
6/5/2022 2:15:00 PM 18.6 65.48 0.515 8.14 2.67 9.89
6/5/2022 2:30:00 PM 18.67 65.606 0.515 8.14 2.83 9.84
6/5/2022 2:45:00 PM 18.67 65.606 0.516 8.15 2.8 9.79
6/5/2022 3:00:00 PM 18.59 65.462 0.515 8.15 2.81 9.77
6/5/2022 3:15:00 PM 18.5 65.3 0.516 8.16 2.79 9.72
6/5/2022 3:30:00 PM 18.66 65.588 0.516 8.15 2.76 9.71
6/5/2022 3:45:00 PM 18.96 66.128 0.516 8.15 3.18 9.73
6/5/2022 4:00:00 PM 19.13 66.434 0.517 8.14 2.8 9.73
6/5/2022 4:15:00 PM 19.56 67.208 0.517 8.15 2.76 9.73
6/5/2022 4:30:00 PM 19.5 67.1 0.517 8.16 2.68 9.64
6/5/2022 4:45:00 PM 19.4 66.92 0.517 8.17 2.75 9.59
6/5/2022 5:00:00 PM 19.49 67.082 0.517 8.16 2.72 9.57
6/5/2022 5:15:00 PM 19.66 67.388 0.517 8.17 2.87 9.54
6/5/2022 5:30:00 PM 19.47 67.046 0.517 8.17 2.97 9.42
6/5/2022 5:45:00 PM 19.46 67.028 0.517 8.17 2.64 9.33
6/5/2022 6:00:00 PM 19.44 66.992 0.517 8.16 2.79 9.3
6/5/2022 6:15:00 PM 19.36 66.848 0.517 8.16 3.02 9.24
6/5/2022 6:30:00 PM 19.27 66.686 0.517 8.14 2.85 9.2
6/5/2022 6:45:00 PM 19.16 66.488 0.517 8.14 2.95 9.12
6/5/2022 7:00:00 PM 19.08 66.344 0.517 8.12 2.79 9.06
6/5/2022 7:15:00 PM 19.01 66.218 0.517 8.11 3.43 9.01
6/5/2022 7:30:00 PM 18.92 66.056 0.517 8.11 2.76 8.96
6/5/2022 7:45:00 PM 18.84 65.912 0.517 8.08 2.88 8.91
6/5/2022 8:00:00 PM 18.73 65.714 0.517 8.07 2.84 8.85
6/5/2022 8:15:00 PM 18.59 65.462 0.518 8.06 2.9 8.81
6/5/2022 8:30:00 PM 18.46 65.228 0.518 8.03 2.87 8.74
6/5/2022 8:45:00 PM 18.35 65.03 0.518 8.03 2.85 8.72
6/5/2022 9:00:00 PM 18.22 64.796 0.518 8.01 2.86 8.66
6/5/2022 9:15:00 PM 18.11 64.598 0.518 8 2.75 8.63
6/5/2022 9:30:00 PM 18.01 64.418 0.518 7.99 2.69 8.62
6/5/2022 9:45:00 PM 17.91 64.238 0.518 7.98 2.93 8.62
6/5/2022 10:00:00 PM 17.8 64.04 0.518 7.96 2.86 8.61
6/5/2022 10:15:00 PM 17.72 63.896 0.518 7.96 2.96 8.61
6/5/2022 10:30:00 PM 17.62 63.716 0.518 7.95 2.96 8.61
6/5/2022 10:45:00 PM 17.54 63.572 0.518 7.94 3.17 8.61
6/5/2022 11:00:00 PM 17.45 63.41 0.518 7.94 3.16 8.62
6/5/2022 11:15:00 PM 17.36 63.248 0.518 7.93 3.35 8.62
6/5/2022 11:30:00 PM 17.28 63.104 0.518 7.94 3.09 8.64
6/5/2022 11:45:00 PM 17.2 62.96 0.518 7.93 3.12 8.67
6/6/2022 12:00:00 AM 17.11 62.798 0.518 7.91 2.9 8.66
6/6/2022 12:15:00 AM 17.02 62.636 0.518 7.91 3.15 8.68
6/6/2022 12:30:00 AM 16.93 62.474 0.518 7.89 3.04 8.7
6/6/2022 12:45:00 AM 16.84 62.312 0.519 7.89 3.08 8.68
6/6/2022 1:00:00 AM 16.73 62.114 0.519 7.88 3.12 8.73
6/6/2022 1:15:00 AM 16.63 61.934 0.519 7.86 3.09 8.76
6/6/2022 1:30:00 AM 16.54 61.772 0.519 7.86 3.1 8.77
6/6/2022 1:45:00 AM 16.42 61.556 0.519 7.85 3.02 8.81
6/6/2022 2:00:00 AM 16.31 61.358 0.519 7.85 3.15 8.82
6/6/2022 2:15:00 AM 16.2 61.16 0.52 7.85 3.42 8.88
6/6/2022 2:30:00 AM 16.08 60.944 0.52 7.85 3.73 8.89
6/6/2022 2:45:00 AM 15.96 60.728 0.52 7.84 3.2 8.92
6/6/2022 3:00:00 AM 15.85 60.53 0.52 7.85 3.03 8.95
6/6/2022 3:15:00 AM 15.73 60.314 0.52 7.84 3.1 8.99
6/6/2022 3:30:00 AM 15.62 60.116 0.52 7.84 3.14 8.99
6/6/2022 3:45:00 AM 15.5 59.9 0.521 7.84 2.97 9.02
6/6/2022 4:00:00 AM 15.4 59.72 0.521 7.84 3.15 9.06
6/6/2022 4:15:00 AM 15.28 59.504 0.521 7.84 3.24 9.08
6/6/2022 4:30:00 AM 15.17 59.306 0.521 7.83 3 9.09
6/6/2022 4:45:00 AM 15.07 59.126 0.521 7.83 3.25 9.13
6/6/2022 5:00:00 AM 14.97 58.946 0.521 7.84 3.59 9.1
6/6/2022 5:15:00 AM 14.87 58.766 0.522 7.82 3.23 9.14
6/6/2022 5:30:00 AM 14.78 58.604 0.522 7.83 3.17 9.17
6/6/2022 5:45:00 AM 14.7 58.46 0.522 7.83 3.1 9.18
6/6/2022 6:00:00 AM 14.61 58.298 0.522 7.84 3.07 9.23
6/6/2022 6:15:00 AM 14.52 58.136 0.523 7.83 3.13 9.25
6/6/2022 6:30:00 AM 14.45 58.01 0.523 7.84 3.17 9.32
6/6/2022 6:45:00 AM 14.38 57.884 0.523 7.85 3.04 9.36
6/6/2022 7:00:00 AM 14.32 57.776 0.523 7.86 2.92 9.38
6/6/2022 7:15:00 AM 14.29 57.722 0.523 7.87 2.87 9.46
6/6/2022 7:30:00 AM 14.29 57.722 0.523 7.88 2.97 9.51
6/6/2022 7:45:00 AM 14.26 57.668 0.523 7.88 2.85 9.57
6/6/2022 8:00:00 AM 14.28 57.704 0.523 7.9 2.91 9.62
6/6/2022 8:15:00 AM 14.31 57.758 0.523 7.92 2.83 9.7
6/6/2022 8:30:00 AM 14.32 57.776 0.522 7.94 2.9 9.75
6/6/2022 8:45:00 AM 14.37 57.866 0.522 7.95 3.02 9.78
6/6/2022 9:00:00 AM 14.42 57.956 0.522 7.95 3.03 9.83
6/6/2022 9:15:00 AM 14.51 58.118 0.521 7.97 2.87 9.86
6/6/2022 9:30:00 AM 14.67 58.406 0.521 7.99 2.87 9.89
6/6/2022 9:45:00 AM 14.87 58.766 0.521 8 2.87 9.95
6/6/2022 10:00:00 AM 15.03 59.054 0.52 8.03 2.73 9.99
6/6/2022 10:15:00 AM 15.17 59.306 0.52 8.04 2.77 10.03
6/6/2022 10:30:00 AM 15.22 59.396 0.52 8.04 2.78 10.03
6/6/2022 10:45:00 AM 15.3 59.54 0.519 8.04 2.89 10.03
6/6/2022 11:00:00 AM 15.45 59.81 0.519 8.05 2.77 10.03
6/6/2022 11:15:00 AM 15.56 60.008 0.519 8.06 6.05 10.03
6/6/2022 11:30:00 AM 16.05 60.89 0.519 8.05 2.7 10.01
6/6/2022 11:45:00 AM 16.35 61.43 0.519 8.08 2.91 10.05
6/6/2022 12:00:00 PM 16.77 62.186 0.518 8.1 2.72 10.03
6/6/2022 12:15:00 PM 17.17 62.906 0.518 8.1 2.72 9.99
6/6/2022 12:30:00 PM 17.37 63.266 0.518 8.11 2.81 9.97
6/6/2022 12:45:00 PM 17.74 63.932 0.518 8.12 3 9.96
6/6/2022 1:00:00 PM 18.26 64.868 0.518 8.11 2.9 9.92
6/6/2022 1:15:00 PM 18.45 65.21 0.518 8.13 2.74 9.87
6/6/2022 1:30:00 PM 18.72 65.696 0.518 8.13 2.59 9.83
6/6/2022 1:45:00 PM 19.02 66.236 0.518 8.12 2.5 9.79
6/6/2022 2:00:00 PM 19.31 66.758 0.519 8.13 2.53 9.78
6/6/2022 2:15:00 PM 19.59 67.262 0.519 8.13 2.77 9.76
6/6/2022 2:30:00 PM 19.86 67.748 0.519 8.15 2.79 9.7
6/6/2022 2:45:00 PM 19.95 67.91 0.519 8.15 2.63 9.64
6/6/2022 3:00:00 PM 20.06 68.108 0.52 8.12 2.59 9.62
6/6/2022 3:15:00 PM 20.24 68.432 0.52 8.15 3.14 9.59
6/6/2022 3:30:00 PM 20.33 68.594 0.521 8.14 2.65 9.55
6/6/2022 3:45:00 PM 20.29 68.522 0.521 8.16 2.54 9.51
6/6/2022 4:00:00 PM 20.32 68.576 0.521 8.15 2.54 9.46
6/6/2022 4:15:00 PM 20.34 68.612 0.522 8.15 2.47 9.44
6/6/2022 4:30:00 PM 20.14 68.252 0.521 8.15 2.82 9.37
6/6/2022 4:45:00 PM 20.14 68.252 0.522 8.14 2.6 9.32
6/6/2022 5:00:00 PM 20.08 68.144 0.522 8.15 2.94 9.29
6/6/2022 5:15:00 PM 19.95 67.91 0.522 8.14 2.71 9.24
6/6/2022 5:30:00 PM 19.9 67.82 0.522 8.15 2.7 9.23
6/6/2022 5:45:00 PM 19.84 67.712 0.522 8.14 2.49 9.19
6/6/2022 6:00:00 PM 19.8 67.64 0.523 8.14 2.68 9.15
6/6/2022 6:15:00 PM 19.73 67.514 0.523 8.14 3.33 9.1
6/6/2022 6:30:00 PM 19.7 67.46 0.523 8.13 10.59 9.08
6/6/2022 6:45:00 PM 19.64 67.352 0.523 8.12 2.79 8.99
6/6/2022 7:00:00 PM 19.59 67.262 0.523 8.12 2.76 8.94
6/6/2022 7:15:00 PM 19.53 67.154 0.524 8.11 2.87 8.86
6/6/2022 7:30:00 PM 19.48 67.064 0.524 8.09 2.82 8.78
6/6/2022 7:45:00 PM 19.45 67.01 0.524 8.08 2.6 8.7
6/6/2022 8:00:00 PM 19.41 66.938 0.525 8.06 2.86 8.64
6/6/2022 8:15:00 PM 19.37 66.866 0.525 8.05 4.88 8.58
6/6/2022 8:30:00 PM 19.3 66.74 0.525 8.03 2.72 8.53
6/6/2022 8:45:00 PM 19.25 66.65 0.525 8.01 2.66 8.5
6/6/2022 9:00:00 PM 19.19 66.542 0.526 8 2.99 8.46
6/6/2022 9:15:00 PM 19.14 66.452 0.526 7.99 2.68 8.45
6/6/2022 9:30:00 PM 19.11 66.398 0.526 7.97 2.98 8.41
6/6/2022 9:45:00 PM 19.07 66.326 0.526 7.97 2.91 8.38
6/6/2022 10:00:00 PM 19.03 66.254 0.527 7.96 3.02 8.39
6/6/2022 10:15:00 PM 18.99 66.182 0.527 7.95 2.91 8.34
6/6/2022 10:30:00 PM 18.95 66.11 0.527 7.95 2.89 8.35
6/6/2022 10:45:00 PM 18.9 66.02 0.527 7.94 3.07 8.37
6/6/2022 11:00:00 PM 18.87 65.966 0.527 7.94 3.33 8.37
6/6/2022 11:15:00 PM 18.83 65.894 0.527 7.93 3.27 8.37
6/6/2022 11:30:00 PM 18.79 65.82201 0.527 7.93 3.16 8.37
6/6/2022 11:45:00 PM 18.76 65.768 0.527 7.93 2.93 8.37
6/7/2022 12:00:00 AM 18.73 65.714 0.528 7.93 3.29 8.39
6/7/2022 12:15:00 AM 18.69 65.642 0.528 7.93 3.35 8.38
6/7/2022 12:30:00 AM 18.65 65.57 0.528 7.91 3.33 8.36
6/7/2022 12:45:00 AM 18.6 65.48 0.528 7.91 3.14 8.35
6/7/2022 1:00:00 AM 18.56 65.408 0.528 7.91 3.09 8.33
6/7/2022 1:15:00 AM 18.52 65.336 0.529 7.92 3.3 8.39
6/7/2022 1:30:00 AM 18.47 65.246 0.529 7.91 3.01 8.39
6/7/2022 1:45:00 AM 18.41 65.138 0.529 7.91 3.25 8.43
6/7/2022 2:00:00 AM 18.36 65.048 0.529 7.91 3.22 8.46
6/7/2022 2:15:00 AM 18.3 64.94 0.529 7.91 3.3 8.49
6/7/2022 2:30:00 AM 18.25 64.85 0.529 7.9 3.22 8.48
6/7/2022 2:45:00 AM 18.21 64.778 0.529 7.9 3.32 8.5
6/7/2022 3:00:00 AM 18.15 64.67 0.529 7.9 3.26 8.48
6/7/2022 3:15:00 AM 18.09 64.562 0.529 7.89 3.27 8.52
6/7/2022 3:30:00 AM 18.01 64.418 0.529 7.89 3.27 8.51
6/7/2022 3:45:00 AM 17.94 64.292 0.529 7.88 3.32 8.55
6/7/2022 4:00:00 AM 17.87 64.166 0.529 7.89 3.18 8.57
6/7/2022 4:15:00 AM 17.81 64.058 0.529 7.88 3.02 8.57
6/7/2022 4:30:00 AM 17.75 63.95 0.529 7.89 3.13 8.58
6/7/2022 4:45:00 AM 17.68 63.824 0.529 7.87 3.42 8.58
6/7/2022 5:00:00 AM 17.61 63.698 0.529 7.88 3.23 8.58
6/7/2022 5:15:00 AM 17.54 63.572 0.529 7.87 3.7 8.58
6/7/2022 5:30:00 AM 17.49 63.482 0.529 7.86 4.74 8.59
6/7/2022 5:45:00 AM 17.43 63.374 0.53 7.87 3.43 8.62
6/7/2022 6:00:00 AM 17.39 63.302 0.53 7.86 3.35 8.58
6/7/2022 6:15:00 AM 17.34 63.212 0.53 7.86 3.5 8.63
6/7/2022 6:30:00 AM 17.31 63.158 0.53 7.86 3.29 8.69
6/7/2022 6:45:00 AM 17.27 63.086 0.53 7.86 3.15 8.68
6/7/2022 7:00:00 AM 17.27 63.086 0.53 7.87 3.19 8.77
6/7/2022 7:15:00 AM 17.26 63.068 0.53 7.88 3.34 8.83
6/7/2022 7:30:00 AM 17.28 63.104 0.53 7.88 3.14 8.87
6/7/2022 7:45:00 AM 17.26 63.068 0.53 7.9 3.17 8.89
6/7/2022 8:00:00 AM 17.25 63.05 0.53 7.9 3.19 8.93
6/7/2022 8:15:00 AM 17.24 63.032 0.53 7.91 3.12 8.94
6/7/2022 8:30:00 AM 17.23 63.014 0.53 7.92 4.43 8.94
6/7/2022 8:45:00 AM 17.23 63.014 0.53 7.92 3.24 8.96
6/7/2022 9:00:00 AM 17.21 62.978 0.53 7.92 3.06 8.93
6/7/2022 9:15:00 AM 17.21 62.978 0.529 7.91 3.09 8.98
6/7/2022 9:30:00 AM 17.22 62.996 0.529 7.93 2.96 9.02
6/7/2022 9:45:00 AM 17.23 63.014 0.529 7.93 2.99 9.03
6/7/2022 10:00:00 AM 17.3 63.14 0.529 7.96 3.21 9.17
6/7/2022 10:15:00 AM 17.31 63.158 0.529 7.96 3.09 9.22
6/7/2022 10:30:00 AM 17.31 63.158 0.529 7.97 3.31 9.23
6/7/2022 10:45:00 AM 17.3 63.14 0.528 7.98 3.74 9.27
6/7/2022 11:00:00 AM 17.26 63.068 0.527 7.98 3.14 9.23
6/7/2022 11:15:00 AM 17.21 62.978 0.525 7.97 3.32 9.2
6/7/2022 11:30:00 AM 17.18 62.924 0.523 7.96 3.58 9.15
6/7/2022 11:45:00 AM 17.19 62.942 0.52 7.95 3.68 9.16
6/7/2022 12:00:00 PM 17.21 62.978 0.52 7.95 3.69 9.18
6/7/2022 12:15:00 PM 17.17 62.906 0.519 7.95 3.44 9.15
6/7/2022 12:30:00 PM 17.15 62.87 0.516 7.94 4.02 9.14
6/7/2022 12:45:00 PM 17.28 63.104 0.515 7.94 3.42 9.24
6/7/2022 1:00:00 PM 17.51 63.518 0.515 7.96 3.53 9.35
6/7/2022 1:15:00 PM 17.5 63.5 0.515 7.98 3.39 9.41
6/7/2022 1:30:00 PM 17.44 63.392 0.514 7.99 3.4 9.4
6/7/2022 1:45:00 PM 17.4 63.32 0.512 7.99 3.95 9.38
6/7/2022 2:00:00 PM 17.38 63.284 0.511 7.99 3.53 9.36
6/7/2022 2:15:00 PM 17.4 63.32 0.511 7.99 3.18 9.36
6/7/2022 2:30:00 PM 17.41 63.338 0.511 7.99 3.6 9.34
6/7/2022 2:45:00 PM 17.44 63.392 0.511 8 3.5 9.37
6/7/2022 3:00:00 PM 17.44 63.392 0.511 8.01 3.68 9.38
6/7/2022 3:15:00 PM 17.45 63.41 0.511 8.01 3.58 9.39
6/7/2022 3:30:00 PM 17.43 63.374 0.511 8.01 3.53 9.38
6/7/2022 3:45:00 PM 17.4 63.32 0.512 8.01 3.75 9.35
6/7/2022 4:00:00 PM 17.38 63.284 0.512 8 3.62 9.3
6/7/2022 4:15:00 PM 17.34 63.212 0.513 7.99 3.83 9.24
6/7/2022 4:30:00 PM 17.33 63.194 0.514 7.99 3.92 9.21
6/7/2022 4:45:00 PM 17.33 63.194 0.515 7.97 3.54 9.18
6/7/2022 5:00:00 PM 17.33 63.194 0.516 7.97 7.58 9.17
6/7/2022 5:15:00 PM 17.34 63.212 0.517 7.97 4.84 9.16
6/7/2022 5:30:00 PM 17.43 63.374 0.518 7.97 3.95 9.19
6/7/2022 5:45:00 PM 17.47 63.446 0.518 7.98 3.44 9.24
6/7/2022 6:00:00 PM 17.49 63.482 0.519 7.97 3.4 9.21
6/7/2022 6:15:00 PM 17.45 63.41 0.519 7.97 3.89 9.15
6/7/2022 6:30:00 PM 17.44 63.392 0.52 7.96 3.55 9.11
6/7/2022 6:45:00 PM 17.43 63.374 0.52 7.96 3.54 9.09
6/7/2022 7:00:00 PM 17.42 63.356 0.52 7.95 3.57 9.04
6/7/2022 7:15:00 PM 17.39 63.302 0.52 7.94 3.9 8.98
6/7/2022 7:30:00 PM 17.37 63.266 0.52 7.93 43.23 8.94
6/7/2022 7:45:00 PM 17.34 63.212 0.52 7.92 3.57 8.89
6/7/2022 8:00:00 PM 17.33 63.194 0.52 7.91 3.83 8.87
6/7/2022 8:15:00 PM 17.31 63.158 0.52 7.89 15.5 8.8
6/7/2022 8:30:00 PM 17.3 63.14 0.52 7.88 3.56 8.8
6/7/2022 8:45:00 PM 17.32 63.176 0.51 7.84 6.73 8.69
6/7/2022 9:00:00 PM 17.29 63.122 0.513 7.86 4.24 8.73
6/7/2022 9:15:00 PM 17.27 63.086 0.512 7.86 4.39 8.73
6/7/2022 9:30:00 PM 17.26 63.068 0.512 7.84 4.3 8.68
6/7/2022 9:45:00 PM 17.25 63.05 0.514 7.84 4.67 8.7
6/7/2022 10:00:00 PM 17.24 63.032 0.515 7.84 4.38 8.71
6/7/2022 10:15:00 PM 17.22 62.996 0.516 7.83 4.57 8.69
6/7/2022 10:30:00 PM 17.2 62.96 0.516 7.82 4.27 8.71
6/7/2022 10:45:00 PM 17.17 62.906 0.516 7.82 5.21 8.71
6/7/2022 11:00:00 PM 17.15 62.87 0.516 7.81 5.37 8.72
6/7/2022 11:15:00 PM 17.13 62.834 0.517 7.81 5.01 8.74
6/7/2022 11:30:00 PM 17.1 62.78 0.517 7.8 4.52 8.72
6/7/2022 11:45:00 PM 17.07 62.726 0.517 7.8 5.02 8.73
6/8/2022 12:00:00 AM 17.05 62.69 0.516 7.79 4.79 8.71
6/8/2022 12:15:00 AM 17.01 62.618 0.515 7.79 5.53 8.74
6/8/2022 12:30:00 AM 16.98 62.564 0.513 7.78 5.61 8.74
6/8/2022 12:45:00 AM 16.93 62.474 0.512 7.78 5.63 8.76
6/8/2022 1:00:00 AM 16.89 62.402 0.512 7.78 5.97 8.78
6/8/2022 1:15:00 AM 16.87 62.366 0.512 7.79 5.93 8.79
6/8/2022 1:30:00 AM 16.84 62.312 0.512 7.8 5.63 8.8
6/8/2022 1:45:00 AM 16.82 62.276 0.512 7.8 5.13 8.8
6/8/2022 2:00:00 AM 16.78 62.204 0.511 7.81 6.27 8.8
6/8/2022 2:15:00 AM 16.72 62.096 0.51 7.82 6.13 8.83
6/8/2022 2:30:00 AM 16.67 62.006 0.509 7.81 6.97 8.85
6/8/2022 2:45:00 AM 16.61 61.898 0.508 7.81 7.72 8.86
6/8/2022 3:00:00 AM 16.56 61.808 0.508 7.81 7.99 8.87
6/8/2022 3:15:00 AM 16.5 61.7 0.507 7.81 8.51 8.88
6/8/2022 3:30:00 AM 16.45 61.61 0.507 7.81 7.43 8.89
6/8/2022 3:45:00 AM 16.38 61.484 0.507 7.81 8.3 8.92
6/8/2022 4:00:00 AM 16.35 61.43 0.507 7.8 7.81 8.9
6/8/2022 4:15:00 AM 16.3 61.34 0.507 7.82 7.35 8.92
6/8/2022 4:30:00 AM 16.25 61.25 0.507 7.82 7.11 8.94
6/8/2022 4:45:00 AM 16.21 61.178 0.507 7.83 7.42 8.95
6/8/2022 5:00:00 AM 16.17 61.106 0.507 7.82 7.04 8.93
6/8/2022 5:15:00 AM 16.12 61.016 0.508 7.83 9.03 8.95
6/8/2022 5:30:00 AM 16.08 60.944 0.508 7.81 11.77 8.94
6/8/2022 5:45:00 AM 16.03 60.854 0.508 7.83 9.21 8.95
6/8/2022 6:00:00 AM 15.98 60.764 0.508 7.82 22.2 8.99
6/8/2022 6:15:00 AM 15.93 60.674 0.508 7.83 6.86 9.04
6/8/2022 6:30:00 AM 15.88 60.584 0.507 7.84 12.36 9.08
6/8/2022 6:45:00 AM 15.83 60.494 0.507 7.84 6.19 9.09
6/8/2022 7:00:00 AM 15.77 60.386 0.505 7.85 6.55 9.15
6/8/2022 7:15:00 AM 15.74 60.332 0.504 7.86 6.37 9.21
6/8/2022 7:30:00 AM 15.71 60.278 0.503 7.86 6.43 9.26
6/8/2022 7:45:00 AM 15.69 60.242 0.501 7.89 6.45 9.31
6/8/2022 8:00:00 AM 15.7 60.26 0.5 7.9 5.9 9.37
6/8/2022 8:15:00 AM 15.69 60.242 0.498 7.91 6.04 9.4
6/8/2022 8:30:00 AM 15.69 60.242 0.498 7.92 6.09 9.45
6/8/2022 8:45:00 AM 15.7 60.26 0.497 7.92 6.19 9.48
6/8/2022 9:00:00 AM 15.77 60.386 0.496 7.95 6.41 9.56
6/8/2022 9:15:00 AM 15.81 60.458 0.494 7.96 5.93 9.58
6/8/2022 9:30:00 AM 15.76 60.368 0.494 7.96 5.69 9.58
6/8/2022 9:45:00 AM 15.85 60.53 0.494 7.97 6.02 9.62
6/8/2022 10:00:00 AM 16 60.8 0.493 7.98 6.27 9.64
6/8/2022 10:15:00 AM 16.12 61.016 0.493 8 6.1 9.65
6/8/2022 10:30:00 AM 16.31 61.358 0.492 8 5.99 9.65
6/8/2022 10:45:00 AM 16.47 61.646 0.492 8.04 6.24 9.7
6/8/2022 11:00:00 AM 16.44 61.592 0.492 8.03 5.52 9.69
6/8/2022 11:15:00 AM 16.49 61.682 0.492 8.03 5.95 9.68
6/8/2022 11:30:00 AM 16.72 62.096 0.492 8.03 9.42 9.67
6/8/2022 11:45:00 AM 16.96 62.528 0.493 8.05 10.97 9.69
6/8/2022 12:00:00 PM 17.16 62.888 0.493 8.06 6.9 9.72
6/8/2022 12:15:00 PM 17.5 63.5 0.494 8.07 8.24 9.7
6/8/2022 12:30:00 PM 17.59 63.662 0.494 8.07 7.47 9.69
6/8/2022 12:45:00 PM 17.82 64.076 0.495 8.08 8.6 9.68
6/8/2022 1:00:00 PM 17.99 64.382 0.496 8.08 7.62 9.68
6/8/2022 1:15:00 PM 18.16 64.688 0.497 8.1 9.13 9.66
6/8/2022 1:30:00 PM 18.33 64.994 0.498 8.11 8.11 9.67
6/8/2022 1:45:00 PM 18.58 65.444 0.499 8.12 8.1 9.63
6/8/2022 2:00:00 PM 18.67 65.606 0.5 8.12 7.7 9.61
6/8/2022 2:15:00 PM 19.02 66.236 0.502 8.13 7.27 9.61
6/8/2022 2:30:00 PM 19.35 66.83 0.503 8.14 6.7 9.56
6/8/2022 2:45:00 PM 19.63 67.334 0.504 8.14 6.62 9.53
6/8/2022 3:00:00 PM 19.89 67.802 0.505 8.14 6.5 9.5
6/8/2022 3:15:00 PM 20.11 68.198 0.506 8.15 7.52 9.45
6/8/2022 3:30:00 PM 20.36 68.648 0.506 8.15 5.76 9.45
6/8/2022 3:45:00 PM 20.48 68.864 0.507 8.15 5.31 9.38
6/8/2022 4:00:00 PM 20.55 68.99 0.507 8.16 5.02 9.33
6/8/2022 4:15:00 PM 20.66 69.188 0.507 8.15 4.83 9.28
6/8/2022 4:30:00 PM 20.69 69.242 0.507 8.15 5.31 9.23
6/8/2022 4:45:00 PM 20.73 69.314 0.507 8.15 4.97 9.18
6/8/2022 5:00:00 PM 20.79 69.422 0.507 8.14 4.8 9.13
6/8/2022 5:15:00 PM 20.76 69.368 0.507 8.14 5.12 9.11
6/8/2022 5:30:00 PM 20.76 69.368 0.507 8.13 4.58 9.01
6/8/2022 5:45:00 PM 20.67 69.206 0.507 8.13 4.62 8.98
6/8/2022 6:00:00 PM 20.56 69.008 0.507 8.12 4.56 8.9
6/8/2022 6:15:00 PM 20.5 68.9 0.507 8.11 4.33 8.87
6/8/2022 6:30:00 PM 20.43 68.774 0.507 8.1 4.39 8.81
6/8/2022 6:45:00 PM 20.34 68.612 0.507 8.09 3.94 8.79
6/8/2022 7:00:00 PM 20.2 68.36 0.507 8.09 4.22 8.77
6/8/2022 7:15:00 PM 20.1 68.18 0.507 8.08 4.07 8.73
6/8/2022 7:30:00 PM 20.05 68.09 0.507 8.07 4.02 8.68
6/8/2022 7:45:00 PM 19.97 67.946 0.506 8.06 3.89 8.64
6/8/2022 8:00:00 PM 19.9 67.82 0.506 8.05 3.97 8.57
6/8/2022 8:15:00 PM 19.84 67.712 0.506 8.02 4.07 8.51
6/8/2022 8:30:00 PM 19.8 67.64 0.506 8.02 3.74 8.47
6/8/2022 8:45:00 PM 19.76 67.568 0.506 8.01 4.15 8.41
6/8/2022 9:00:00 PM 19.71 67.478 0.505 8 4.26 8.37
6/8/2022 9:15:00 PM 19.66 67.388 0.505 7.99 4.15 8.35
6/8/2022 9:30:00 PM 19.6 67.28 0.505 7.98 4.21 8.33
6/8/2022 9:45:00 PM 19.54 67.172 0.505 7.97 4.38 8.33
6/8/2022 10:00:00 PM 19.48 67.064 0.505 7.96 4.13 8.3
6/8/2022 10:15:00 PM 19.43 66.974 0.504 7.95 3.9 8.29
6/8/2022 10:30:00 PM 19.36 66.848 0.504 7.94 3.98 8.25
6/8/2022 10:45:00 PM 19.29 66.722 0.503 7.94 4.33 8.25
6/8/2022 11:00:00 PM 19.23 66.614 0.503 7.93 4.21 8.27
6/8/2022 11:15:00 PM 19.14 66.452 0.499 7.91 5.29 8.24
6/8/2022 11:30:00 PM 19.05 66.29 0.496 7.92 5.04 8.29
6/8/2022 11:45:00 PM 18.96 66.128 0.493 7.9 4.64 8.28
6/9/2022 12:00:00 AM 18.88 65.984 0.491 7.89 5.32 8.3
6/9/2022 12:15:00 AM 18.81 65.858 0.49 7.89 5.09 8.28
6/9/2022 12:30:00 AM 18.75 65.75 0.49 7.88 4.81 8.29
6/9/2022 12:45:00 AM 18.68 65.624 0.49 7.87 5 8.28
6/9/2022 1:00:00 AM 18.62 65.516 0.49 7.87 4.97 8.3
6/9/2022 1:15:00 AM 18.55 65.39 0.49 7.86 5.14 8.33
6/9/2022 1:30:00 AM 18.49 65.282 0.49 7.86 5.79 8.34
6/9/2022 1:45:00 AM 18.44 65.192 0.49 7.84 5.71 8.32
6/9/2022 2:00:00 AM 18.39 65.102 0.49 7.84 5.68 8.35
6/9/2022 2:15:00 AM 18.34 65.012 0.49 7.84 5.08 8.34
6/9/2022 2:30:00 AM 18.3 64.94 0.489 7.83 5.62 8.34
6/9/2022 2:45:00 AM 18.24 64.832 0.488 7.83 5.3 8.37
6/9/2022 3:00:00 AM 18.2 64.76 0.487 7.83 5.03 8.36
6/9/2022 3:15:00 AM 18.15 64.67 0.487 7.83 5.34 8.37
6/9/2022 3:30:00 AM 18.11 64.598 0.486 7.81 5.35 8.37
6/9/2022 3:45:00 AM 18.08 64.544 0.486 7.82 4.99 8.35
6/9/2022 4:00:00 AM 18.04 64.472 0.487 7.83 5.32 8.41
6/9/2022 4:15:00 AM 18.02 64.436 0.487 7.83 5.5 8.41
6/9/2022 4:30:00 AM 17.99 64.382 0.487 7.8 7.49 8.38
6/9/2022 4:45:00 AM 17.96 64.328 0.487 7.82 5.38 8.42
6/9/2022 5:00:00 AM 17.94 64.292 0.488 7.82 5.48 8.43
6/9/2022 5:15:00 AM 17.91 64.238 0.488 7.82 5.77 8.43
6/9/2022 5:30:00 AM 17.89 64.202 0.487 7.82 6.03 8.42
6/9/2022 5:45:00 AM 17.88 64.184 0.486 7.83 5.97 8.46
6/9/2022 6:00:00 AM 17.85 64.13 0.486 7.83 6.01 8.46
6/9/2022 6:15:00 AM 17.82 64.076 0.485 7.83 5.75 8.49
6/9/2022 6:30:00 AM 17.78 64.004 0.484 7.83 5.75 8.51
6/9/2022 6:45:00 AM 17.74 63.932 0.484 7.83 6.16 8.54
6/9/2022 7:00:00 AM 17.71 63.878 0.484 7.83 6.03 8.58
6/9/2022 7:15:00 AM 17.67 63.806 0.484 7.84 6.02 8.61
6/9/2022 7:30:00 AM 17.62 63.716 0.484 7.84 9.45 8.64
6/9/2022 7:45:00 AM 17.58 63.644 0.483 7.84 5.73 8.67
6/9/2022 8:00:00 AM 17.56 63.608 0.483 7.85 5.98 8.74
6/9/2022 8:15:00 AM 17.52 63.536 0.482 7.86 5.57 8.77
6/9/2022 8:30:00 AM 17.48 63.464 0.482 7.86 5.56 8.8
6/9/2022 8:45:00 AM 17.45 63.41 0.481 7.87 5.69 8.82
6/9/2022 9:00:00 AM 17.41 63.338 0.481 7.88 5.52 8.85
6/9/2022 9:15:00 AM 17.41 63.338 0.48 7.88 5.07 8.88
6/9/2022 9:30:00 AM 17.43 63.374 0.479 7.9 4.77 8.96
6/9/2022 9:45:00 AM 17.45 63.41 0.478 7.92 5.37 9.03
6/9/2022 10:00:00 AM 17.45 63.41 0.478 7.93 5.61 9.07
6/9/2022 10:15:00 AM 17.47 63.446 0.477 7.94 5.16 9.11
6/9/2022 10:30:00 AM 17.49 63.482 0.475 7.95 4.95 9.15
6/9/2022 10:45:00 AM 17.51 63.518 0.474 7.96 5.04 9.16
6/9/2022 11:00:00 AM 17.51 63.518 0.472 7.97 5.4 9.18
6/9/2022 11:15:00 AM 17.55 63.59 0.471 7.98 5.48 9.21
6/9/2022 11:30:00 AM 17.59 63.662 0.469 7.98 5.11 9.25
6/9/2022 11:45:00 AM 17.62 63.716 0.467 8 5.26 9.3
6/9/2022 12:00:00 PM 17.57 63.626 0.466 8 5.5 9.27
6/9/2022 12:15:00 PM 17.54 63.572 0.464 8 5.85 9.26
6/9/2022 12:30:00 PM 17.58 63.644 0.462 8.01 6.07 9.28
6/9/2022 12:45:00 PM 17.68 63.824 0.461 8.02 6.17 9.35
6/9/2022 1:00:00 PM 17.61 63.698 0.458 8.03 5.94 9.32
6/9/2022 1:15:00 PM 17.57 63.626 0.457 8.02 6.4 9.27
6/9/2022 1:30:00 PM 17.66 63.788 0.455 8.02 6.61 9.33
6/9/2022 1:45:00 PM 17.71 63.878 0.454 8.03 6.32 9.36
6/9/2022 2:00:00 PM 17.74 63.932 0.452 8.04 6.35 9.38
6/9/2022 2:15:00 PM 17.77 63.986 0.451 8.05 6.24 9.39
6/9/2022 2:30:00 PM 17.85 64.13 0.45 8.06 6.12 9.43
6/9/2022 2:45:00 PM 18.13 64.634 0.448 8.08 6.74 9.45
6/9/2022 3:00:00 PM 18.15 64.67 0.447 8.09 7.25 9.44
6/9/2022 3:15:00 PM 18.13 64.634 0.445 8.09 7.26 9.42
6/9/2022 3:30:00 PM 18.09 64.562 0.443 8.08 7.79 9.36
6/9/2022 3:45:00 PM 18.02 64.436 0.441 8.08 8.47 9.33
6/9/2022 4:00:00 PM 17.95 64.31 0.439 8.07 8.72 9.29
6/9/2022 4:15:00 PM 17.93 64.274 0.438 8.06 9.02 9.28
6/9/2022 4:30:00 PM 17.95 64.31 0.437 8.06 8.49 9.29
6/9/2022 4:45:00 PM 17.92 64.256 0.435 8.06 8.66 9.32
6/9/2022 5:00:00 PM 17.86 64.148 0.435 8.06 8.51 9.27
6/9/2022 5:15:00 PM 17.89 64.202 0.434 8.05 8.18 9.24
6/9/2022 5:30:00 PM 17.95 64.31 0.434 8.06 8.07 9.26
6/9/2022 5:45:00 PM 18.04 64.472 0.434 8.06 7.73 9.26
6/9/2022 6:00:00 PM 18.1 64.58 0.433 8.06 7.45 9.24
6/9/2022 6:15:00 PM 18.15 64.67 0.433 8.07 7.57 9.24
6/9/2022 6:30:00 PM 18.14 64.652 0.433 8.07 7.53 9.21
6/9/2022 6:45:00 PM 18.07 64.526 0.432 8.06 7.79 9.17
6/9/2022 7:00:00 PM 18 64.4 0.432 8.05 7.24 9.13
6/9/2022 7:15:00 PM 17.93 64.274 0.432 8.04 7.03 9.13
6/9/2022 7:30:00 PM 17.83 64.094 0.432 8.02 7.19 9.08
6/9/2022 7:45:00 PM 17.75 63.95 0.432 8 6.57 9.03
6/9/2022 8:00:00 PM 17.65 63.77 0.432 7.98 6.84 8.99
6/9/2022 8:15:00 PM 17.56 63.608 0.433 7.96 6.32 8.96
6/9/2022 8:30:00 PM 17.47 63.446 0.433 7.95 6.06 8.92
6/9/2022 8:45:00 PM 17.39 63.302 0.434 7.93 6.16 8.89
6/9/2022 9:00:00 PM 17.28 63.104 0.435 7.92 6.16 8.9
6/9/2022 9:15:00 PM 17.2 62.96 0.436 7.92 5.78 8.87
6/9/2022 9:30:00 PM 17.11 62.798 0.437 7.91 5.94 8.86
6/9/2022 9:45:00 PM 17.02 62.636 0.438 7.9 6.03 8.87
6/9/2022 10:00:00 PM 16.94 62.492 0.439 7.89 5.69 8.87
6/9/2022 10:15:00 PM 16.86 62.348 0.44 7.88 5.26 8.85
6/9/2022 10:30:00 PM 16.78 62.204 0.441 7.88 5.88 8.83
6/9/2022 10:45:00 PM 16.69 62.042 0.442 7.88 6.23 8.87
6/9/2022 11:00:00 PM 16.61 61.898 0.443 7.87 5.72 8.87
6/9/2022 11:15:00 PM 16.53 61.754 0.443 7.84 5.39 8.79
6/9/2022 11:30:00 PM 16.44 61.592 0.445 7.87 5.95 8.9
6/9/2022 11:45:00 PM 16.37 61.466 0.446 7.86 5.43 8.89
6/10/2022 12:00:00 AM 16.29 61.322 0.447 7.85 5.7 8.89
6/10/2022 12:15:00 AM 16.21 61.178 0.448 7.85 5.78 8.9
6/10/2022 12:30:00 AM 16.12 61.016 0.449 7.85 5.39 8.92
6/10/2022 12:45:00 AM 16.04 60.872 0.45 7.84 5.31 8.91
6/10/2022 1:00:00 AM 15.96 60.728 0.45 7.84 5.72 8.9
6/10/2022 1:15:00 AM 15.86 60.548 0.451 7.84 5.58 8.97
6/10/2022 1:30:00 AM 15.78 60.404 0.452 7.83 5.74 8.95
6/10/2022 1:45:00 AM 15.7 60.26 0.452 7.83 5.08 8.97
6/10/2022 2:00:00 AM 15.62 60.116 0.453 7.83 5.35 9
6/10/2022 2:15:00 AM 15.54 59.972 0.453 7.82 5.17 8.97
6/10/2022 2:30:00 AM 15.46 59.828 0.454 7.83 5.33 9.01
6/10/2022 2:45:00 AM 15.39 59.702 0.454 7.82 5.33 9.03
6/10/2022 3:00:00 AM 15.34 59.612 0.454 7.82 5.46 9.02
6/10/2022 3:15:00 AM 15.29 59.522 0.454 7.81 4.91 9.05
6/10/2022 3:30:00 AM 15.23 59.414 0.454 7.82 5.15 9.04
6/10/2022 3:45:00 AM 15.19 59.342 0.455 7.83 5.77 9.08
6/10/2022 4:00:00 AM 15.15 59.27 0.455 7.83 4.87 9.09
6/10/2022 4:15:00 AM 15.1 59.18 0.455 7.84 5.16 9.15
6/10/2022 4:30:00 AM 15.04 59.072 0.455 7.84 5.05 9.15
6/10/2022 4:45:00 AM 14.97 58.946 0.455 7.83 5.15 9.16
6/10/2022 5:00:00 AM 14.89 58.802 0.455 7.83 5.13 9.18
6/10/2022 5:15:00 AM 14.83 58.694 0.456 7.82 6.21 9.2
6/10/2022 5:30:00 AM 14.75 58.55 0.456 7.83 4.74 9.23
6/10/2022 5:45:00 AM 14.68 58.424 0.456 7.82 5.05 9.22
6/10/2022 6:00:00 AM 14.61 58.298 0.456 7.82 4.97 9.27
6/10/2022 6:15:00 AM 14.53 58.154 0.456 7.82 4.93 9.28
6/10/2022 6:30:00 AM 14.47 58.046 0.457 7.82 4.74 9.32
6/10/2022 6:45:00 AM 14.41 57.938 0.457 7.83 4.64 9.36
6/10/2022 7:00:00 AM 14.36 57.848 0.457 7.83 4.66 9.37
6/10/2022 7:15:00 AM 14.34 57.812 0.457 7.83 5.03 9.4
6/10/2022 7:30:00 AM 14.34 57.812 0.457 7.84 4.58 9.45
6/10/2022 7:45:00 AM 14.3 57.74 0.457 7.85 13.95 9.51
6/10/2022 8:00:00 AM 14.27 57.686 0.456 7.86 4.88 9.54
6/10/2022 8:15:00 AM 14.26 57.668 0.456 7.87 4.16 9.55
6/10/2022 8:30:00 AM 14.28 57.704 0.456 7.88 4.33 9.58
6/10/2022 8:45:00 AM 14.31 57.758 0.456 7.88 4.45 9.61
6/10/2022 9:00:00 AM 14.37 57.866 0.455 7.9 4.48 9.65
6/10/2022 9:15:00 AM 14.49 58.082 0.455 7.92 4.05 9.68
6/10/2022 9:30:00 AM 14.58 58.244 0.455 7.94 4.51 9.72
6/10/2022 9:45:00 AM 14.65 58.37 0.454 7.95 4.84 9.75
6/10/2022 10:00:00 AM 14.8 58.64 0.454 7.95 4.6 9.76
6/10/2022 10:15:00 AM 15.05 59.09 0.453 7.97 4.4 9.79
6/10/2022 10:30:00 AM 15.23 59.414 0.452 7.98 4.19 9.82
6/10/2022 10:45:00 AM 15.49 59.882 0.451 8 25.6